PWSweather.com
Personal Weather Stations
Station Observations
WHAKATANE1
Whakatane, WhakataneNZ

WhakataneWhakataneNZ

Lat: -37.960954, Lon: 176.9768

Elevation: 10

Station Type: Lacrosse

Latest ConditionsUpdated 7:53:00 PM GMT+12:12 Thursday, Oct 23, 2014
Currently Today's Max Today's Min Today's Average
Temperature 55.4°F13.0°C 66.9°F19.4°C 52.7°F11.5°C 57.9°F14.4°C
Dew Point 54.6°F12.6°C 62.5°F16.9°C 52.4°F11.3°C 55.5°F13.1°C
Winds 4.4 mph E7.1 kmh E 10.1 mph E16.3 kmh E - 3.8 mph 6.1 kmh
Wind Gusts 6.9 mph11.1 kmh 15.2 mph24.5 kmh - -
Humidity 97% 99% 73% 92%
Pressure 29.35 in993.9 mb 29.59 in1002.0 mb 29.34 in993.6 mb -
Precipitation - 0.37 in9.4 mm - -
Hour Temp Dew Point Humidity Winds Wind Gusts Pressure Precip Precip Rate Daily Precip Total
07:53 PM 55.4°F13.0°C 54.6°F12.6°C 97% 4.4 mph E7.1 kmh E 6.9 mph11.1 kmh 29.35 in993.9 mb 0.00 in0.0 mm 0.00 in/hr0.0 mm/hr 0.37 in9.4 mm
07:52 PM 55.4°F13.0°C 54.6°F12.6°C 97% 4.5 mph E7.2 kmh E 6.9 mph11.1 kmh 29.35 in993.9 mb 0.00 in0.0 mm 0.00 in/hr0.0 mm/hr 0.37 in9.4 mm
07:51 PM 55.6°F13.1°C 54.8°F12.7°C 97% 4.6 mph E7.4 kmh E 6.9 mph11.1 kmh 29.35 in993.9 mb 0.00 in0.0 mm 0.00 in/hr0.0 mm/hr 0.37 in9.4 mm
07:50 PM 55.6°F13.1°C 54.8°F12.7°C 97% 4.8 mph E7.7 kmh E 6.9 mph11.1 kmh 29.35 in993.9 mb 0.00 in0.0 mm 0.00 in/hr0.0 mm/hr 0.37 in9.4 mm
07:49 PM 55.6°F13.1°C 54.8°F12.7°C 97% 4.7 mph E7.6 kmh E 6.9 mph11.1 kmh 29.36 in994.2 mb 0.00 in0.0 mm 0.00 in/hr0.0 mm/hr 0.37 in9.4 mm
07:48 PM 55.6°F13.1°C 54.8°F12.7°C 97% 4.9 mph E7.9 kmh E 6.9 mph11.1 kmh 29.36 in994.2 mb 0.00 in0.0 mm 0.00 in/hr0.0 mm/hr 0.37 in9.4 mm
07:47 PM 55.6°F13.1°C 54.8°F12.7°C 97% 4.7 mph E7.6 kmh E 6.9 mph11.1 kmh 29.36 in994.2 mb 0.00 in0.0 mm 0.00 in/hr0.0 mm/hr 0.37 in9.4 mm
07:46 PM 55.8°F13.2°C 54.9°F12.7°C 97% 4.6 mph E7.4 kmh E 6.9 mph11.1 kmh 29.36 in994.2 mb 0.00 in0.0 mm 0.00 in/hr0.0 mm/hr 0.37 in9.4 mm
07:45 PM 55.8°F13.2°C 54.9°F12.7°C 97% 4.5 mph E7.2 kmh E 6.9 mph11.1 kmh 29.36 in994.2 mb 0.00 in0.0 mm 0.00 in/hr0.0 mm/hr 0.37 in9.4 mm
07:44 PM 55.8°F13.2°C 54.9°F12.7°C 97% 4.6 mph ENE7.4 kmh ENE 7.6 mph12.2 kmh 29.36 in994.2 mb 0.00 in0.0 mm 0.00 in/hr0.0 mm/hr 0.37 in9.4 mm
07:43 PM 55.8°F13.2°C 54.9°F12.7°C 97% 4.6 mph E7.4 kmh E 7.6 mph12.2 kmh 29.36 in994.2 mb 0.00 in0.0 mm 0.00 in/hr0.0 mm/hr 0.37 in9.4 mm
07:42 PM 55.8°F13.2°C 54.9°F12.7°C 97% 4.8 mph E7.7 kmh E 7.6 mph12.2 kmh 29.36 in994.2 mb 0.00 in0.0 mm 0.00 in/hr0.0 mm/hr 0.37 in9.4 mm
07:41 PM 55.9°F13.3°C 55.1°F12.8°C 97% 4.9 mph E7.9 kmh E 7.6 mph12.2 kmh 29.36 in994.2 mb 0.00 in0.0 mm 0.00 in/hr0.0 mm/hr 0.37 in9.4 mm
07:40 PM 55.9°F13.3°C 55.1°F12.8°C 97% 5.1 mph E8.2 kmh E 7.6 mph12.2 kmh 29.35 in993.9 mb 0.00 in0.0 mm 0.00 in/hr0.0 mm/hr 0.37 in9.4 mm
07:39 PM 55.9°F13.3°C 55.1°F12.8°C 97% 5.4 mph E8.7 kmh E 7.6 mph12.2 kmh 29.35 in993.9 mb 0.00 in0.0 mm 0.00 in/hr0.0 mm/hr 0.37 in9.4 mm
07:38 PM 55.9°F13.3°C 55.1°F12.8°C 97% 5.3 mph E8.5 kmh E 7.6 mph12.2 kmh 29.35 in993.9 mb 0.00 in0.0 mm 0.00 in/hr0.0 mm/hr 0.37 in9.4 mm
07:37 PM 55.9°F13.3°C 55.1°F12.8°C 97% 5.6 mph E9.0 kmh E 8.3 mph13.4 kmh 29.35 in993.9 mb 0.00 in0.0 mm 0.00 in/hr0.0 mm/hr 0.37 in9.4 mm
07:36 PM 55.9°F13.3°C 55.1°F12.8°C 97% 5.7 mph E9.2 kmh E 8.3 mph13.4 kmh 29.36 in994.2 mb 0.00 in0.0 mm 0.00 in/hr0.0 mm/hr 0.37 in9.4 mm
07:35 PM 55.9°F13.3°C 55.1°F12.8°C 97% 6.0 mph E9.7 kmh E 8.3 mph13.4 kmh 29.35 in993.9 mb 0.00 in0.0 mm 0.00 in/hr0.0 mm/hr 0.37 in9.4 mm
07:34 PM 55.9°F13.3°C 55.1°F12.8°C 97% 5.9 mph E9.5 kmh E 8.3 mph13.4 kmh 29.35 in993.9 mb 0.00 in0.0 mm 0.00 in/hr0.0 mm/hr 0.37 in9.4 mm
07:33 PM 56.1°F13.4°C 55.3°F12.9°C 97% 5.8 mph E9.3 kmh E 8.3 mph13.4 kmh 29.35 in993.9 mb 0.00 in0.0 mm 0.00 in/hr0.0 mm/hr 0.37 in9.4 mm
07:32 PM 56.1°F13.4°C 55.3°F12.9°C 97% 5.8 mph E9.3 kmh E 8.3 mph13.4 kmh 29.35 in993.9 mb 0.00 in0.0 mm 0.00 in/hr0.0 mm/hr 0.37 in9.4 mm
07:31 PM 56.1°F13.4°C 55.3°F12.9°C 97% 6.0 mph E9.7 kmh E 8.3 mph13.4 kmh 29.35 in993.9 mb 0.00 in0.0 mm 0.00 in/hr0.0 mm/hr 0.37 in9.4 mm
07:30 PM 56.1°F13.4°C 55.0°F12.8°C 96% 5.9 mph E9.5 kmh E 8.3 mph13.4 kmh 29.35 in993.9 mb 0.00 in0.0 mm 0.00 in/hr0.0 mm/hr 0.37 in9.4 mm
07:29 PM 56.1°F13.4°C 55.0°F12.8°C 96% 6.0 mph E9.7 kmh E 8.3 mph13.4 kmh 29.35 in993.9 mb 0.00 in0.0 mm 0.00 in/hr0.0 mm/hr 0.37 in9.4 mm
07:28 PM 56.1°F13.4°C 55.0°F12.8°C 96% 6.2 mph E10.0 kmh E 8.3 mph13.4 kmh 29.35 in993.9 mb 0.00 in0.0 mm 0.00 in/hr0.0 mm/hr 0.37 in9.4 mm
07:27 PM 56.1°F13.4°C 55.0°F12.8°C 96% 6.2 mph E10.0 kmh E 8.3 mph13.4 kmh 29.36 in994.2 mb 0.00 in0.0 mm 0.00 in/hr0.0 mm/hr 0.37 in9.4 mm
07:26 PM 56.1°F13.4°C 55.0°F12.8°C 96% 6.3 mph E10.1 kmh E 7.6 mph12.2 kmh 29.35 in993.9 mb 0.00 in0.0 mm 0.00 in/hr0.0 mm/hr 0.37 in9.4 mm
07:25 PM 56.1°F13.4°C 55.0°F12.8°C 96% 6.3 mph E10.1 kmh E 7.6 mph12.2 kmh 29.35 in993.9 mb 0.00 in0.0 mm 0.00 in/hr0.0 mm/hr 0.37 in9.4 mm
07:24 PM 56.3°F13.5°C 55.2°F12.9°C 96% 6.5 mph E10.5 kmh E 9.2 mph14.8 kmh 29.35 in993.9 mb 0.00 in0.0 mm 0.00 in/hr0.0 mm/hr 0.37 in9.4 mm
07:23 PM 56.3°F13.5°C 55.2°F12.9°C 96% 6.5 mph E10.5 kmh E 9.2 mph14.8 kmh 29.35 in993.9 mb 0.00 in0.0 mm 0.00 in/hr0.0 mm/hr 0.37 in9.4 mm
07:22 PM 56.3°F13.5°C 54.9°F12.7°C 95% 6.5 mph E10.5 kmh E 9.2 mph14.8 kmh 29.35 in993.9 mb 0.00 in0.0 mm 0.00 in/hr0.0 mm/hr 0.37 in9.4 mm
07:21 PM 56.3°F13.5°C 54.9°F12.7°C 95% 6.3 mph E10.1 kmh E 9.2 mph14.8 kmh 29.35 in993.9 mb 0.00 in0.0 mm 0.00 in/hr0.0 mm/hr 0.37 in9.4 mm
07:20 PM 56.3°F13.5°C 54.9°F12.7°C 95% 6.1 mph E9.8 kmh E 9.2 mph14.8 kmh 29.35 in993.9 mb 0.00 in0.0 mm 0.00 in/hr0.0 mm/hr 0.37 in9.4 mm
07:19 PM 56.3°F13.5°C 54.9°F12.7°C 95% 5.9 mph E9.5 kmh E 9.2 mph14.8 kmh 29.35 in993.9 mb 0.00 in0.0 mm 0.00 in/hr0.0 mm/hr 0.37 in9.4 mm
07:18 PM 56.3°F13.5°C 54.9°F12.7°C 95% 5.6 mph E9.0 kmh E 9.2 mph14.8 kmh 29.35 in993.9 mb 0.00 in0.0 mm 0.00 in/hr0.0 mm/hr 0.37 in9.4 mm
07:17 PM 56.5°F13.6°C 55.1°F12.8°C 95% 5.5 mph E8.9 kmh E 9.2 mph14.8 kmh 29.35 in993.9 mb 0.00 in0.0 mm 0.00 in/hr0.0 mm/hr 0.37 in9.4 mm
07:16 PM 56.5°F13.6°C 55.1°F12.8°C 95% 5.5 mph E8.9 kmh E 9.2 mph14.8 kmh 29.36 in994.2 mb 0.00 in0.0 mm 0.00 in/hr0.0 mm/hr 0.37 in9.4 mm
07:15 PM 56.5°F13.6°C 55.1°F12.8°C 95% 5.6 mph E9.0 kmh E 9.2 mph14.8 kmh 29.35 in993.9 mb 0.00 in0.0 mm 0.00 in/hr0.0 mm/hr 0.37 in9.4 mm
07:14 PM 56.5°F13.6°C 55.1°F12.8°C 95% 5.3 mph E8.5 kmh E 7.6 mph12.2 kmh 29.36 in994.2 mb 0.00 in0.0 mm 0.00 in/hr0.0 mm/hr 0.37 in9.4 mm
07:13 PM 56.7°F13.7°C 55.3°F12.9°C 95% 5.0 mph E8.0 kmh E 7.6 mph12.2 kmh 29.35 in993.9 mb 0.00 in0.0 mm 0.00 in/hr0.0 mm/hr 0.37 in9.4 mm
07:12 PM 56.7°F13.7°C 55.0°F12.8°C 94% 5.0 mph E8.0 kmh E 7.6 mph12.2 kmh 29.35 in993.9 mb 0.00 in0.0 mm 0.00 in/hr0.0 mm/hr 0.37 in9.4 mm
07:11 PM 56.7°F13.7°C 55.0°F12.8°C 94% 5.0 mph E8.0 kmh E 7.6 mph12.2 kmh 29.35 in993.9 mb 0.00 in0.0 mm 0.00 in/hr0.0 mm/hr 0.37 in9.4 mm
07:10 PM 56.7°F13.7°C 55.0°F12.8°C 94% 5.1 mph E8.2 kmh E 7.6 mph12.2 kmh 29.35 in993.9 mb 0.00 in0.0 mm 0.00 in/hr0.0 mm/hr 0.37 in9.4 mm
07:09 PM 56.7°F13.7°C 55.0°F12.8°C 94% 5.5 mph E8.9 kmh E 9.8 mph15.8 kmh 29.35 in993.9 mb 0.00 in0.0 mm 0.00 in/hr0.0 mm/hr 0.37 in9.4 mm
07:08 PM 56.7°F13.7°C 55.0°F12.8°C 94% 5.7 mph E9.2 kmh E 9.8 mph15.8 kmh 29.35 in993.9 mb 0.00 in0.0 mm 0.00 in/hr0.0 mm/hr 0.37 in9.4 mm
07:07 PM 56.8°F13.8°C 55.1°F12.8°C 94% 5.7 mph ENE9.2 kmh ENE 9.8 mph15.8 kmh 29.35 in993.9 mb 0.00 in0.0 mm 0.00 in/hr0.0 mm/hr 0.37 in9.4 mm
07:06 PM 56.8°F13.8°C 54.8°F12.7°C 93% 5.7 mph E9.2 kmh E 9.8 mph15.8 kmh 29.35 in993.9 mb 0.00 in0.0 mm 0.00 in/hr0.0 mm/hr 0.37 in9.4 mm
07:05 PM 56.8°F13.8°C 54.8°F12.7°C 93% 5.8 mph ENE9.3 kmh ENE 9.8 mph15.8 kmh 29.35 in993.9 mb 0.00 in0.0 mm 0.00 in/hr0.0 mm/hr 0.37 in9.4 mm
07:04 PM 56.8°F13.8°C 54.8°F12.7°C 93% 5.9 mph ENE9.5 kmh ENE 9.8 mph15.8 kmh 29.35 in993.9 mb 0.00 in0.0 mm 0.00 in/hr0.0 mm/hr 0.37 in9.4 mm
07:03 PM 56.8°F13.8°C 54.8°F12.7°C 93% 6.3 mph ENE10.1 kmh ENE 9.8 mph15.8 kmh 29.35 in993.9 mb 0.00 in0.0 mm 0.00 in/hr0.0 mm/hr 0.37 in9.4 mm
07:02 PM 57.0°F13.9°C 55.0°F12.8°C 93% 6.3 mph ENE10.1 kmh ENE 9.8 mph15.8 kmh 29.35 in993.9 mb 0.00 in0.0 mm 0.00 in/hr0.0 mm/hr 0.37 in9.4 mm
07:01 PM 57.0°F13.9°C 55.0°F12.8°C 93% 6.4 mph E10.3 kmh E 9.8 mph15.8 kmh 29.35 in993.9 mb 0.00 in0.0 mm 0.00 in/hr0.0 mm/hr 0.37 in9.4 mm
07:00 PM 57.0°F13.9°C 55.0°F12.8°C 93% 6.7 mph ENE10.8 kmh ENE 9.8 mph15.8 kmh 29.35 in993.9 mb 0.00 in0.0 mm 0.00 in/hr0.0 mm/hr 0.37 in9.4 mm
06:59 PM 57.0°F13.9°C 55.0°F12.8°C 93% 6.4 mph ENE10.3 kmh ENE 9.8 mph15.8 kmh 29.35 in993.9 mb 0.00 in0.0 mm 0.00 in/hr0.0 mm/hr 0.37 in9.4 mm
06:58 PM 57.2°F14.0°C 54.9°F12.7°C 92% 6.2 mph ENE10.0 kmh ENE 9.2 mph14.8 kmh 29.35 in993.9 mb 0.00 in0.0 mm 0.00 in/hr0.0 mm/hr 0.37 in9.4 mm
06:57 PM 57.2°F14.0°C 54.9°F12.7°C 92% 6.3 mph ENE10.1 kmh ENE 9.2 mph14.8 kmh 29.35 in993.9 mb 0.00 in0.0 mm 0.00 in/hr0.0 mm/hr 0.37 in9.4 mm
06:56 PM 57.2°F14.0°C 54.9°F12.7°C 92% 6.4 mph ENE10.3 kmh ENE 9.2 mph14.8 kmh 29.35 in993.9 mb 0.00 in0.0 mm 0.00 in/hr0.0 mm/hr 0.37 in9.4 mm
06:55 PM 57.2°F14.0°C 54.9°F12.7°C 92% 6.5 mph E10.5 kmh E 13.0 mph20.9 kmh 29.35 in993.9 mb 0.00 in0.0 mm 0.00 in/hr0.0 mm/hr 0.37 in9.4 mm
06:54 PM 57.4°F14.1°C 55.1°F12.8°C 92% 6.8 mph E10.9 kmh E 13.0 mph20.9 kmh 29.35 in993.9 mb 0.00 in0.0 mm 0.00 in/hr0.0 mm/hr 0.37 in9.4 mm
06:53 PM 57.4°F14.1°C 55.1°F12.8°C 92% 6.9 mph E11.1 kmh E 13.0 mph20.9 kmh 29.35 in993.9 mb 0.00 in0.0 mm 0.00 in/hr0.0 mm/hr 0.37 in9.4 mm
06:52 PM 57.4°F14.1°C 55.1°F12.8°C 92% 7.3 mph E11.7 kmh E 13.0 mph20.9 kmh 29.35 in993.9 mb 0.00 in0.0 mm 0.00 in/hr0.0 mm/hr 0.37 in9.4 mm
06:51 PM 57.4°F14.1°C 55.1°F12.8°C 92% 7.6 mph E12.2 kmh E 13.0 mph20.9 kmh 29.35 in993.9 mb 0.00 in0.0 mm 0.00 in/hr0.0 mm/hr 0.37 in9.4 mm
06:50 PM 57.6°F14.2°C 55.3°F12.9°C 92% 7.6 mph E12.2 kmh E 13.0 mph20.9 kmh 29.35 in993.9 mb 0.00 in0.0 mm 0.00 in/hr0.0 mm/hr 0.37 in9.4 mm
06:49 PM 57.6°F14.2°C 55.3°F12.9°C 92% 7.9 mph E12.7 kmh E 13.0 mph20.9 kmh 29.35 in993.9 mb 0.00 in0.0 mm 0.00 in/hr0.0 mm/hr 0.37 in9.4 mm
06:48 PM 57.6°F14.2°C 55.3°F12.9°C 92% 8.0 mph E12.9 kmh E 13.0 mph20.9 kmh 29.35 in993.9 mb 0.00 in0.0 mm 0.00 in/hr0.0 mm/hr 0.37 in9.4 mm
06:47 PM 57.6°F14.2°C 55.3°F12.9°C 92% 8.0 mph E12.9 kmh E 13.0 mph20.9 kmh 29.36 in994.2 mb 0.00 in0.0 mm 0.00 in/hr0.0 mm/hr 0.37 in9.4 mm
06:46 PM 57.6°F14.2°C 55.3°F12.9°C 92% 8.0 mph E12.9 kmh E 13.0 mph20.9 kmh 29.36 in994.2 mb 0.00 in0.0 mm 0.00 in/hr0.0 mm/hr 0.37 in9.4 mm
06:45 PM 57.6°F14.2°C 55.3°F12.9°C 92% 7.5 mph E12.1 kmh E 13.0 mph20.9 kmh 29.36 in994.2 mb 0.00 in0.0 mm 0.00 in/hr0.0 mm/hr 0.37 in9.4 mm
06:44 PM 57.7°F14.3°C 55.7°F13.2°C 93% 7.1 mph E11.4 kmh E 11.4 mph18.3 kmh 29.35 in993.9 mb 0.00 in0.0 mm 0.00 in/hr0.0 mm/hr 0.37 in9.4 mm
06:43 PM 57.7°F14.3°C 55.7°F13.2°C 93% 6.9 mph E11.1 kmh E 11.4 mph18.3 kmh 29.35 in993.9 mb 0.00 in0.0 mm 0.00 in/hr0.0 mm/hr 0.37 in9.4 mm
06:42 PM 57.7°F14.3°C 55.7°F13.2°C 93% 6.4 mph E10.3 kmh E 11.4 mph18.3 kmh 29.36 in994.2 mb 0.00 in0.0 mm 0.00 in/hr0.0 mm/hr 0.37 in9.4 mm
06:41 PM 57.7°F14.3°C 55.7°F13.2°C 93% 5.8 mph E9.3 kmh E 9.2 mph14.8 kmh 29.35 in993.9 mb 0.00 in0.0 mm 0.00 in/hr0.0 mm/hr 0.37 in9.4 mm
06:40 PM 57.7°F14.3°C 55.7°F13.2°C 93% 5.4 mph E8.7 kmh E 9.2 mph14.8 kmh 29.35 in993.9 mb 0.00 in0.0 mm 0.00 in/hr0.0 mm/hr 0.37 in9.4 mm
06:39 PM 57.7°F14.3°C 56.0°F13.3°C 94% 4.9 mph E7.9 kmh E 7.6 mph12.2 kmh 29.35 in993.9 mb 0.00 in0.0 mm 0.00 in/hr0.0 mm/hr 0.37 in9.4 mm
06:38 PM 57.7°F14.3°C 56.0°F13.3°C 94% 4.6 mph E7.4 kmh E 6.9 mph11.1 kmh 29.35 in993.9 mb 0.00 in0.0 mm 0.00 in/hr0.0 mm/hr 0.37 in9.4 mm
06:37 PM 57.7°F14.3°C 56.0°F13.3°C 94% 4.1 mph E6.6 kmh E 6.9 mph11.1 kmh 29.35 in993.9 mb 0.00 in0.0 mm 0.00 in/hr0.0 mm/hr 0.37 in9.4 mm
06:36 PM 57.9°F14.4°C 56.2°F13.4°C 94% 3.8 mph E6.1 kmh E 6.9 mph11.1 kmh 29.35 in993.9 mb 0.00 in0.0 mm 0.00 in/hr0.0 mm/hr 0.37 in9.4 mm
06:35 PM 57.9°F14.4°C 56.2°F13.4°C 94% 3.6 mph E5.8 kmh E 6.9 mph11.1 kmh 29.35 in993.9 mb 0.00 in0.0 mm 0.00 in/hr0.0 mm/hr 0.37 in9.4 mm
06:34 PM 57.9°F14.4°C 56.2°F13.4°C 94% 3.5 mph E5.6 kmh E 6.9 mph11.1 kmh 29.35 in993.9 mb 0.00 in0.0 mm 0.00 in/hr0.0 mm/hr 0.37 in9.4 mm
06:33 PM 57.9°F14.4°C 56.2°F13.4°C 94% 3.1 mph E5.0 kmh E 5.4 mph8.7 kmh 29.35 in993.9 mb 0.00 in0.0 mm 0.00 in/hr0.0 mm/hr 0.37 in9.4 mm
06:32 PM 57.9°F14.4°C 56.2°F13.4°C 94% 3.1 mph E5.0 kmh E 5.4 mph8.7 kmh 29.35 in993.9 mb 0.00 in0.0 mm 0.00 in/hr0.0 mm/hr 0.37 in9.4 mm
06:31 PM 57.9°F14.4°C 56.2°F13.4°C 94% 2.9 mph E4.7 kmh E 5.4 mph8.7 kmh 29.35 in993.9 mb 0.00 in0.0 mm 0.00 in/hr0.0 mm/hr 0.37 in9.4 mm
06:30 PM 57.9°F14.4°C 56.2°F13.4°C 94% 2.8 mph E4.5 kmh E 4.5 mph7.2 kmh 29.35 in993.9 mb 0.00 in0.0 mm 0.00 in/hr0.0 mm/hr 0.37 in9.4 mm
06:29 PM 57.9°F14.4°C 56.2°F13.4°C 94% 2.8 mph E4.5 kmh E 4.5 mph7.2 kmh 29.35 in993.9 mb 0.00 in0.0 mm 0.00 in/hr0.0 mm/hr 0.37 in9.4 mm
06:28 PM 57.9°F14.4°C 56.2°F13.4°C 94% 2.8 mph E4.5 kmh E 4.5 mph7.2 kmh 29.35 in993.9 mb 0.00 in0.0 mm 0.00 in/hr0.0 mm/hr 0.37 in9.4 mm
06:27 PM 57.9°F14.4°C 56.2°F13.4°C 94% 2.9 mph E4.7 kmh E 4.5 mph7.2 kmh 29.35 in993.9 mb 0.00 in0.0 mm 0.00 in/hr0.0 mm/hr 0.37 in9.4 mm
06:26 PM 57.9°F14.4°C 56.2°F13.4°C 94% 2.7 mph E4.3 kmh E 4.5 mph7.2 kmh 29.35 in993.9 mb 0.00 in0.0 mm 0.00 in/hr0.0 mm/hr 0.37 in9.4 mm
06:25 PM 57.9°F14.4°C 56.2°F13.4°C 94% 2.5 mph E4.0 kmh E 3.8 mph6.1 kmh 29.35 in993.9 mb 0.00 in0.0 mm 0.00 in/hr0.0 mm/hr 0.37 in9.4 mm
06:24 PM 57.9°F14.4°C 56.2°F13.4°C 94% 2.5 mph E4.0 kmh E 3.8 mph6.1 kmh 29.35 in993.9 mb 0.00 in0.0 mm 0.00 in/hr0.0 mm/hr 0.37 in9.4 mm
06:23 PM 57.9°F14.4°C 56.2°F13.4°C 94% 2.8 mph E4.5 kmh E 6.9 mph11.1 kmh 29.35 in993.9 mb 0.00 in0.0 mm 0.00 in/hr0.0 mm/hr 0.37 in9.4 mm
06:22 PM 57.9°F14.4°C 55.9°F13.3°C 93% 3.0 mph ENE4.8 kmh ENE 6.9 mph11.1 kmh 29.35 in993.9 mb 0.00 in0.0 mm 0.00 in/hr0.0 mm/hr 0.37 in9.4 mm
06:21 PM 57.9°F14.4°C 55.9°F13.3°C 93% 3.2 mph E5.1 kmh E 6.9 mph11.1 kmh 29.35 in993.9 mb 0.00 in0.0 mm 0.00 in/hr0.0 mm/hr 0.37 in9.4 mm
06:20 PM 57.9°F14.4°C 55.9°F13.3°C 93% 3.4 mph E5.5 kmh E 6.9 mph11.1 kmh 29.34 in993.6 mb 0.00 in0.0 mm 0.00 in/hr0.0 mm/hr 0.37 in9.4 mm
06:19 PM 57.9°F14.4°C 55.9°F13.3°C 93% 3.6 mph E5.8 kmh E 6.9 mph11.1 kmh 29.35 in993.9 mb 0.00 in0.0 mm 0.00 in/hr0.0 mm/hr 0.37 in9.4 mm
06:18 PM 57.9°F14.4°C 55.9°F13.3°C 93% 3.8 mph E6.1 kmh E 6.9 mph11.1 kmh 29.35 in993.9 mb 0.00 in0.0 mm 0.00 in/hr0.0 mm/hr 0.37 in9.4 mm
06:17 PM 57.9°F14.4°C 55.9°F13.3°C 93% 3.9 mph E6.3 kmh E 6.9 mph11.1 kmh 29.35 in993.9 mb 0.00 in0.0 mm 0.00 in/hr0.0 mm/hr 0.37 in9.4 mm
06:16 PM 57.9°F14.4°C 55.9°F13.3°C 93% 4.1 mph E6.6 kmh E 6.9 mph11.1 kmh 29.35 in993.9 mb 0.00 in0.0 mm 0.00 in/hr0.0 mm/hr 0.37 in9.4 mm
06:15 PM 57.9°F14.4°C 55.9°F13.3°C 93% 4.5 mph E7.2 kmh E 6.9 mph11.1 kmh 29.35 in993.9 mb 0.00 in0.0 mm 0.00 in/hr0.0 mm/hr 0.37 in9.4 mm
06:14 PM 57.9°F14.4°C 55.9°F13.3°C 93% 4.8 mph E7.7 kmh E 6.9 mph11.1 kmh 29.35 in993.9 mb 0.00 in0.0 mm 0.00 in/hr0.0 mm/hr 0.37 in9.4 mm
06:13 PM 57.9°F14.4°C 55.9°F13.3°C 93% 4.6 mph E7.4 kmh E 6.9 mph11.1 kmh 29.35 in993.9 mb 0.00 in0.0 mm 0.00 in/hr0.0 mm/hr 0.37 in9.4 mm
06:12 PM 57.9°F14.4°C 55.9°F13.3°C 93% 4.6 mph E7.4 kmh E 8.3 mph13.4 kmh 29.35 in993.9 mb 0.00 in0.0 mm 0.00 in/hr0.0 mm/hr 0.37 in9.4 mm
06:11 PM 57.9°F14.4°C 55.9°F13.3°C 93% 4.8 mph E7.7 kmh E 8.3 mph13.4 kmh 29.35 in993.9 mb 0.00 in0.0 mm 0.00 in/hr0.0 mm/hr 0.37 in9.4 mm
06:10 PM 58.1°F14.5°C 56.1°F13.4°C 93% 5.0 mph E8.0 kmh E 8.3 mph13.4 kmh 29.35 in993.9 mb 0.00 in0.0 mm 0.00 in/hr0.0 mm/hr 0.37 in9.4 mm
06:09 PM 58.1°F14.5°C 56.1°F13.4°C 93% 5.2 mph E8.4 kmh E 8.3 mph13.4 kmh 29.35 in993.9 mb 0.00 in0.0 mm 0.00 in/hr0.0 mm/hr 0.37 in9.4 mm
06:08 PM 58.1°F14.5°C 56.1°F13.4°C 93% 5.3 mph E8.5 kmh E 8.3 mph13.4 kmh 29.35 in993.9 mb 0.00 in0.0 mm 0.00 in/hr0.0 mm/hr 0.37 in9.4 mm
06:07 PM 58.1°F14.5°C 56.1°F13.4°C 93% 5.4 mph ENE8.7 kmh ENE 8.3 mph13.4 kmh 29.35 in993.9 mb 0.00 in0.0 mm 0.00 in/hr0.0 mm/hr 0.37 in9.4 mm
06:06 PM 58.1°F14.5°C 56.1°F13.4°C 93% 5.6 mph ENE9.0 kmh ENE 8.3 mph13.4 kmh 29.35 in993.9 mb 0.00 in0.0 mm 0.00 in/hr0.0 mm/hr 0.37 in9.4 mm
06:05 PM 58.1°F14.5°C 56.1°F13.4°C 93% 5.7 mph ENE9.2 kmh ENE 8.3 mph13.4 kmh 29.35 in993.9 mb 0.00 in0.0 mm 0.00 in/hr0.0 mm/hr 0.37 in9.4 mm
06:04 PM 58.3°F14.6°C 56.3°F13.5°C 93% 5.9 mph E9.5 kmh E 9.2 mph14.8 kmh 29.35 in993.9 mb 0.00 in0.0 mm 0.00 in/hr0.0 mm/hr 0.37 in9.4 mm
06:03 PM 58.3°F14.6°C 56.3°F13.5°C 93% 6.3 mph E10.1 kmh E 9.2 mph14.8 kmh 29.35 in993.9 mb 0.00 in0.0 mm 0.00 in/hr0.0 mm/hr 0.37 in9.4 mm
06:02 PM 58.3°F14.6°C 56.3°F13.5°C 93% 6.1 mph E9.8 kmh E 9.2 mph14.8 kmh 29.35 in993.9 mb 0.00 in0.0 mm 0.00 in/hr0.0 mm/hr 0.37 in9.4 mm
06:01 PM 58.3°F14.6°C 56.3°F13.5°C 93% 6.0 mph E9.7 kmh E 9.2 mph14.8 kmh 29.35 in993.9 mb 0.00 in0.0 mm 0.00 in/hr0.0 mm/hr 0.37 in9.4 mm
06:00 PM 58.5°F14.7°C 56.5°F13.6°C 93% 6.2 mph E10.0 kmh E 9.2 mph14.8 kmh 29.35 in993.9 mb 0.00 in0.0 mm 0.00 in/hr0.0 mm/hr 0.37 in9.4 mm
05:59 PM 58.5°F14.7°C 56.5°F13.6°C 93% 6.5 mph E10.5 kmh E 9.2 mph14.8 kmh 29.35 in993.9 mb 0.00 in0.0 mm 0.00 in/hr0.0 mm/hr 0.37 in9.4 mm
05:58 PM 58.5°F14.7°C 56.5°F13.6°C 93% 6.7 mph E10.8 kmh E 9.2 mph14.8 kmh 29.35 in993.9 mb 0.00 in0.0 mm 0.00 in/hr0.0 mm/hr 0.37 in9.4 mm
05:57 PM 58.5°F14.7°C 56.5°F13.6°C 93% 7.0 mph E11.3 kmh E 9.2 mph14.8 kmh 29.35 in993.9 mb 0.00 in0.0 mm 0.00 in/hr0.0 mm/hr 0.37 in9.4 mm
05:56 PM 58.5°F14.7°C 56.5°F13.6°C 93% 7.1 mph E11.4 kmh E 9.2 mph14.8 kmh 29.35 in993.9 mb 0.00 in0.0 mm 0.00 in/hr0.0 mm/hr 0.37 in9.4 mm
05:55 PM 58.6°F14.8°C 56.6°F13.7°C 93% 7.2 mph E11.6 kmh E 9.2 mph14.8 kmh 29.35 in993.9 mb 0.00 in0.0 mm 0.00 in/hr0.0 mm/hr 0.37 in9.4 mm
05:54 PM 58.6°F14.8°C 56.6°F13.7°C 93% 7.1 mph E11.4 kmh E 9.2 mph14.8 kmh 29.35 in993.9 mb 0.00 in0.0 mm 0.00 in/hr0.0 mm/hr 0.37 in9.4 mm
05:53 PM 58.6°F14.8°C 56.6°F13.7°C 93% 7.0 mph E11.3 kmh E 9.2 mph14.8 kmh 29.35 in993.9 mb 0.00 in0.0 mm 0.00 in/hr0.0 mm/hr 0.37 in9.4 mm
05:52 PM 58.6°F14.8°C 56.6°F13.7°C 93% 7.2 mph E11.6 kmh E 9.2 mph14.8 kmh 29.35 in993.9 mb 0.01 in0.3 mm 0.00 in/hr0.0 mm/hr 0.37 in9.4 mm
05:51 PM 58.8°F14.9°C 56.8°F13.8°C 93% 7.2 mph E11.6 kmh E 9.2 mph14.8 kmh 29.35 in993.9 mb 0.01 in0.3 mm 0.00 in/hr0.0 mm/hr 0.37 in9.4 mm
05:50 PM 58.8°F14.9°C 56.8°F13.8°C 93% 6.8 mph E10.9 kmh E 9.2 mph14.8 kmh 29.35 in993.9 mb 0.01 in0.3 mm 0.00 in/hr0.0 mm/hr 0.37 in9.4 mm
05:49 PM 58.8°F14.9°C 56.8°F13.8°C 93% 6.3 mph E10.1 kmh E 9.2 mph14.8 kmh 29.35 in993.9 mb 0.01 in0.3 mm 0.00 in/hr0.0 mm/hr 0.37 in9.4 mm
05:48 PM 58.8°F14.9°C 56.8°F13.8°C 93% 6.0 mph E9.7 kmh E 9.2 mph14.8 kmh 29.35 in993.9 mb 0.01 in0.3 mm 0.00 in/hr0.0 mm/hr 0.37 in9.4 mm
05:47 PM 58.8°F14.9°C 56.8°F13.8°C 93% 5.7 mph ENE9.2 kmh ENE 9.2 mph14.8 kmh 29.35 in993.9 mb 0.01 in0.3 mm 0.00 in/hr0.0 mm/hr 0.37 in9.4 mm
05:46 PM 58.8°F14.9°C 56.8°F13.8°C 93% 5.6 mph E9.0 kmh E 9.2 mph14.8 kmh 29.35 in993.9 mb 0.01 in0.3 mm 0.00 in/hr0.0 mm/hr 0.37 in9.4 mm
05:45 PM 58.8°F14.9°C 56.8°F13.8°C 93% 5.6 mph E9.0 kmh E 9.2 mph14.8 kmh 29.35 in993.9 mb 0.01 in0.3 mm 0.00 in/hr0.0 mm/hr 0.37 in9.4 mm
05:44 PM 58.8°F14.9°C 56.8°F13.8°C 93% 5.6 mph E9.0 kmh E 9.2 mph14.8 kmh 29.35 in993.9 mb 0.01 in0.3 mm 0.00 in/hr0.0 mm/hr 0.37 in9.4 mm
05:43 PM 59.0°F15.0°C 57.0°F13.9°C 93% 5.7 mph E9.2 kmh E 7.6 mph12.2 kmh 29.35 in993.9 mb 0.01 in0.3 mm 0.00 in/hr0.0 mm/hr 0.37 in9.4 mm
05:42 PM 59.0°F15.0°C 57.0°F13.9°C 93% 5.8 mph E9.3 kmh E 8.3 mph13.4 kmh 29.35 in993.9 mb 0.01 in0.3 mm 0.00 in/hr0.0 mm/hr 0.37 in9.4 mm
05:41 PM 59.0°F15.0°C 57.0°F13.9°C 93% 5.9 mph E9.5 kmh E 8.3 mph13.4 kmh 29.35 in993.9 mb 0.01 in0.3 mm 0.00 in/hr0.0 mm/hr 0.37 in9.4 mm
05:40 PM 59.0°F15.0°C 57.0°F13.9°C 93% 6.3 mph E10.1 kmh E 8.3 mph13.4 kmh 29.35 in993.9 mb 0.01 in0.3 mm 0.00 in/hr0.0 mm/hr 0.37 in9.4 mm
05:39 PM 59.0°F15.0°C 57.0°F13.9°C 93% 6.5 mph E10.5 kmh E 8.3 mph13.4 kmh 29.36 in994.2 mb 0.01 in0.3 mm 0.00 in/hr0.0 mm/hr 0.37 in9.4 mm
05:38 PM 59.0°F15.0°C 57.0°F13.9°C 93% 6.6 mph E10.6 kmh E 8.3 mph13.4 kmh 29.35 in993.9 mb 0.01 in0.3 mm 0.00 in/hr0.0 mm/hr 0.37 in9.4 mm
05:37 PM 59.0°F15.0°C 57.0°F13.9°C 93% 6.6 mph E10.6 kmh E 8.3 mph13.4 kmh 29.35 in993.9 mb 0.01 in0.3 mm 0.00 in/hr0.0 mm/hr 0.37 in9.4 mm
05:36 PM 59.0°F15.0°C 57.0°F13.9°C 93% 6.7 mph E10.8 kmh E 8.3 mph13.4 kmh 29.35 in993.9 mb 0.01 in0.3 mm 0.00 in/hr0.0 mm/hr 0.37 in9.4 mm
05:35 PM 59.0°F15.0°C 57.3°F14.1°C 94% 6.5 mph E10.5 kmh E 8.3 mph13.4 kmh 29.35 in993.9 mb 0.01 in0.3 mm 0.00 in/hr0.0 mm/hr 0.37 in9.4 mm
05:34 PM 59.0°F15.0°C 57.3°F14.1°C 94% 6.4 mph E10.3 kmh E 8.3 mph13.4 kmh 29.35 in993.9 mb 0.01 in0.3 mm 0.00 in/hr0.0 mm/hr 0.37 in9.4 mm
05:33 PM 59.0°F15.0°C 57.3°F14.1°C 94% 6.3 mph E10.1 kmh E 8.3 mph13.4 kmh 29.36 in994.2 mb 0.01 in0.3 mm 0.00 in/hr0.0 mm/hr 0.37 in9.4 mm
05:32 PM 58.8°F14.9°C 57.1°F13.9°C 94% 6.2 mph E10.0 kmh E 8.3 mph13.4 kmh 29.35 in993.9 mb 0.01 in0.3 mm 0.00 in/hr0.0 mm/hr 0.37 in9.4 mm
05:31 PM 58.8°F14.9°C 57.1°F13.9°C 94% 5.9 mph E9.5 kmh E 8.3 mph13.4 kmh 29.36 in994.2 mb 0.01 in0.3 mm 0.00 in/hr0.0 mm/hr 0.37 in9.4 mm
05:30 PM 58.8°F14.9°C 57.1°F13.9°C 94% 5.6 mph E9.0 kmh E 8.3 mph13.4 kmh 29.35 in993.9 mb 0.01 in0.3 mm 0.00 in/hr0.0 mm/hr 0.37 in9.4 mm
05:29 PM 58.8°F14.9°C 57.1°F13.9°C 94% 5.6 mph ESE9.0 kmh ESE 7.6 mph12.2 kmh 29.36 in994.2 mb 0.01 in0.3 mm 0.00 in/hr0.0 mm/hr 0.37 in9.4 mm
05:28 PM 58.8°F14.9°C 57.1°F13.9°C 94% 5.7 mph SE9.2 kmh SE 7.6 mph12.2 kmh 29.36 in994.2 mb 0.01 in0.3 mm 0.00 in/hr0.0 mm/hr 0.37 in9.4 mm
05:27 PM 58.6°F14.8°C 56.9°F13.8°C 94% 5.8 mph SE9.3 kmh SE 9.2 mph14.8 kmh 29.36 in994.2 mb 0.01 in0.3 mm 0.00 in/hr0.0 mm/hr 0.37 in9.4 mm
05:26 PM 58.6°F14.8°C 56.9°F13.8°C 94% 5.8 mph SE9.3 kmh SE 9.2 mph14.8 kmh 29.36 in994.2 mb 0.01 in0.3 mm 0.00 in/hr0.0 mm/hr 0.37 in9.4 mm
05:25 PM 58.6°F14.8°C 56.9°F13.8°C 94% 5.8 mph SE9.3 kmh SE 9.2 mph14.8 kmh 29.36 in994.2 mb 0.01 in0.3 mm 0.00 in/hr0.0 mm/hr 0.37 in9.4 mm
05:24 PM 58.6°F14.8°C 56.9°F13.8°C 94% 5.6 mph SE9.0 kmh SE 9.2 mph14.8 kmh 29.36 in994.2 mb 0.01 in0.3 mm 0.00 in/hr0.0 mm/hr 0.37 in9.4 mm
05:23 PM 58.5°F14.7°C 56.5°F13.6°C 93% 5.6 mph ESE9.0 kmh ESE 9.2 mph14.8 kmh 29.36 in994.2 mb 0.01 in0.3 mm 0.00 in/hr0.0 mm/hr 0.37 in9.4 mm
05:22 PM 58.5°F14.7°C 56.5°F13.6°C 93% 5.2 mph ESE8.4 kmh ESE 9.2 mph14.8 kmh 29.36 in994.2 mb 0.01 in0.3 mm 0.00 in/hr0.0 mm/hr 0.37 in9.4 mm
05:21 PM 58.5°F14.7°C 56.5°F13.6°C 93% 5.0 mph ESE8.0 kmh ESE 9.2 mph14.8 kmh 29.36 in994.2 mb 0.01 in0.3 mm 0.00 in/hr0.0 mm/hr 0.37 in9.4 mm
05:20 PM 58.5°F14.7°C 56.5°F13.6°C 93% 5.0 mph ESE8.0 kmh ESE 9.2 mph14.8 kmh 29.36 in994.2 mb 0.01 in0.3 mm 0.00 in/hr0.0 mm/hr 0.37 in9.4 mm
05:19 PM 58.3°F14.6°C 56.3°F13.5°C 93% 4.8 mph ESE7.7 kmh ESE 9.2 mph14.8 kmh 29.36 in994.2 mb 0.01 in0.3 mm 0.00 in/hr0.0 mm/hr 0.37 in9.4 mm
05:18 PM 58.3°F14.6°C 56.3°F13.5°C 93% 4.4 mph E7.1 kmh E 9.2 mph14.8 kmh 29.36 in994.2 mb 0.01 in0.3 mm 0.00 in/hr0.0 mm/hr 0.37 in9.4 mm
05:17 PM 58.3°F14.6°C 56.3°F13.5°C 93% 4.3 mph E6.9 kmh E 9.2 mph14.8 kmh 29.36 in994.2 mb 0.01 in0.3 mm 0.00 in/hr0.0 mm/hr 0.37 in9.4 mm
05:16 PM 58.3°F14.6°C 56.0°F13.3°C 92% 4.2 mph E6.8 kmh E 6.0 mph9.7 kmh 29.36 in994.2 mb 0.01 in0.3 mm 0.00 in/hr0.0 mm/hr 0.37 in9.4 mm
05:15 PM 58.3°F14.6°C 56.0°F13.3°C 92% 4.2 mph E6.8 kmh E 6.9 mph11.1 kmh 29.36 in994.2 mb 0.01 in0.3 mm 0.00 in/hr0.0 mm/hr 0.37 in9.4 mm
05:14 PM 58.3°F14.6°C 56.0°F13.3°C 92% 4.4 mph E7.1 kmh E 7.6 mph12.2 kmh 29.36 in994.2 mb 0.01 in0.3 mm 0.00 in/hr0.0 mm/hr 0.37 in9.4 mm
05:13 PM 58.3°F14.6°C 56.0°F13.3°C 92% 4.7 mph E7.6 kmh E 7.6 mph12.2 kmh 29.36 in994.2 mb 0.01 in0.3 mm 0.00 in/hr0.0 mm/hr 0.37 in9.4 mm
05:12 PM 58.3°F14.6°C 55.7°F13.2°C 91% 5.1 mph E8.2 kmh E 7.6 mph12.2 kmh 29.36 in994.2 mb 0.01 in0.3 mm 0.00 in/hr0.0 mm/hr 0.37 in9.4 mm
05:11 PM 58.3°F14.6°C 55.7°F13.2°C 91% 5.3 mph E8.5 kmh E 7.6 mph12.2 kmh 29.36 in994.2 mb 0.01 in0.3 mm 0.00 in/hr0.0 mm/hr 0.37 in9.4 mm
05:10 PM 58.3°F14.6°C 55.7°F13.2°C 91% 5.3 mph E8.5 kmh E 7.6 mph12.2 kmh 29.36 in994.2 mb 0.01 in0.3 mm 0.00 in/hr0.0 mm/hr 0.37 in9.4 mm
05:09 PM 58.3°F14.6°C 55.7°F13.2°C 91% 5.6 mph E9.0 kmh E 7.6 mph12.2 kmh 29.36 in994.2 mb 0.01 in0.3 mm 0.00 in/hr0.0 mm/hr 0.37 in9.4 mm
05:08 PM 58.3°F14.6°C 55.4°F13.0°C 90% 6.0 mph E9.7 kmh E 9.2 mph14.8 kmh 29.36 in994.2 mb 0.01 in0.3 mm 0.00 in/hr0.0 mm/hr 0.37 in9.4 mm
05:07 PM 58.5°F14.7°C 55.5°F13.1°C 90% 6.3 mph E10.1 kmh E 9.2 mph14.8 kmh 29.36 in994.2 mb 0.01 in0.3 mm 0.00 in/hr0.0 mm/hr 0.37 in9.4 mm
05:06 PM 58.5°F14.7°C 55.5°F13.1°C 90% 6.1 mph E9.8 kmh E 9.2 mph14.8 kmh 29.36 in994.2 mb 0.01 in0.3 mm 0.00 in/hr0.0 mm/hr 0.37 in9.4 mm
05:05 PM 58.5°F14.7°C 55.5°F13.1°C 90% 6.1 mph E9.8 kmh E 9.2 mph14.8 kmh 29.36 in994.2 mb 0.01 in0.3 mm 0.00 in/hr0.0 mm/hr 0.37 in9.4 mm
05:04 PM 58.5°F14.7°C 55.5°F13.1°C 90% 5.8 mph E9.3 kmh E 9.2 mph14.8 kmh 29.36 in994.2 mb 0.01 in0.3 mm 0.00 in/hr0.0 mm/hr 0.37 in9.4 mm
05:03 PM 58.6°F14.8°C 55.4°F13.0°C 89% 5.6 mph E9.0 kmh E 9.2 mph14.8 kmh 29.36 in994.2 mb 0.01 in0.3 mm 0.00 in/hr0.0 mm/hr 0.37 in9.4 mm
05:02 PM 58.8°F14.9°C 55.6°F13.1°C 89% 5.6 mph E9.0 kmh E 9.2 mph14.8 kmh 29.36 in994.2 mb 0.01 in0.3 mm 0.00 in/hr0.0 mm/hr 0.37 in9.4 mm
05:01 PM 58.8°F14.9°C 55.6°F13.1°C 89% 5.3 mph E8.5 kmh E 9.2 mph14.8 kmh 29.36 in994.2 mb 0.01 in0.3 mm 0.00 in/hr0.0 mm/hr 0.37 in9.4 mm
05:00 PM 58.8°F14.9°C 55.6°F13.1°C 89% 5.3 mph ESE8.5 kmh ESE 9.2 mph14.8 kmh 29.36 in994.2 mb 0.01 in0.3 mm 0.00 in/hr0.0 mm/hr 0.37 in9.4 mm
04:59 PM 59.0°F15.0°C 55.8°F13.2°C 89% 5.2 mph ESE8.4 kmh ESE 9.2 mph14.8 kmh 29.36 in994.2 mb 0.01 in0.3 mm 0.00 in/hr0.0 mm/hr 0.37 in9.4 mm
04:58 PM 59.2°F15.1°C 55.6°F13.1°C 88% 4.9 mph SE7.9 kmh SE 9.2 mph14.8 kmh 29.36 in994.2 mb 0.01 in0.3 mm 0.00 in/hr0.0 mm/hr 0.37 in9.4 mm
04:57 PM 59.2°F15.1°C 55.6°F13.1°C 88% 4.7 mph SE7.6 kmh SE 6.0 mph9.7 kmh 29.36 in994.2 mb 0.01 in0.3 mm 0.00 in/hr0.0 mm/hr 0.37 in9.4 mm
04:56 PM 59.4°F15.2°C 55.8°F13.2°C 88% 5.1 mph SE8.2 kmh SE 8.3 mph13.4 kmh 29.36 in994.2 mb 0.01 in0.3 mm 0.00 in/hr0.0 mm/hr 0.37 in9.4 mm
04:55 PM 59.4°F15.2°C 55.8°F13.2°C 88% 5.4 mph SE8.7 kmh SE 8.3 mph13.4 kmh 29.36 in994.2 mb 0.01 in0.3 mm 0.00 in/hr0.0 mm/hr 0.37 in9.4 mm
04:54 PM 59.4°F15.2°C 55.5°F13.1°C 87% 5.6 mph SE9.0 kmh SE 8.3 mph13.4 kmh 29.36 in994.2 mb 0.01 in0.3 mm 0.00 in/hr0.0 mm/hr 0.37 in9.4 mm
04:53 PM 59.5°F15.3°C 55.7°F13.2°C 87% 5.6 mph SE9.0 kmh SE 8.3 mph13.4 kmh 29.36 in994.2 mb 0.01 in0.3 mm 0.60 in/hr15.2 mm/hr 0.37 in9.4 mm
04:52 PM 59.5°F15.3°C 55.7°F13.2°C 87% 5.5 mph SE8.9 kmh SE 8.3 mph13.4 kmh 29.36 in994.2 mb 0.00 in0.0 mm 0.00 in/hr0.0 mm/hr 0.35 in8.9 mm
04:51 PM 59.5°F15.3°C 55.7°F13.2°C 87% 5.5 mph SE8.9 kmh SE 8.3 mph13.4 kmh 29.36 in994.2 mb 0.00 in0.0 mm 0.00 in/hr0.0 mm/hr 0.35 in8.9 mm
04:50 PM 59.7°F15.4°C 55.5°F13.1°C 86% 5.4 mph SE8.7 kmh SE 8.3 mph13.4 kmh 29.36 in994.2 mb 0.00 in0.0 mm 0.00 in/hr0.0 mm/hr 0.35 in8.9 mm
04:49 PM 59.7°F15.4°C 55.5°F13.1°C 86% 5.5 mph SE8.9 kmh SE 8.3 mph13.4 kmh 29.36 in994.2 mb 0.00 in0.0 mm 0.00 in/hr0.0 mm/hr 0.35 in8.9 mm
04:48 PM 59.7°F15.4°C 55.5°F13.1°C 86% 5.6 mph ESE9.0 kmh ESE 8.3 mph13.4 kmh 29.36 in994.2 mb 0.00 in0.0 mm 0.00 in/hr0.0 mm/hr 0.35 in8.9 mm
04:47 PM 59.9°F15.5°C 55.7°F13.2°C 86% 5.7 mph ESE9.2 kmh ESE 8.3 mph13.4 kmh 29.36 in994.2 mb 0.00 in0.0 mm 0.00 in/hr0.0 mm/hr 0.35 in8.9 mm
04:46 PM 59.9°F15.5°C 55.4°F13.0°C 85% 5.3 mph ESE8.5 kmh ESE 8.3 mph13.4 kmh 29.36 in994.2 mb 0.00 in0.0 mm 0.00 in/hr0.0 mm/hr 0.35 in8.9 mm
04:45 PM 59.9°F15.5°C 55.4°F13.0°C 85% 4.9 mph ESE7.9 kmh ESE 6.9 mph11.1 kmh 29.36 in994.2 mb 0.00 in0.0 mm 0.00 in/hr0.0 mm/hr 0.35 in8.9 mm
04:44 PM 59.9°F15.5°C 55.4°F13.0°C 85% 4.9 mph E7.9 kmh E 6.9 mph11.1 kmh 29.36 in994.2 mb 0.00 in0.0 mm 0.00 in/hr0.0 mm/hr 0.35 in8.9 mm
04:43 PM 60.1°F15.6°C 55.6°F13.1°C 85% 4.9 mph E7.9 kmh E 7.6 mph12.2 kmh 29.36 in994.2 mb 0.00 in0.0 mm 0.00 in/hr0.0 mm/hr 0.35 in8.9 mm
04:42 PM 60.1°F15.6°C 55.6°F13.1°C 85% 4.9 mph E7.9 kmh E 7.6 mph12.2 kmh 29.37 in994.6 mb 0.00 in0.0 mm 0.00 in/hr0.0 mm/hr 0.35 in8.9 mm
04:41 PM 60.1°F15.6°C 55.6°F13.1°C 85% 5.1 mph E8.2 kmh E 7.6 mph12.2 kmh 29.37 in994.6 mb 0.00 in0.0 mm 0.00 in/hr0.0 mm/hr 0.35 in8.9 mm
04:40 PM 60.3°F15.7°C 55.7°F13.2°C 85% 5.2 mph ENE8.4 kmh ENE 7.6 mph12.2 kmh 29.37 in994.6 mb 0.00 in0.0 mm 0.00 in/hr0.0 mm/hr 0.35 in8.9 mm
04:39 PM 60.4°F15.8°C 55.6°F13.1°C 84% 5.2 mph ENE8.4 kmh ENE 7.6 mph12.2 kmh 29.37 in994.6 mb 0.00 in0.0 mm 0.00 in/hr0.0 mm/hr 0.35 in8.9 mm
04:38 PM 60.4°F15.8°C 55.6°F13.1°C 84% 5.3 mph E8.5 kmh E 7.6 mph12.2 kmh 29.37 in994.6 mb 0.00 in0.0 mm 0.00 in/hr0.0 mm/hr 0.35 in8.9 mm
04:37 PM 60.4°F15.8°C 55.6°F13.1°C 84% 5.3 mph E8.5 kmh E 7.6 mph12.2 kmh 29.37 in994.6 mb 0.00 in0.0 mm 0.00 in/hr0.0 mm/hr 0.35 in8.9 mm
04:36 PM 60.6°F15.9°C 55.8°F13.2°C 84% 5.5 mph E8.9 kmh E 7.6 mph12.2 kmh 29.37 in994.6 mb 0.00 in0.0 mm 0.00 in/hr0.0 mm/hr 0.35 in8.9 mm
04:35 PM 60.6°F15.9°C 55.4°F13.0°C 83% 5.6 mph E9.0 kmh E 7.6 mph12.2 kmh 29.37 in994.6 mb 0.00 in0.0 mm 0.00 in/hr0.0 mm/hr 0.35 in8.9 mm
04:34 PM 60.8°F16.0°C 55.6°F13.1°C 83% 5.8 mph E9.3 kmh E 7.6 mph12.2 kmh 29.37 in994.6 mb 0.00 in0.0 mm 0.00 in/hr0.0 mm/hr 0.35 in8.9 mm
04:33 PM 60.8°F16.0°C 55.6°F13.1°C 83% 6.0 mph E9.7 kmh E 8.3 mph13.4 kmh 29.37 in994.6 mb 0.00 in0.0 mm 0.00 in/hr0.0 mm/hr 0.35 in8.9 mm
04:32 PM 60.8°F16.0°C 55.6°F13.1°C 83% 6.0 mph E9.7 kmh E 8.3 mph13.4 kmh 29.37 in994.6 mb 0.00 in0.0 mm 0.00 in/hr0.0 mm/hr 0.35 in8.9 mm
04:31 PM 61.0°F16.1°C 55.5°F13.1°C 82% 6.2 mph ESE10.0 kmh ESE 8.3 mph13.4 kmh 29.37 in994.6 mb 0.00 in0.0 mm 0.00 in/hr0.0 mm/hr 0.35 in8.9 mm
04:30 PM 61.2°F16.2°C 55.6°F13.1°C 82% 6.3 mph SE10.1 kmh SE 8.3 mph13.4 kmh 29.38 in994.9 mb 0.00 in0.0 mm 0.00 in/hr0.0 mm/hr 0.35 in8.9 mm
04:29 PM 61.2°F16.2°C 55.3°F12.9°C 81% 6.2 mph SE10.0 kmh SE 8.3 mph13.4 kmh 29.38 in994.9 mb 0.00 in0.0 mm 0.00 in/hr0.0 mm/hr 0.35 in8.9 mm
04:28 PM 61.3°F16.3°C 55.5°F13.1°C 81% 5.9 mph SE9.5 kmh SE 8.3 mph13.4 kmh 29.38 in994.9 mb 0.00 in0.0 mm 0.00 in/hr0.0 mm/hr 0.35 in8.9 mm
04:27 PM 61.5°F16.4°C 55.3°F12.9°C 80% 6.0 mph ESE9.7 kmh ESE 8.3 mph13.4 kmh 29.37 in994.6 mb 0.00 in0.0 mm 0.00 in/hr0.0 mm/hr 0.35 in8.9 mm
04:26 PM 61.7°F16.5°C 55.5°F13.1°C 80% 6.1 mph E9.8 kmh E 8.3 mph13.4 kmh 29.37 in994.6 mb 0.00 in0.0 mm 0.00 in/hr0.0 mm/hr 0.35 in8.9 mm
04:25 PM 61.7°F16.5°C 55.5°F13.1°C 80% 6.1 mph E9.8 kmh E 8.3 mph13.4 kmh 29.38 in994.9 mb 0.00 in0.0 mm 0.00 in/hr0.0 mm/hr 0.35 in8.9 mm
04:24 PM 61.9°F16.6°C 55.3°F12.9°C 79% 6.2 mph E10.0 kmh E 8.3 mph13.4 kmh 29.38 in994.9 mb 0.00 in0.0 mm 0.00 in/hr0.0 mm/hr 0.35 in8.9 mm
04:23 PM 61.9°F16.6°C 55.3°F12.9°C 79% 5.9 mph E9.5 kmh E 8.3 mph13.4 kmh 29.37 in994.6 mb 0.00 in0.0 mm 0.00 in/hr0.0 mm/hr 0.35 in8.9 mm
04:22 PM 62.1°F16.7°C 55.1°F12.8°C 78% 6.1 mph E9.8 kmh E 8.3 mph13.4 kmh 29.37 in994.6 mb 0.00 in0.0 mm 0.00 in/hr0.0 mm/hr 0.35 in8.9 mm
04:21 PM 62.1°F16.7°C 55.1°F12.8°C 78% 5.9 mph E9.5 kmh E 8.3 mph13.4 kmh 29.37 in994.6 mb 0.00 in0.0 mm 0.00 in/hr0.0 mm/hr 0.35 in8.9 mm
04:20 PM 62.1°F16.7°C 55.1°F12.8°C 78% 6.3 mph E10.1 kmh E 13.0 mph20.9 kmh 29.37 in994.6 mb 0.00 in0.0 mm 0.00 in/hr0.0 mm/hr 0.35 in8.9 mm
04:19 PM 62.2°F16.8°C 55.3°F12.9°C 78% 6.3 mph E10.1 kmh E 13.0 mph20.9 kmh 29.37 in994.6 mb 0.00 in0.0 mm 0.00 in/hr0.0 mm/hr 0.35 in8.9 mm
04:18 PM 62.4°F16.9°C 55.5°F13.1°C 78% 6.5 mph E10.5 kmh E 13.0 mph20.9 kmh 29.38 in994.9 mb 0.00 in0.0 mm 0.00 in/hr0.0 mm/hr 0.35 in8.9 mm
04:17 PM 62.4°F16.9°C 55.5°F13.1°C 78% 6.4 mph E10.3 kmh E 13.0 mph20.9 kmh 29.38 in994.9 mb 0.00 in0.0 mm 0.00 in/hr0.0 mm/hr 0.35 in8.9 mm
04:16 PM 62.6°F17.0°C 55.3°F12.9°C 77% 6.3 mph E10.1 kmh E 13.0 mph20.9 kmh 29.38 in994.9 mb 0.00 in0.0 mm 0.00 in/hr0.0 mm/hr 0.35 in8.9 mm
04:15 PM 62.6°F17.0°C 55.3°F12.9°C 77% 6.5 mph E10.5 kmh E 13.0 mph20.9 kmh 29.38 in994.9 mb 0.00 in0.0 mm 0.00 in/hr0.0 mm/hr 0.35 in8.9 mm
04:14 PM 62.8°F17.1°C 55.5°F13.1°C 77% 6.3 mph E10.1 kmh E 13.0 mph20.9 kmh 29.37 in994.6 mb 0.00 in0.0 mm 0.00 in/hr0.0 mm/hr 0.35 in8.9 mm
04:13 PM 62.8°F17.1°C 55.5°F13.1°C 77% 6.2 mph ESE10.0 kmh ESE 13.0 mph20.9 kmh 29.37 in994.6 mb 0.00 in0.0 mm 0.00 in/hr0.0 mm/hr 0.35 in8.9 mm
04:12 PM 62.8°F17.1°C 55.5°F13.1°C 77% 6.0 mph ESE9.7 kmh ESE 13.0 mph20.9 kmh 29.37 in994.6 mb 0.00 in0.0 mm 0.00 in/hr0.0 mm/hr 0.35 in8.9 mm
04:11 PM 63.0°F17.2°C 55.3°F12.9°C 76% 5.8 mph ESE9.3 kmh ESE 13.0 mph20.9 kmh 29.38 in994.9 mb 0.00 in0.0 mm 0.00 in/hr0.0 mm/hr 0.35 in8.9 mm
04:10 PM 63.1°F17.3°C 55.5°F13.1°C 76% 5.2 mph SE8.4 kmh SE 7.6 mph12.2 kmh 29.37 in994.6 mb 0.00 in0.0 mm 0.00 in/hr0.0 mm/hr 0.35 in8.9 mm
04:09 PM 63.1°F17.3°C 55.5°F13.1°C 76% 5.3 mph ESE8.5 kmh ESE 7.6 mph12.2 kmh 29.37 in994.6 mb 0.00 in0.0 mm 0.00 in/hr0.0 mm/hr 0.35 in8.9 mm
04:08 PM 63.3°F17.4°C 55.6°F13.1°C 76% 5.5 mph SE8.9 kmh SE 7.6 mph12.2 kmh 29.37 in994.6 mb 0.00 in0.0 mm 0.00 in/hr0.0 mm/hr 0.35 in8.9 mm
04:07 PM 63.5°F17.5°C 55.8°F13.2°C 76% 5.8 mph ESE9.3 kmh ESE 9.2 mph14.8 kmh 29.38 in994.9 mb 0.00 in0.0 mm 0.00 in/hr0.0 mm/hr 0.35 in8.9 mm
04:06 PM 63.5°F17.5°C 55.8°F13.2°C 76% 6.0 mph E9.7 kmh E 9.2 mph14.8 kmh 29.37 in994.6 mb 0.00 in0.0 mm 0.00 in/hr0.0 mm/hr 0.35 in8.9 mm
04:05 PM 63.7°F17.6°C 55.6°F13.1°C 75% 6.2 mph E10.0 kmh E 9.8 mph15.8 kmh 29.38 in994.9 mb 0.00 in0.0 mm 0.00 in/hr0.0 mm/hr 0.35 in8.9 mm
04:04 PM 63.7°F17.6°C 55.6°F13.1°C 75% 6.3 mph ESE10.1 kmh ESE 9.8 mph15.8 kmh 29.37 in994.6 mb 0.00 in0.0 mm 0.00 in/hr0.0 mm/hr 0.35 in8.9 mm
04:03 PM 63.9°F17.7°C 55.8°F13.2°C 75% 6.4 mph E10.3 kmh E 9.8 mph15.8 kmh 29.37 in994.6 mb 0.00 in0.0 mm 0.00 in/hr0.0 mm/hr 0.35 in8.9 mm
04:02 PM 64.0°F17.8°C 55.6°F13.1°C 74% 6.7 mph E10.8 kmh E 9.8 mph15.8 kmh 29.38 in994.9 mb 0.00 in0.0 mm 0.00 in/hr0.0 mm/hr 0.35 in8.9 mm
04:01 PM 64.0°F17.8°C 55.6°F13.1°C 74% 6.9 mph E11.1 kmh E 9.8 mph15.8 kmh 29.38 in994.9 mb 0.00 in0.0 mm 0.00 in/hr0.0 mm/hr 0.35 in8.9 mm
04:00 PM 64.2°F17.9°C 55.8°F13.2°C 74% 6.9 mph E11.1 kmh E 9.8 mph15.8 kmh 29.38 in994.9 mb 0.00 in0.0 mm 0.00 in/hr0.0 mm/hr 0.35 in8.9 mm
03:59 PM 64.4°F18.0°C 56.0°F13.3°C 74% 6.8 mph E10.9 kmh E 9.8 mph15.8 kmh 29.38 in994.9 mb 0.00 in0.0 mm 0.00 in/hr0.0 mm/hr 0.35 in8.9 mm
03:58 PM 64.6°F18.1°C 56.1°F13.4°C 74% 6.8 mph E10.9 kmh E 9.8 mph15.8 kmh 29.38 in994.9 mb 0.00 in0.0 mm 0.00 in/hr0.0 mm/hr 0.35 in8.9 mm
03:57 PM 64.6°F18.1°C 56.1°F13.4°C 74% 6.7 mph E10.8 kmh E 9.8 mph15.8 kmh 29.38 in994.9 mb 0.00 in0.0 mm 0.00 in/hr0.0 mm/hr 0.35 in8.9 mm
03:56 PM 64.8°F18.2°C 56.3°F13.5°C 74% 6.3 mph E10.1 kmh E 9.8 mph15.8 kmh 29.38 in994.9 mb 0.00 in0.0 mm 0.00 in/hr0.0 mm/hr 0.35 in8.9 mm
03:55 PM 64.8°F18.2°C 56.3°F13.5°C 74% 6.4 mph E10.3 kmh E 10.7 mph17.2 kmh 29.38 in994.9 mb 0.00 in0.0 mm 0.00 in/hr0.0 mm/hr 0.35 in8.9 mm
03:54 PM 64.9°F18.3°C 56.5°F13.6°C 74% 6.5 mph E10.5 kmh E 10.7 mph17.2 kmh 29.37 in994.6 mb 0.00 in0.0 mm 0.00 in/hr0.0 mm/hr 0.35 in8.9 mm
03:53 PM 64.9°F18.3°C 56.5°F13.6°C 74% 6.8 mph E10.9 kmh E 10.7 mph17.2 kmh 29.38 in994.9 mb 0.00 in0.0 mm 0.00 in/hr0.0 mm/hr 0.35 in8.9 mm
03:52 PM 64.9°F18.3°C 56.5°F13.6°C 74% 7.0 mph E11.3 kmh E 10.7 mph17.2 kmh 29.38 in994.9 mb 0.00 in0.0 mm 0.00 in/hr0.0 mm/hr 0.35 in8.9 mm
03:51 PM 64.9°F18.3°C 56.5°F13.6°C 74% 7.1 mph E11.4 kmh E 10.7 mph17.2 kmh 29.37 in994.6 mb 0.00 in0.0 mm 0.00 in/hr0.0 mm/hr 0.35 in8.9 mm
03:50 PM 65.1°F18.4°C 56.6°F13.7°C 74% 7.3 mph E11.7 kmh E 10.7 mph17.2 kmh 29.37 in994.6 mb 0.00 in0.0 mm 0.00 in/hr0.0 mm/hr 0.35 in8.9 mm
03:49 PM 65.1°F18.4°C 56.6°F13.7°C 74% 7.5 mph E12.1 kmh E 10.7 mph17.2 kmh 29.37 in994.6 mb 0.00 in0.0 mm 0.00 in/hr0.0 mm/hr 0.35 in8.9 mm
03:48 PM 65.1°F18.4°C 56.3°F13.5°C 73% 7.5 mph E12.1 kmh E 10.7 mph17.2 kmh 29.37 in994.6 mb 0.00 in0.0 mm 0.00 in/hr0.0 mm/hr 0.35 in8.9 mm
03:47 PM 65.1°F18.4°C 56.3°F13.5°C 73% 7.5 mph E12.1 kmh E 10.7 mph17.2 kmh 29.38 in994.9 mb 0.00 in0.0 mm 0.00 in/hr0.0 mm/hr 0.35 in8.9 mm
03:46 PM 65.1°F18.4°C 56.3°F13.5°C 73% 7.9 mph E12.7 kmh E 10.7 mph17.2 kmh 29.38 in994.9 mb 0.00 in0.0 mm 0.00 in/hr0.0 mm/hr 0.35 in8.9 mm
03:45 PM 65.1°F18.4°C 56.3°F13.5°C 73% 8.0 mph E12.9 kmh E 10.7 mph17.2 kmh 29.38 in994.9 mb 0.00 in0.0 mm 0.00 in/hr0.0 mm/hr 0.35 in8.9 mm
03:44 PM 65.1°F18.4°C 56.3°F13.5°C 73% 8.2 mph E13.2 kmh E 10.7 mph17.2 kmh 29.38 in994.9 mb 0.00 in0.0 mm 0.00 in/hr0.0 mm/hr 0.35 in8.9 mm
03:43 PM 65.1°F18.4°C 56.3°F13.5°C 73% 8.3 mph E13.4 kmh E 10.7 mph17.2 kmh 29.38 in994.9 mb 0.00 in0.0 mm 0.00 in/hr0.0 mm/hr 0.35 in8.9 mm
03:42 PM 65.1°F18.4°C 56.6°F13.7°C 74% 8.2 mph E13.2 kmh E 10.7 mph17.2 kmh 29.38 in994.9 mb 0.00 in0.0 mm 0.00 in/hr0.0 mm/hr 0.35 in8.9 mm
03:41 PM 65.1°F18.4°C 56.6°F13.7°C 74% 8.5 mph E13.7 kmh E 12.1 mph19.5 kmh 29.37 in994.6 mb 0.00 in0.0 mm 0.00 in/hr0.0 mm/hr 0.35 in8.9 mm
03:40 PM 65.1°F18.4°C 56.6°F13.7°C 74% 8.9 mph E14.3 kmh E 12.1 mph19.5 kmh 29.38 in994.9 mb 0.00 in0.0 mm 0.00 in/hr0.0 mm/hr 0.35 in8.9 mm
03:39 PM 65.1°F18.4°C 56.3°F13.5°C 73% 9.2 mph E14.8 kmh E 12.1 mph19.5 kmh 29.38 in994.9 mb 0.00 in0.0 mm 0.00 in/hr0.0 mm/hr 0.35 in8.9 mm
03:38 PM 65.1°F18.4°C 56.3°F13.5°C 73% 9.4 mph E15.1 kmh E 12.1 mph19.5 kmh 29.38 in994.9 mb 0.00 in0.0 mm 0.00 in/hr0.0 mm/hr 0.35 in8.9 mm
03:37 PM 65.1°F18.4°C 56.3°F13.5°C 73% 9.2 mph ENE14.8 kmh ENE 12.1 mph19.5 kmh 29.38 in994.9 mb 0.00 in0.0 mm 0.00 in/hr0.0 mm/hr 0.35 in8.9 mm
03:36 PM 65.1°F18.4°C 56.6°F13.7°C 74% 9.2 mph ENE14.8 kmh ENE 12.1 mph19.5 kmh 29.38 in994.9 mb 0.00 in0.0 mm 0.00 in/hr0.0 mm/hr 0.35 in8.9 mm
03:35 PM 65.1°F18.4°C 56.6°F13.7°C 74% 8.7 mph ENE14.0 kmh ENE 12.1 mph19.5 kmh 29.38 in994.9 mb 0.00 in0.0 mm 0.00 in/hr0.0 mm/hr 0.35 in8.9 mm
03:34 PM 65.1°F18.4°C 56.6°F13.7°C 74% 8.5 mph ENE13.7 kmh ENE 12.1 mph19.5 kmh 29.38 in994.9 mb 0.00 in0.0 mm 0.00 in/hr0.0 mm/hr 0.35 in8.9 mm
03:33 PM 65.1°F18.4°C 56.6°F13.7°C 74% 8.6 mph ENE13.8 kmh ENE 12.1 mph19.5 kmh 29.38 in994.9 mb 0.00 in0.0 mm 0.00 in/hr0.0 mm/hr 0.35 in8.9 mm
03:32 PM 65.3°F18.5°C 56.4°F13.6°C 73% 8.5 mph ENE13.7 kmh ENE 12.1 mph19.5 kmh 29.37 in994.6 mb 0.00 in0.0 mm 0.00 in/hr0.0 mm/hr 0.35 in8.9 mm
03:31 PM 65.3°F18.5°C 56.8°F13.8°C 74% 8.2 mph E13.2 kmh E 12.1 mph19.5 kmh 29.37 in994.6 mb 0.00 in0.0 mm 0.00 in/hr0.0 mm/hr 0.35 in8.9 mm
03:30 PM 65.3°F18.5°C 56.8°F13.8°C 74% 7.9 mph E12.7 kmh E 11.4 mph18.3 kmh 29.38 in994.9 mb 0.00 in0.0 mm 0.00 in/hr0.0 mm/hr 0.35 in8.9 mm
03:29 PM 65.3°F18.5°C 56.8°F13.8°C 74% 7.6 mph E12.2 kmh E 11.4 mph18.3 kmh 29.38 in994.9 mb 0.00 in0.0 mm 0.00 in/hr0.0 mm/hr 0.35 in8.9 mm
03:28 PM 65.3°F18.5°C 56.8°F13.8°C 74% 7.7 mph E12.4 kmh E 11.4 mph18.3 kmh 29.37 in994.6 mb 0.00 in0.0 mm 0.00 in/hr0.0 mm/hr 0.35 in8.9 mm
03:27 PM 65.3°F18.5°C 56.8°F13.8°C 74% 8.0 mph E12.9 kmh E 11.4 mph18.3 kmh 29.37 in994.6 mb 0.00 in0.0 mm 0.00 in/hr0.0 mm/hr 0.35 in8.9 mm
03:26 PM 65.3°F18.5°C 56.8°F13.8°C 74% 8.1 mph E13.0 kmh E 11.4 mph18.3 kmh 29.37 in994.6 mb 0.00 in0.0 mm 0.00 in/hr0.0 mm/hr 0.35 in8.9 mm
03:25 PM 65.3°F18.5°C 56.8°F13.8°C 74% 8.6 mph E13.8 kmh E 12.1 mph19.5 kmh 29.38 in994.9 mb 0.00 in0.0 mm 0.00 in/hr0.0 mm/hr 0.35 in8.9 mm
03:24 PM 65.5°F18.6°C 57.0°F13.9°C 74% 8.9 mph E14.3 kmh E 12.1 mph19.5 kmh 29.38 in994.9 mb 0.00 in0.0 mm 0.00 in/hr0.0 mm/hr 0.35 in8.9 mm
03:23 PM 65.5°F18.6°C 57.0°F13.9°C 74% 8.8 mph ESE14.2 kmh ESE 12.1 mph19.5 kmh 29.38 in994.9 mb 0.00 in0.0 mm 0.00 in/hr0.0 mm/hr 0.35 in8.9 mm
03:22 PM 65.5°F18.6°C 57.0°F13.9°C 74% 8.7 mph ESE14.0 kmh ESE 12.1 mph19.5 kmh 29.38 in994.9 mb 0.00 in0.0 mm 0.00 in/hr0.0 mm/hr 0.35 in8.9 mm
03:21 PM 65.5°F18.6°C 57.0°F13.9°C 74% 8.4 mph ESE13.5 kmh ESE 12.1 mph19.5 kmh 29.38 in994.9 mb 0.00 in0.0 mm 0.00 in/hr0.0 mm/hr 0.35 in8.9 mm
03:20 PM 65.5°F18.6°C 57.0°F13.9°C 74% 8.3 mph ESE13.4 kmh ESE 12.1 mph19.5 kmh 29.38 in994.9 mb 0.00 in0.0 mm 0.00 in/hr0.0 mm/hr 0.35 in8.9 mm
03:19 PM 65.5°F18.6°C 57.0°F13.9°C 74% 8.4 mph ESE13.5 kmh ESE 12.1 mph19.5 kmh 29.37 in994.6 mb 0.00 in0.0 mm 0.00 in/hr0.0 mm/hr 0.35 in8.9 mm
03:18 PM 65.7°F18.7°C 57.2°F14.0°C 74% 8.3 mph E13.4 kmh E 12.1 mph19.5 kmh 29.38 in994.9 mb 0.00 in0.0 mm 0.00 in/hr0.0 mm/hr 0.35 in8.9 mm
03:17 PM 65.7°F18.7°C 57.2°F14.0°C 74% 8.2 mph E13.2 kmh E 12.1 mph19.5 kmh 29.38 in994.9 mb 0.00 in0.0 mm 0.00 in/hr0.0 mm/hr 0.35 in8.9 mm
03:16 PM 65.7°F18.7°C 57.2°F14.0°C 74% 8.4 mph E13.5 kmh E 12.1 mph19.5 kmh 29.38 in994.9 mb 0.00 in0.0 mm 0.00 in/hr0.0 mm/hr 0.35 in8.9 mm
03:15 PM 65.7°F18.7°C 57.2°F14.0°C 74% 8.2 mph ESE13.2 kmh ESE 12.1 mph19.5 kmh 29.38 in994.9 mb 0.00 in0.0 mm 0.00 in/hr0.0 mm/hr 0.35 in8.9 mm
03:14 PM 65.5°F18.6°C 57.4°F14.1°C 75% 8.0 mph ESE12.9 kmh ESE 12.1 mph19.5 kmh 29.38 in994.9 mb 0.00 in0.0 mm 0.00 in/hr0.0 mm/hr 0.35 in8.9 mm
03:13 PM 65.5°F18.6°C 57.4°F14.1°C 75% 7.8 mph E12.6 kmh E 12.1 mph19.5 kmh 29.38 in994.9 mb 0.00 in0.0 mm 0.00 in/hr0.0 mm/hr 0.35 in8.9 mm
03:12 PM 65.5°F18.6°C 57.4°F14.1°C 75% 8.6 mph E13.8 kmh E 15.2 mph24.5 kmh 29.38 in994.9 mb 0.00 in0.0 mm 0.00 in/hr0.0 mm/hr 0.35 in8.9 mm
03:11 PM 65.5°F18.6°C 57.0°F13.9°C 74% 9.2 mph E14.8 kmh E 15.2 mph24.5 kmh 29.38 in994.9 mb 0.00 in0.0 mm 0.00 in/hr0.0 mm/hr 0.35 in8.9 mm
03:10 PM 65.5°F18.6°C 57.0°F13.9°C 74% 9.8 mph E15.8 kmh E 15.2 mph24.5 kmh 29.38 in994.9 mb 0.00 in0.0 mm 0.00 in/hr0.0 mm/hr 0.35 in8.9 mm
03:09 PM 65.5°F18.6°C 57.0°F13.9°C 74% 10.1 mph E16.3 kmh E 15.2 mph24.5 kmh 29.38 in994.9 mb 0.00 in0.0 mm 0.00 in/hr0.0 mm/hr 0.35 in8.9 mm
03:08 PM 65.5°F18.6°C 57.0°F13.9°C 74% 10.1 mph ESE16.3 kmh ESE 15.2 mph24.5 kmh 29.38 in994.9 mb 0.00 in0.0 mm 0.00 in/hr0.0 mm/hr 0.35 in8.9 mm
03:07 PM 65.7°F18.7°C 57.2°F14.0°C 74% 9.9 mph ESE15.9 kmh ESE 15.2 mph24.5 kmh 29.39 in995.3 mb 0.00 in0.0 mm 0.00 in/hr0.0 mm/hr 0.35 in8.9 mm
03:06 PM 65.7°F18.7°C 57.2°F14.0°C 74% 9.7 mph E15.6 kmh E 15.2 mph24.5 kmh 29.38 in994.9 mb 0.00 in0.0 mm 0.00 in/hr0.0 mm/hr 0.35 in8.9 mm
03:05 PM 65.7°F18.7°C 57.2°F14.0°C 74% 9.8 mph ESE15.8 kmh ESE 15.2 mph24.5 kmh 29.39 in995.3 mb 0.00 in0.0 mm 0.00 in/hr0.0 mm/hr 0.35 in8.9 mm
03:04 PM 65.7°F18.7°C 57.2°F14.0°C 74% 9.9 mph ESE15.9 kmh ESE 15.2 mph24.5 kmh 29.39 in995.3 mb 0.00 in0.0 mm 0.00 in/hr0.0 mm/hr 0.35 in8.9 mm
03:03 PM 65.7°F18.7°C 57.2°F14.0°C 74% 10.1 mph E16.3 kmh E 15.2 mph24.5 kmh 29.39 in995.3 mb 0.00 in0.0 mm 0.00 in/hr0.0 mm/hr 0.35 in8.9 mm
03:02 PM 65.8°F18.8°C 57.3°F14.1°C 74% 9.8 mph E15.8 kmh E 14.5 mph23.3 kmh 29.39 in995.3 mb 0.00 in0.0 mm 0.00 in/hr0.0 mm/hr 0.35 in8.9 mm
03:01 PM 65.8°F18.8°C 57.3°F14.1°C 74% 9.7 mph E15.6 kmh E 14.5 mph23.3 kmh 29.39 in995.3 mb 0.00 in0.0 mm 0.00 in/hr0.0 mm/hr 0.35 in8.9 mm
03:00 PM 65.8°F18.8°C 57.0°F13.9°C 73% 9.2 mph E14.8 kmh E 14.5 mph23.3 kmh 29.39 in995.3 mb 0.00 in0.0 mm 0.00 in/hr0.0 mm/hr 0.35 in8.9 mm
02:59 PM 65.8°F18.8°C 57.3°F14.1°C 74% 9.1 mph E14.6 kmh E 10.7 mph17.2 kmh 29.39 in995.3 mb 0.00 in0.0 mm 0.00 in/hr0.0 mm/hr 0.35 in8.9 mm
02:58 PM 65.5°F18.6°C 56.6°F13.7°C 73% 9.0 mph E14.5 kmh E 10.7 mph17.2 kmh 29.39 in995.3 mb 0.00 in0.0 mm 0.00 in/hr0.0 mm/hr 0.35 in8.9 mm
02:57 PM 66.0°F18.9°C 57.1°F13.9°C 73% 9.3 mph E15.0 kmh E 10.7 mph17.2 kmh 29.39 in995.3 mb 0.00 in0.0 mm 0.00 in/hr0.0 mm/hr 0.35 in8.9 mm
02:56 PM 66.0°F18.9°C 57.1°F13.9°C 73% 9.6 mph E15.4 kmh E 13.0 mph20.9 kmh 29.39 in995.3 mb 0.00 in0.0 mm 0.00 in/hr0.0 mm/hr 0.35 in8.9 mm
02:55 PM 66.2°F19.0°C 57.7°F14.3°C 74% 9.3 mph E15.0 kmh E 13.0 mph20.9 kmh 29.39 in995.3 mb 0.00 in0.0 mm 0.00 in/hr0.0 mm/hr 0.35 in8.9 mm
02:54 PM 66.2°F19.0°C 57.3°F14.1°C 73% 9.3 mph E15.0 kmh E 13.0 mph20.9 kmh 29.39 in995.3 mb 0.00 in0.0 mm 0.00 in/hr0.0 mm/hr 0.35 in8.9 mm
02:53 PM 66.2°F19.0°C 57.3°F14.1°C 73% 9.2 mph E14.8 kmh E 13.0 mph20.9 kmh 29.39 in995.3 mb 0.00 in0.0 mm 0.00 in/hr0.0 mm/hr 0.35 in8.9 mm
02:52 PM 66.2°F19.0°C 57.3°F14.1°C 73% 8.9 mph ESE14.3 kmh ESE 13.0 mph20.9 kmh 29.39 in995.3 mb 0.00 in0.0 mm 0.00 in/hr0.0 mm/hr 0.35 in8.9 mm
02:51 PM 66.2°F19.0°C 57.7°F14.3°C 74% 8.7 mph SE14.0 kmh SE 13.0 mph20.9 kmh 29.39 in995.3 mb 0.00 in0.0 mm 0.00 in/hr0.0 mm/hr 0.35 in8.9 mm
02:50 PM 66.4°F19.1°C 57.9°F14.4°C 74% 8.6 mph SE13.8 kmh SE 13.0 mph20.9 kmh 29.39 in995.3 mb 0.00 in0.0 mm 0.00 in/hr0.0 mm/hr 0.35 in8.9 mm
02:49 PM 66.4°F19.1°C 57.9°F14.4°C 74% 8.5 mph SE13.7 kmh SE 13.0 mph20.9 kmh 29.39 in995.3 mb 0.00 in0.0 mm 0.00 in/hr0.0 mm/hr 0.35 in8.9 mm
02:48 PM 66.4°F19.1°C 57.5°F14.2°C 73% 8.3 mph SE13.4 kmh SE 13.0 mph20.9 kmh 29.39 in995.3 mb 0.00 in0.0 mm 0.00 in/hr0.0 mm/hr 0.35 in8.9 mm
02:47 PM 66.4°F19.1°C 57.9°F14.4°C 74% 7.9 mph SE12.7 kmh SE 13.0 mph20.9 kmh 29.39 in995.3 mb 0.00 in0.0 mm 0.00 in/hr0.0 mm/hr 0.35 in8.9 mm
02:46 PM 66.6°F19.2°C 58.0°F14.4°C 74% 7.4 mph SE11.9 kmh SE 8.3 mph13.4 kmh 29.39 in995.3 mb 0.00 in0.0 mm 0.00 in/hr0.0 mm/hr 0.35 in8.9 mm
02:45 PM 66.6°F19.2°C 58.0°F14.4°C 74% 7.3 mph ESE11.7 kmh ESE 8.3 mph13.4 kmh 29.39 in995.3 mb 0.00 in0.0 mm 0.00 in/hr0.0 mm/hr 0.35 in8.9 mm
02:44 PM 66.9°F19.4°C 58.4°F14.7°C 74% 7.3 mph ESE11.7 kmh ESE 8.3 mph13.4 kmh 29.39 in995.3 mb 0.00 in0.0 mm 0.00 in/hr0.0 mm/hr 0.35 in8.9 mm
02:43 PM 66.6°F19.2°C 58.4°F14.7°C 75% 7.1 mph ESE11.4 kmh ESE 8.3 mph13.4 kmh 29.39 in995.3 mb 0.00 in0.0 mm 0.00 in/hr0.0 mm/hr 0.35 in8.9 mm
02:42 PM 66.4°F19.1°C 58.2°F14.6°C 75% 7.1 mph ESE11.4 kmh ESE 8.3 mph13.4 kmh 29.40 in995.6 mb 0.00 in0.0 mm 0.00 in/hr0.0 mm/hr 0.35 in8.9 mm
02:41 PM 66.4°F19.1°C 58.2°F14.6°C 75% 7.2 mph ESE11.6 kmh ESE 8.3 mph13.4 kmh 29.39 in995.3 mb 0.00 in0.0 mm 0.00 in/hr0.0 mm/hr 0.35 in8.9 mm
02:40 PM 66.4°F19.1°C 58.2°F14.6°C 75% 7.0 mph ESE11.3 kmh ESE 8.3 mph13.4 kmh 29.40 in995.6 mb 0.00 in0.0 mm 0.00 in/hr0.0 mm/hr 0.35 in8.9 mm
02:39 PM 66.2°F19.0°C 58.1°F14.5°C 75% 7.1 mph ESE11.4 kmh ESE 11.4 mph18.3 kmh 29.39 in995.3 mb 0.00 in0.0 mm 0.00 in/hr0.0 mm/hr 0.35 in8.9 mm
02:38 PM 66.2°F19.0°C 58.1°F14.5°C 75% 7.4 mph ESE11.9 kmh ESE 11.4 mph18.3 kmh 29.40 in995.6 mb 0.00 in0.0 mm 0.00 in/hr0.0 mm/hr 0.35 in8.9 mm
02:37 PM 66.2°F19.0°C 58.1°F14.5°C 75% 7.5 mph E12.1 kmh E 11.4 mph18.3 kmh 29.40 in995.6 mb 0.00 in0.0 mm 0.00 in/hr0.0 mm/hr 0.35 in8.9 mm
02:36 PM 66.2°F19.0°C 57.7°F14.3°C 74% 7.4 mph ESE11.9 kmh ESE 11.4 mph18.3 kmh 29.40 in995.6 mb 0.00 in0.0 mm 0.00 in/hr0.0 mm/hr 0.35 in8.9 mm
02:35 PM 66.2°F19.0°C 58.1°F14.5°C 75% 7.6 mph ESE12.2 kmh ESE 11.4 mph18.3 kmh 29.39 in995.3 mb 0.00 in0.0 mm 0.00 in/hr0.0 mm/hr 0.35 in8.9 mm
02:34 PM 66.2°F19.0°C 58.4°F14.7°C 76% 7.6 mph ESE12.2 kmh ESE 11.4 mph18.3 kmh 29.39 in995.3 mb 0.00 in0.0 mm 0.00 in/hr0.0 mm/hr 0.35 in8.9 mm
02:33 PM 66.2°F19.0°C 58.4°F14.7°C 76% 7.6 mph ESE12.2 kmh ESE 11.4 mph18.3 kmh 29.39 in995.3 mb 0.00 in0.0 mm 0.00 in/hr0.0 mm/hr 0.35 in8.9 mm
02:32 PM 66.2°F19.0°C 58.8°F14.9°C 77% 7.7 mph E12.4 kmh E 11.4 mph18.3 kmh 29.39 in995.3 mb 0.00 in0.0 mm 0.00 in/hr0.0 mm/hr 0.35 in8.9 mm
02:31 PM 66.0°F18.9°C 58.6°F14.8°C 77% 7.7 mph E12.4 kmh E 11.4 mph18.3 kmh 29.39 in995.3 mb 0.00 in0.0 mm 0.00 in/hr0.0 mm/hr 0.35 in8.9 mm
02:30 PM 65.8°F18.8°C 58.4°F14.7°C 77% 8.0 mph E12.9 kmh E 11.4 mph18.3 kmh 29.39 in995.3 mb 0.00 in0.0 mm 0.00 in/hr0.0 mm/hr 0.35 in8.9 mm
02:29 PM 65.8°F18.8°C 58.8°F14.9°C 78% 7.9 mph E12.7 kmh E 11.4 mph18.3 kmh 29.39 in995.3 mb 0.00 in0.0 mm 0.00 in/hr0.0 mm/hr 0.35 in8.9 mm
02:28 PM 65.8°F18.8°C 58.8°F14.9°C 78% 7.9 mph ESE12.7 kmh ESE 10.7 mph17.2 kmh 29.40 in995.6 mb 0.00 in0.0 mm 0.00 in/hr0.0 mm/hr 0.35 in8.9 mm
02:27 PM 65.5°F18.6°C 58.5°F14.7°C 78% 8.1 mph ESE13.0 kmh ESE 10.7 mph17.2 kmh 29.40 in995.6 mb 0.00 in0.0 mm 0.00 in/hr0.0 mm/hr 0.35 in8.9 mm
02:26 PM 65.5°F18.6°C 58.5°F14.7°C 78% 8.3 mph E13.4 kmh E 10.7 mph17.2 kmh 29.40 in995.6 mb 0.00 in0.0 mm 0.00 in/hr0.0 mm/hr 0.35 in8.9 mm
02:25 PM 65.3°F18.5°C 58.3°F14.6°C 78% 8.3 mph E13.4 kmh E 10.7 mph17.2 kmh 29.40 in995.6 mb 0.00 in0.0 mm 0.00 in/hr0.0 mm/hr 0.35 in8.9 mm
02:24 PM 65.3°F18.5°C 58.6°F14.8°C 79% 8.3 mph E13.4 kmh E 10.7 mph17.2 kmh 29.39 in995.3 mb 0.00 in0.0 mm 0.00 in/hr0.0 mm/hr 0.35 in8.9 mm
02:23 PM 65.1°F18.4°C 58.8°F14.9°C 80% 8.4 mph E13.5 kmh E 10.7 mph17.2 kmh 29.40 in995.6 mb 0.00 in0.0 mm 0.00 in/hr0.0 mm/hr 0.35 in8.9 mm
02:22 PM 64.9°F18.3°C 58.6°F14.8°C 80% 8.0 mph ESE12.9 kmh ESE 10.7 mph17.2 kmh 29.40 in995.6 mb 0.00 in0.0 mm 0.00 in/hr0.0 mm/hr 0.35 in8.9 mm
02:21 PM 64.8°F18.2°C 58.8°F14.9°C 81% 7.7 mph E12.4 kmh E 10.7 mph17.2 kmh 29.39 in995.3 mb 0.00 in0.0 mm 0.00 in/hr0.0 mm/hr 0.35 in8.9 mm
02:20 PM 64.8°F18.2°C 58.8°F14.9°C 81% 7.6 mph E12.2 kmh E 10.7 mph17.2 kmh 29.40 in995.6 mb 0.00 in0.0 mm 0.00 in/hr0.0 mm/hr 0.35 in8.9 mm
02:19 PM 64.4°F18.0°C 58.5°F14.7°C 81% 7.5 mph E12.1 kmh E 9.2 mph14.8 kmh 29.40 in995.6 mb 0.00 in0.0 mm 0.00 in/hr0.0 mm/hr 0.35 in8.9 mm
02:18 PM 64.4°F18.0°C 58.8°F14.9°C 82% 7.2 mph E11.6 kmh E 9.2 mph14.8 kmh 29.39 in995.3 mb 0.00 in0.0 mm 0.00 in/hr0.0 mm/hr 0.35 in8.9 mm
02:17 PM 64.2°F17.9°C 58.6°F14.8°C 82% 7.2 mph E11.6 kmh E 9.2 mph14.8 kmh 29.40 in995.6 mb 0.00 in0.0 mm 0.00 in/hr0.0 mm/hr 0.35 in8.9 mm
02:16 PM 64.2°F17.9°C 58.6°F14.8°C 82% 7.2 mph E11.6 kmh E 9.2 mph14.8 kmh 29.40 in995.6 mb 0.00 in0.0 mm 0.00 in/hr0.0 mm/hr 0.35 in8.9 mm
02:15 PM 64.0°F17.8°C 58.5°F14.7°C 82% 7.0 mph E11.3 kmh E 9.2 mph14.8 kmh 29.40 in995.6 mb 0.00 in0.0 mm 0.00 in/hr0.0 mm/hr 0.35 in8.9 mm
02:14 PM 64.0°F17.8°C 58.5°F14.7°C 82% 7.0 mph E11.3 kmh E 9.2 mph14.8 kmh 29.40 in995.6 mb 0.00 in0.0 mm 0.00 in/hr0.0 mm/hr 0.35 in8.9 mm
02:13 PM 63.9°F17.7°C 58.3°F14.6°C 82% 6.8 mph E10.9 kmh E 9.2 mph14.8 kmh 29.40 in995.6 mb 0.00 in0.0 mm 0.00 in/hr0.0 mm/hr 0.35 in8.9 mm
02:12 PM 63.9°F17.7°C 58.3°F14.6°C 82% 7.0 mph E11.3 kmh E 9.2 mph14.8 kmh 29.40 in995.6 mb 0.00 in0.0 mm 0.00 in/hr0.0 mm/hr 0.35 in8.9 mm
02:11 PM 63.9°F17.7°C 58.3°F14.6°C 82% 7.1 mph E11.4 kmh E 9.2 mph14.8 kmh 29.40 in995.6 mb 0.00 in0.0 mm 0.00 in/hr0.0 mm/hr 0.35 in8.9 mm
02:10 PM 63.9°F17.7°C 58.3°F14.6°C 82% 6.9 mph E11.1 kmh E 8.3 mph13.4 kmh 29.40 in995.6 mb 0.00 in0.0 mm 0.00 in/hr0.0 mm/hr 0.35 in8.9 mm
02:09 PM 63.9°F17.7°C 58.3°F14.6°C 82% 7.1 mph E11.4 kmh E 9.8 mph15.8 kmh 29.40 in995.6 mb 0.00 in0.0 mm 0.00 in/hr0.0 mm/hr 0.35 in8.9 mm
02:08 PM 63.9°F17.7°C 58.3°F14.6°C 82% 7.3 mph E11.7 kmh E 9.8 mph15.8 kmh 29.40 in995.6 mb 0.00 in0.0 mm 0.00 in/hr0.0 mm/hr 0.35 in8.9 mm
02:07 PM 63.9°F17.7°C 58.3°F14.6°C 82% 7.3 mph ESE11.7 kmh ESE 9.8 mph15.8 kmh 29.40 in995.6 mb 0.00 in0.0 mm 0.00 in/hr0.0 mm/hr 0.35 in8.9 mm
02:06 PM 63.9°F17.7°C 58.3°F14.6°C 82% 7.2 mph ESE11.6 kmh ESE 9.8 mph15.8 kmh 29.40 in995.6 mb 0.00 in0.0 mm 0.00 in/hr0.0 mm/hr 0.35 in8.9 mm
02:05 PM 63.9°F17.7°C 58.3°F14.6°C 82% 7.3 mph ESE11.7 kmh ESE 9.8 mph15.8 kmh 29.40 in995.6 mb 0.00 in0.0 mm 0.00 in/hr0.0 mm/hr 0.35 in8.9 mm
02:04 PM 63.9°F17.7°C 58.3°F14.6°C 82% 7.1 mph ESE11.4 kmh ESE 9.8 mph15.8 kmh 29.40 in995.6 mb 0.00 in0.0 mm 0.00 in/hr0.0 mm/hr 0.35 in8.9 mm
02:03 PM 64.0°F17.8°C 58.8°F14.9°C 83% 6.9 mph ESE11.1 kmh ESE 9.8 mph15.8 kmh 29.40 in995.6 mb 0.00 in0.0 mm 0.00 in/hr0.0 mm/hr 0.35 in8.9 mm
02:02 PM 64.0°F17.8°C 58.8°F14.9°C 83% 6.8 mph ESE10.9 kmh ESE 9.8 mph15.8 kmh 29.40 in995.6 mb 0.00 in0.0 mm 0.00 in/hr0.0 mm/hr 0.35 in8.9 mm
02:01 PM 64.0°F17.8°C 58.8°F14.9°C 83% 6.5 mph SE10.5 kmh SE 9.8 mph15.8 kmh 29.40 in995.6 mb 0.00 in0.0 mm 0.00 in/hr0.0 mm/hr 0.35 in8.9 mm
02:00 PM 64.0°F17.8°C 58.8°F14.9°C 83% 6.3 mph SE10.1 kmh SE 9.8 mph15.8 kmh 29.41 in995.9 mb 0.00 in0.0 mm 0.00 in/hr0.0 mm/hr 0.35 in8.9 mm
01:59 PM 64.0°F17.8°C 59.5°F15.3°C 85% 6.0 mph ESE9.7 kmh ESE 8.3 mph13.4 kmh 29.41 in995.9 mb 0.00 in0.0 mm 0.00 in/hr0.0 mm/hr 0.35 in8.9 mm
01:58 PM 64.0°F17.8°C 59.5°F15.3°C 85% 5.6 mph ESE9.0 kmh ESE 8.3 mph13.4 kmh 29.41 in995.9 mb 0.00 in0.0 mm 0.00 in/hr0.0 mm/hr 0.35 in8.9 mm
01:57 PM 63.9°F17.7°C 59.3°F15.2°C 85% 5.6 mph ESE9.0 kmh ESE 8.3 mph13.4 kmh 29.41 in995.9 mb 0.00 in0.0 mm 0.00 in/hr0.0 mm/hr 0.35 in8.9 mm
01:56 PM 63.9°F17.7°C 59.6°F15.3°C 86% 5.3 mph ESE8.5 kmh ESE 8.3 mph13.4 kmh 29.41 in995.9 mb 0.00 in0.0 mm 0.00 in/hr0.0 mm/hr 0.35 in8.9 mm
01:55 PM 63.7°F17.6°C 59.4°F15.2°C 86% 5.3 mph ESE8.5 kmh ESE 8.3 mph13.4 kmh 29.41 in995.9 mb 0.00 in0.0 mm 0.00 in/hr0.0 mm/hr 0.35 in8.9 mm
01:54 PM 63.5°F17.5°C 59.3°F15.2°C 86% 5.3 mph ESE8.5 kmh ESE 8.3 mph13.4 kmh 29.41 in995.9 mb 0.00 in0.0 mm 0.00 in/hr0.0 mm/hr 0.35 in8.9 mm
01:53 PM 63.3°F17.4°C 59.1°F15.1°C 86% 5.6 mph ESE9.0 kmh ESE 8.3 mph13.4 kmh 29.41 in995.9 mb 0.00 in0.0 mm 0.00 in/hr0.0 mm/hr 0.35 in8.9 mm
01:52 PM 63.3°F17.4°C 59.1°F15.1°C 86% 5.8 mph E9.3 kmh E 8.3 mph13.4 kmh 29.41 in995.9 mb 0.00 in0.0 mm 0.00 in/hr0.0 mm/hr 0.35 in8.9 mm
01:51 PM 63.1°F17.3°C 58.9°F14.9°C 86% 6.2 mph ESE10.0 kmh ESE 9.2 mph14.8 kmh 29.41 in995.9 mb 0.00 in0.0 mm 0.00 in/hr0.0 mm/hr 0.35 in8.9 mm
01:50 PM 63.1°F17.3°C 58.9°F14.9°C 86% 6.4 mph ESE10.3 kmh ESE 9.2 mph14.8 kmh 29.41 in995.9 mb 0.00 in0.0 mm 0.00 in/hr0.0 mm/hr 0.35 in8.9 mm
01:49 PM 63.0°F17.2°C 58.7°F14.8°C 86% 6.4 mph SE10.3 kmh SE 9.2 mph14.8 kmh 29.41 in995.9 mb 0.00 in0.0 mm 0.00 in/hr0.0 mm/hr 0.35 in8.9 mm
01:48 PM 63.0°F17.2°C 58.7°F14.8°C 86% 6.7 mph SE10.8 kmh SE 9.2 mph14.8 kmh 29.41 in995.9 mb 0.01 in0.3 mm 0.00 in/hr0.0 mm/hr 0.35 in8.9 mm
01:47 PM 62.8°F17.1°C 58.5°F14.7°C 86% 6.7 mph ESE10.8 kmh ESE 9.2 mph14.8 kmh 29.41 in995.9 mb 0.01 in0.3 mm 0.00 in/hr0.0 mm/hr 0.35 in8.9 mm
01:46 PM 62.8°F17.1°C 58.5°F14.7°C 86% 6.7 mph SE10.8 kmh SE 9.2 mph14.8 kmh 29.41 in995.9 mb 0.01 in0.3 mm 0.00 in/hr0.0 mm/hr 0.35 in8.9 mm
01:45 PM 62.8°F17.1°C 58.5°F14.7°C 86% 6.6 mph SE10.6 kmh SE 9.2 mph14.8 kmh 29.42 in996.3 mb 0.01 in0.3 mm 0.00 in/hr0.0 mm/hr 0.35 in8.9 mm
01:44 PM 62.8°F17.1°C 58.5°F14.7°C 86% 6.8 mph SE10.9 kmh SE 9.2 mph14.8 kmh 29.42 in996.3 mb 0.01 in0.3 mm 0.00 in/hr0.0 mm/hr 0.35 in8.9 mm
01:43 PM 62.8°F17.1°C 58.5°F14.7°C 86% 6.8 mph SE10.9 kmh SE 9.2 mph14.8 kmh 29.42 in996.3 mb 0.01 in0.3 mm 0.00 in/hr0.0 mm/hr 0.35 in8.9 mm
01:42 PM 62.8°F17.1°C 58.5°F14.7°C 86% 6.8 mph SE10.9 kmh SE 9.2 mph14.8 kmh 29.42 in996.3 mb 0.01 in0.3 mm 0.00 in/hr0.0 mm/hr 0.35 in8.9 mm
01:41 PM 62.8°F17.1°C 58.2°F14.6°C 85% 6.5 mph SE10.5 kmh SE 9.2 mph14.8 kmh 29.42 in996.3 mb 0.01 in0.3 mm 0.00 in/hr0.0 mm/hr 0.35 in8.9 mm
01:40 PM 63.0°F17.2°C 58.7°F14.8°C 86% 6.2 mph SE10.0 kmh SE 7.6 mph12.2 kmh 29.42 in996.3 mb 0.01 in0.3 mm 0.00 in/hr0.0 mm/hr 0.35 in8.9 mm
01:39 PM 63.0°F17.2°C 58.7°F14.8°C 86% 6.2 mph SE10.0 kmh SE 7.6 mph12.2 kmh 29.42 in996.3 mb 0.01 in0.3 mm 0.00 in/hr0.0 mm/hr 0.35 in8.9 mm
01:38 PM 63.0°F17.2°C 58.7°F14.8°C 86% 6.0 mph SE9.7 kmh SE 7.6 mph12.2 kmh 29.41 in995.9 mb 0.01 in0.3 mm 0.00 in/hr0.0 mm/hr 0.35 in8.9 mm
01:37 PM 63.0°F17.2°C 58.7°F14.8°C 86% 6.0 mph SE9.7 kmh SE 7.6 mph12.2 kmh 29.41 in995.9 mb 0.01 in0.3 mm 0.00 in/hr0.0 mm/hr 0.35 in8.9 mm
01:36 PM 63.0°F17.2°C 58.7°F14.8°C 86% 6.0 mph SE9.7 kmh SE 7.6 mph12.2 kmh 29.42 in996.3 mb 0.01 in0.3 mm 0.00 in/hr0.0 mm/hr 0.35 in8.9 mm
01:35 PM 63.0°F17.2°C 58.7°F14.8°C 86% 5.8 mph SE9.3 kmh SE 7.6 mph12.2 kmh 29.42 in996.3 mb 0.01 in0.3 mm 0.00 in/hr0.0 mm/hr 0.35 in8.9 mm
01:34 PM 63.0°F17.2°C 58.7°F14.8°C 86% 5.6 mph SE9.0 kmh SE 7.6 mph12.2 kmh 29.42 in996.3 mb 0.01 in0.3 mm 0.00 in/hr0.0 mm/hr 0.35 in8.9 mm
01:33 PM 63.0°F17.2°C 58.7°F14.8°C 86% 5.2 mph SE8.4 kmh SE 7.6 mph12.2 kmh 29.42 in996.3 mb 0.01 in0.3 mm 0.00 in/hr0.0 mm/hr 0.35 in8.9 mm
01:32 PM 63.0°F17.2°C 58.7°F14.8°C 86% 4.6 mph SE7.4 kmh SE 7.6 mph12.2 kmh 29.42 in996.3 mb 0.01 in0.3 mm 0.00 in/hr0.0 mm/hr 0.35 in8.9 mm
01:31 PM 63.0°F17.2°C 59.0°F15.0°C 87% 4.3 mph SE6.9 kmh SE 6.9 mph11.1 kmh 29.42 in996.3 mb 0.01 in0.3 mm 0.00 in/hr0.0 mm/hr 0.35 in8.9 mm
01:30 PM 63.0°F17.2°C 59.0°F15.0°C 87% 4.1 mph SE6.6 kmh SE 6.9 mph11.1 kmh 29.42 in996.3 mb 0.01 in0.3 mm 0.00 in/hr0.0 mm/hr 0.35 in8.9 mm
01:29 PM 63.0°F17.2°C 59.0°F15.0°C 87% 4.0 mph SE6.4 kmh SE 6.9 mph11.1 kmh 29.42 in996.3 mb 0.01 in0.3 mm 0.00 in/hr0.0 mm/hr 0.35 in8.9 mm
01:28 PM 63.0°F17.2°C 59.0°F15.0°C 87% 4.1 mph SE6.6 kmh SE 6.9 mph11.1 kmh 29.42 in996.3 mb 0.01 in0.3 mm 0.00 in/hr0.0 mm/hr 0.35 in8.9 mm
01:27 PM 63.0°F17.2°C 59.0°F15.0°C 87% 3.8 mph SE6.1 kmh SE 6.9 mph11.1 kmh 29.42 in996.3 mb 0.01 in0.3 mm 0.00 in/hr0.0 mm/hr 0.35 in8.9 mm
01:26 PM 63.0°F17.2°C 59.0°F15.0°C 87% 3.7 mph SE6.0 kmh SE 6.9 mph11.1 kmh 29.42 in996.3 mb 0.01 in0.3 mm 0.00 in/hr0.0 mm/hr 0.35 in8.9 mm
01:25 PM 63.0°F17.2°C 59.0°F15.0°C 87% 3.8 mph SE6.1 kmh SE 6.9 mph11.1 kmh 29.43 in996.6 mb 0.01 in0.3 mm 0.00 in/hr0.0 mm/hr 0.35 in8.9 mm
01:24 PM 63.0°F17.2°C 59.0°F15.0°C 87% 3.5 mph SE5.6 kmh SE 5.4 mph8.7 kmh 29.43 in996.6 mb 0.01 in0.3 mm 0.00 in/hr0.0 mm/hr 0.35 in8.9 mm
01:23 PM 63.0°F17.2°C 59.0°F15.0°C 87% 3.6 mph SE5.8 kmh SE 5.4 mph8.7 kmh 29.43 in996.6 mb 0.01 in0.3 mm 0.00 in/hr0.0 mm/hr 0.35 in8.9 mm
01:22 PM 63.0°F17.2°C 59.0°F15.0°C 87% 3.8 mph SE6.1 kmh SE 5.4 mph8.7 kmh 29.43 in996.6 mb 0.01 in0.3 mm 0.00 in/hr0.0 mm/hr 0.35 in8.9 mm
01:21 PM 63.0°F17.2°C 59.0°F15.0°C 87% 3.9 mph ESE6.3 kmh ESE 5.4 mph8.7 kmh 29.43 in996.6 mb 0.01 in0.3 mm 0.00 in/hr0.0 mm/hr 0.35 in8.9 mm
01:20 PM 63.0°F17.2°C 59.0°F15.0°C 87% 4.0 mph ESE6.4 kmh ESE 5.4 mph8.7 kmh 29.43 in996.6 mb 0.01 in0.3 mm 0.00 in/hr0.0 mm/hr 0.35 in8.9 mm
01:19 PM 63.1°F17.3°C 59.5°F15.3°C 88% 3.9 mph ESE6.3 kmh ESE 5.4 mph8.7 kmh 29.43 in996.6 mb 0.01 in0.3 mm 0.00 in/hr0.0 mm/hr 0.35 in8.9 mm
01:18 PM 63.0°F17.2°C 59.4°F15.2°C 88% 3.6 mph ESE5.8 kmh ESE 5.4 mph8.7 kmh 29.43 in996.6 mb 0.01 in0.3 mm 0.00 in/hr0.0 mm/hr 0.35 in8.9 mm
01:17 PM 63.0°F17.2°C 59.4°F15.2°C 88% 3.4 mph E5.5 kmh E 5.4 mph8.7 kmh 29.43 in996.6 mb 0.01 in0.3 mm 0.00 in/hr0.0 mm/hr 0.35 in8.9 mm
01:16 PM 63.0°F17.2°C 59.4°F15.2°C 88% 3.2 mph E5.1 kmh E 5.4 mph8.7 kmh 29.43 in996.6 mb 0.01 in0.3 mm 0.00 in/hr0.0 mm/hr 0.35 in8.9 mm
01:15 PM 63.0°F17.2°C 59.4°F15.2°C 88% 3.0 mph E4.8 kmh E 4.5 mph7.2 kmh 29.43 in996.6 mb 0.01 in0.3 mm 0.00 in/hr0.0 mm/hr 0.35 in8.9 mm
01:14 PM 63.0°F17.2°C 59.4°F15.2°C 88% 3.0 mph E4.8 kmh E 4.5 mph7.2 kmh 29.43 in996.6 mb 0.01 in0.3 mm 0.00 in/hr0.0 mm/hr 0.35 in8.9 mm
01:13 PM 63.0°F17.2°C 59.4°F15.2°C 88% 3.0 mph E4.8 kmh E 4.5 mph7.2 kmh 29.43 in996.6 mb 0.01 in0.3 mm 0.00 in/hr0.0 mm/hr 0.35 in8.9 mm
01:12 PM 63.0°F17.2°C 59.4°F15.2°C 88% 3.1 mph E5.0 kmh E 4.5 mph7.2 kmh 29.43 in996.6 mb 0.01 in0.3 mm 0.00 in/hr0.0 mm/hr 0.35 in8.9 mm
01:11 PM 63.0°F17.2°C 59.4°F15.2°C 88% 3.2 mph E5.1 kmh E 4.5 mph7.2 kmh 29.43 in996.6 mb 0.01 in0.3 mm 0.00 in/hr0.0 mm/hr 0.35 in8.9 mm
01:10 PM 63.0°F17.2°C 59.0°F15.0°C 87% 3.0 mph E4.8 kmh E 4.5 mph7.2 kmh 29.43 in996.6 mb 0.01 in0.3 mm 0.00 in/hr0.0 mm/hr 0.35 in8.9 mm
01:09 PM 63.0°F17.2°C 59.0°F15.0°C 87% 3.1 mph E5.0 kmh E 4.5 mph7.2 kmh 29.43 in996.6 mb 0.01 in0.3 mm 0.00 in/hr0.0 mm/hr 0.35 in8.9 mm
01:08 PM 63.0°F17.2°C 59.0°F15.0°C 87% 3.2 mph E5.1 kmh E 6.9 mph11.1 kmh 29.43 in996.6 mb 0.01 in0.3 mm 0.00 in/hr0.0 mm/hr 0.35 in8.9 mm
01:07 PM 63.1°F17.3°C 59.2°F15.1°C 87% 3.6 mph E5.8 kmh E 6.9 mph11.1 kmh 29.43 in996.6 mb 0.01 in0.3 mm 0.00 in/hr0.0 mm/hr 0.35 in8.9 mm
01:06 PM 63.1°F17.3°C 59.2°F15.1°C 87% 3.8 mph E6.1 kmh E 6.9 mph11.1 kmh 29.43 in996.6 mb 0.01 in0.3 mm 0.00 in/hr0.0 mm/hr 0.35 in8.9 mm
01:05 PM 63.1°F17.3°C 59.2°F15.1°C 87% 3.9 mph E6.3 kmh E 6.9 mph11.1 kmh 29.43 in996.6 mb 0.01 in0.3 mm 0.00 in/hr0.0 mm/hr 0.35 in8.9 mm
01:04 PM 63.1°F17.3°C 59.2°F15.1°C 87% 4.1 mph E6.6 kmh E 6.9 mph11.1 kmh 29.43 in996.6 mb 0.01 in0.3 mm 0.00 in/hr0.0 mm/hr 0.35 in8.9 mm
01:03 PM 63.1°F17.3°C 58.9°F14.9°C 86% 4.3 mph E6.9 kmh E 6.9 mph11.1 kmh 29.43 in996.6 mb 0.01 in0.3 mm 0.00 in/hr0.0 mm/hr 0.35 in8.9 mm
01:02 PM 63.1°F17.3°C 58.9°F14.9°C 86% 4.5 mph E7.2 kmh E 6.9 mph11.1 kmh 29.44 in997.0 mb 0.01 in0.3 mm 0.00 in/hr0.0 mm/hr 0.35 in8.9 mm
01:01 PM 63.3°F17.4°C 59.1°F15.1°C 86% 4.7 mph ESE7.6 kmh ESE 6.9 mph11.1 kmh 29.44 in997.0 mb 0.01 in0.3 mm 0.00 in/hr0.0 mm/hr 0.35 in8.9 mm
01:00 PM 63.3°F17.4°C 58.8°F14.9°C 85% 4.7 mph ESE7.6 kmh ESE 6.9 mph11.1 kmh 29.44 in997.0 mb 0.01 in0.3 mm 0.00 in/hr0.0 mm/hr 0.35 in8.9 mm
12:59 PM 63.5°F17.5°C 58.9°F14.9°C 85% 4.8 mph ESE7.7 kmh ESE 6.9 mph11.1 kmh 29.44 in997.0 mb 0.01 in0.3 mm 0.00 in/hr0.0 mm/hr 0.35 in8.9 mm
12:58 PM 63.7°F17.6°C 59.4°F15.2°C 86% 5.0 mph ESE8.0 kmh ESE 6.9 mph11.1 kmh 29.44 in997.0 mb 0.01 in0.3 mm 0.00 in/hr0.0 mm/hr 0.35 in8.9 mm
12:57 PM 63.7°F17.6°C 59.1°F15.1°C 85% 4.7 mph ESE7.6 kmh ESE 6.0 mph9.7 kmh 29.44 in997.0 mb 0.01 in0.3 mm 0.00 in/hr0.0 mm/hr 0.35 in8.9 mm
12:56 PM 63.9°F17.7°C 59.3°F15.2°C 85% 4.6 mph E7.4 kmh E 6.0 mph9.7 kmh 29.44 in997.0 mb 0.01 in0.3 mm 0.00 in/hr0.0 mm/hr 0.35 in8.9 mm
12:55 PM 63.9°F17.7°C 59.3°F15.2°C 85% 4.7 mph E7.6 kmh E 6.0 mph9.7 kmh 29.44 in997.0 mb 0.01 in0.3 mm 0.00 in/hr0.0 mm/hr 0.35 in8.9 mm
12:54 PM 64.0°F17.8°C 59.5°F15.3°C 85% 4.7 mph E7.6 kmh E 6.0 mph9.7 kmh 29.44 in997.0 mb 0.01 in0.3 mm 0.00 in/hr0.0 mm/hr 0.35 in8.9 mm
12:53 PM 64.0°F17.8°C 59.5°F15.3°C 85% 4.6 mph E7.4 kmh E 6.0 mph9.7 kmh 29.44 in997.0 mb 0.01 in0.3 mm 0.00 in/hr0.0 mm/hr 0.35 in8.9 mm
12:52 PM 64.0°F17.8°C 59.5°F15.3°C 85% 4.6 mph E7.4 kmh E 6.0 mph9.7 kmh 29.44 in997.0 mb 0.01 in0.3 mm 0.00 in/hr0.0 mm/hr 0.35 in8.9 mm
12:51 PM 64.0°F17.8°C 59.5°F15.3°C 85% 4.4 mph E7.1 kmh E 6.0 mph9.7 kmh 29.44 in997.0 mb 0.01 in0.3 mm 0.00 in/hr0.0 mm/hr 0.35 in8.9 mm
12:50 PM 64.0°F17.8°C 59.5°F15.3°C 85% 4.4 mph E7.1 kmh E 6.0 mph9.7 kmh 29.44 in997.0 mb 0.01 in0.3 mm 0.60 in/hr15.2 mm/hr 0.35 in8.9 mm
12:49 PM 64.0°F17.8°C 59.1°F15.1°C 84% 4.6 mph E7.4 kmh E 6.0 mph9.7 kmh 29.44 in997.0 mb 0.00 in0.0 mm 0.00 in/hr0.0 mm/hr 0.34 in8.6 mm
12:48 PM 63.9°F17.7°C 59.0°F15.0°C 84% 4.6 mph E7.4 kmh E 6.0 mph9.7 kmh 29.44 in997.0 mb 0.00 in0.0 mm 0.00 in/hr0.0 mm/hr 0.34 in8.6 mm
12:47 PM 63.9°F17.7°C 58.6°F14.8°C 83% 4.5 mph E7.2 kmh E 6.0 mph9.7 kmh 29.44 in997.0 mb 0.00 in0.0 mm 0.00 in/hr0.0 mm/hr 0.34 in8.6 mm
12:46 PM 63.9°F17.7°C 58.6°F14.8°C 83% 4.5 mph E7.2 kmh E 6.0 mph9.7 kmh 29.45 in997.3 mb 0.00 in0.0 mm 0.00 in/hr0.0 mm/hr 0.34 in8.6 mm
12:45 PM 63.9°F17.7°C 58.6°F14.8°C 83% 4.5 mph ESE7.2 kmh ESE 6.0 mph9.7 kmh 29.45 in997.3 mb 0.00 in0.0 mm 0.00 in/hr0.0 mm/hr 0.34 in8.6 mm
12:44 PM 63.9°F17.7°C 58.3°F14.6°C 82% 4.4 mph ESE7.1 kmh ESE 6.0 mph9.7 kmh 29.44 in997.0 mb 0.00 in0.0 mm 0.00 in/hr0.0 mm/hr 0.34 in8.6 mm
12:43 PM 63.9°F17.7°C 58.3°F14.6°C 82% 4.2 mph ESE6.8 kmh ESE 6.0 mph9.7 kmh 29.45 in997.3 mb 0.00 in0.0 mm 0.00 in/hr0.0 mm/hr 0.34 in8.6 mm
12:42 PM 63.9°F17.7°C 58.3°F14.6°C 82% 3.8 mph ESE6.1 kmh ESE 6.0 mph9.7 kmh 29.45 in997.3 mb 0.00 in0.0 mm 0.00 in/hr0.0 mm/hr 0.34 in8.6 mm
12:41 PM 63.9°F17.7°C 58.3°F14.6°C 82% 3.6 mph ESE5.8 kmh ESE 6.0 mph9.7 kmh 29.45 in997.3 mb 0.00 in0.0 mm 0.00 in/hr0.0 mm/hr 0.34 in8.6 mm
12:40 PM 63.9°F17.7°C 58.3°F14.6°C 82% 3.6 mph E5.8 kmh E 6.0 mph9.7 kmh 29.45 in997.3 mb 0.00 in0.0 mm 0.00 in/hr0.0 mm/hr 0.34 in8.6 mm
12:39 PM 63.9°F17.7°C 57.9°F14.4°C 81% 3.5 mph E5.6 kmh E 6.0 mph9.7 kmh 29.45 in997.3 mb 0.00 in0.0 mm 0.00 in/hr0.0 mm/hr 0.34 in8.6 mm
12:38 PM 63.9°F17.7°C 57.9°F14.4°C 81% 3.4 mph ENE5.5 kmh ENE 5.4 mph8.7 kmh 29.45 in997.3 mb 0.00 in0.0 mm 0.00 in/hr0.0 mm/hr 0.34 in8.6 mm
12:37 PM 63.9°F17.7°C 58.3°F14.6°C 82% 3.4 mph ENE5.5 kmh ENE 5.4 mph8.7 kmh 29.45 in997.3 mb 0.00 in0.0 mm 0.00 in/hr0.0 mm/hr 0.34 in8.6 mm
12:36 PM 63.9°F17.7°C 58.3°F14.6°C 82% 3.4 mph ENE5.5 kmh ENE 5.4 mph8.7 kmh 29.45 in997.3 mb 0.00 in0.0 mm 0.00 in/hr0.0 mm/hr 0.34 in8.6 mm
12:35 PM 63.9°F17.7°C 58.3°F14.6°C 82% 3.4 mph NE5.5 kmh NE 6.0 mph9.7 kmh 29.45 in997.3 mb 0.00 in0.0 mm 0.00 in/hr0.0 mm/hr 0.34 in8.6 mm
12:34 PM 64.0°F17.8°C 58.5°F14.7°C 82% 3.5 mph NE5.6 kmh NE 6.0 mph9.7 kmh 29.45 in997.3 mb 0.00 in0.0 mm 0.00 in/hr0.0 mm/hr 0.34 in8.6 mm
12:33 PM 64.0°F17.8°C 58.1°F14.5°C 81% 3.7 mph NE6.0 kmh NE 6.0 mph9.7 kmh 29.45 in997.3 mb 0.00 in0.0 mm 0.00 in/hr0.0 mm/hr 0.34 in8.6 mm
12:32 PM 64.0°F17.8°C 58.1°F14.5°C 81% 4.2 mph ENE6.8 kmh ENE 6.9 mph11.1 kmh 29.45 in997.3 mb 0.00 in0.0 mm 0.00 in/hr0.0 mm/hr 0.34 in8.6 mm
12:31 PM 64.0°F17.8°C 58.1°F14.5°C 81% 4.5 mph ENE7.2 kmh ENE 6.9 mph11.1 kmh 29.45 in997.3 mb 0.00 in0.0 mm 0.00 in/hr0.0 mm/hr 0.34 in8.6 mm
12:30 PM 64.2°F17.9°C 58.3°F14.6°C 81% 4.6 mph ENE7.4 kmh ENE 6.9 mph11.1 kmh 29.45 in997.3 mb 0.00 in0.0 mm 0.00 in/hr0.0 mm/hr 0.34 in8.6 mm
12:29 PM 64.2°F17.9°C 58.3°F14.6°C 81% 4.7 mph ENE7.6 kmh ENE 6.9 mph11.1 kmh 29.45 in997.3 mb 0.00 in0.0 mm 0.00 in/hr0.0 mm/hr 0.34 in8.6 mm
12:28 PM 64.2°F17.9°C 57.9°F14.4°C 80% 4.7 mph E7.6 kmh E 6.9 mph11.1 kmh 29.45 in997.3 mb 0.00 in0.0 mm 0.00 in/hr0.0 mm/hr 0.34 in8.6 mm
12:27 PM 64.2°F17.9°C 57.9°F14.4°C 80% 5.0 mph ENE8.0 kmh ENE 6.9 mph11.1 kmh 29.45 in997.3 mb 0.00 in0.0 mm 0.00 in/hr0.0 mm/hr 0.34 in8.6 mm
12:26 PM 64.4°F18.0°C 57.8°F14.3°C 79% 5.1 mph E8.2 kmh E 6.9 mph11.1 kmh 29.45 in997.3 mb 0.00 in0.0 mm 0.00 in/hr0.0 mm/hr 0.34 in8.6 mm
12:25 PM 64.4°F18.0°C 57.8°F14.3°C 79% 5.3 mph E8.5 kmh E 6.9 mph11.1 kmh 29.45 in997.3 mb 0.00 in0.0 mm 0.00 in/hr0.0 mm/hr 0.34 in8.6 mm
12:24 PM 64.4°F18.0°C 57.8°F14.3°C 79% 5.4 mph ESE8.7 kmh ESE 6.9 mph11.1 kmh 29.45 in997.3 mb 0.00 in0.0 mm 0.00 in/hr0.0 mm/hr 0.34 in8.6 mm
12:23 PM 64.4°F18.0°C 57.8°F14.3°C 79% 5.7 mph SE9.2 kmh SE 8.3 mph13.4 kmh 29.45 in997.3 mb 0.00 in0.0 mm 0.00 in/hr0.0 mm/hr 0.34 in8.6 mm
12:22 PM 64.6°F18.1°C 58.3°F14.6°C 80% 5.6 mph SE9.0 kmh SE 8.3 mph13.4 kmh 29.45 in997.3 mb 0.00 in0.0 mm 0.00 in/hr0.0 mm/hr 0.34 in8.6 mm
12:21 PM 64.6°F18.1°C 58.3°F14.6°C 80% 5.8 mph SE9.3 kmh SE 8.3 mph13.4 kmh 29.45 in997.3 mb 0.00 in0.0 mm 0.00 in/hr0.0 mm/hr 0.34 in8.6 mm
12:20 PM 64.6°F18.1°C 58.3°F14.6°C 80% 5.9 mph SE9.5 kmh SE 8.3 mph13.4 kmh 29.45 in997.3 mb 0.00 in0.0 mm 0.00 in/hr0.0 mm/hr 0.34 in8.6 mm
12:19 PM 64.6°F18.1°C 58.3°F14.6°C 80% 6.0 mph ESE9.7 kmh ESE 8.3 mph13.4 kmh 29.45 in997.3 mb 0.00 in0.0 mm 0.00 in/hr0.0 mm/hr 0.34 in8.6 mm
12:18 PM 64.6°F18.1°C 58.3°F14.6°C 80% 6.3 mph ESE10.1 kmh ESE 8.3 mph13.4 kmh 29.45 in997.3 mb 0.00 in0.0 mm 0.00 in/hr0.0 mm/hr 0.34 in8.6 mm
12:17 PM 64.6°F18.1°C 58.6°F14.8°C 81% 6.5 mph ESE10.5 kmh ESE 8.3 mph13.4 kmh 29.45 in997.3 mb 0.00 in0.0 mm 0.00 in/hr0.0 mm/hr 0.34 in8.6 mm
12:16 PM 64.6°F18.1°C 58.6°F14.8°C 81% 6.4 mph ESE10.3 kmh ESE 8.3 mph13.4 kmh 29.46 in997.6 mb 0.00 in0.0 mm 0.00 in/hr0.0 mm/hr 0.34 in8.6 mm
12:15 PM 64.6°F18.1°C 59.0°F15.0°C 82% 6.3 mph SE10.1 kmh SE 8.3 mph13.4 kmh 29.46 in997.6 mb 0.00 in0.0 mm 0.00 in/hr0.0 mm/hr 0.34 in8.6 mm
12:14 PM 64.4°F18.0°C 58.8°F14.9°C 82% 6.2 mph SE10.0 kmh SE 8.3 mph13.4 kmh 29.46 in997.6 mb 0.00 in0.0 mm 0.00 in/hr0.0 mm/hr 0.34 in8.6 mm
12:13 PM 64.4°F18.0°C 59.1°F15.1°C 83% 6.0 mph ESE9.7 kmh ESE 8.3 mph13.4 kmh 29.46 in997.6 mb 0.00 in0.0 mm 0.00 in/hr0.0 mm/hr 0.34 in8.6 mm
12:12 PM 64.4°F18.0°C 59.1°F15.1°C 83% 5.8 mph E9.3 kmh E 8.3 mph13.4 kmh 29.46 in997.6 mb 0.00 in0.0 mm 0.00 in/hr0.0 mm/hr 0.34 in8.6 mm
12:11 PM 64.2°F17.9°C 59.3°F15.2°C 84% 5.7 mph ESE9.2 kmh ESE 8.3 mph13.4 kmh 29.46 in997.6 mb 0.00 in0.0 mm 0.00 in/hr0.0 mm/hr 0.34 in8.6 mm
12:10 PM 63.9°F17.7°C 59.3°F15.2°C 85% 5.5 mph SE8.9 kmh SE 8.3 mph13.4 kmh 29.46 in997.6 mb 0.00 in0.0 mm 0.00 in/hr0.0 mm/hr 0.34 in8.6 mm
12:09 PM 63.7°F17.6°C 59.1°F15.1°C 85% 5.4 mph SE8.7 kmh SE 8.3 mph13.4 kmh 29.46 in997.6 mb 0.00 in0.0 mm 0.00 in/hr0.0 mm/hr 0.34 in8.6 mm
12:08 PM 63.5°F17.5°C 58.9°F14.9°C 85% 5.2 mph SE8.4 kmh SE 8.3 mph13.4 kmh 29.46 in997.6 mb 0.00 in0.0 mm 0.00 in/hr0.0 mm/hr 0.34 in8.6 mm
12:07 PM 63.3°F17.4°C 58.8°F14.9°C 85% 5.1 mph SSE8.2 kmh SSE 8.3 mph13.4 kmh 29.46 in997.6 mb 0.00 in0.0 mm 0.00 in/hr0.0 mm/hr 0.34 in8.6 mm
12:06 PM 63.0°F17.2°C 58.7°F14.8°C 86% 5.0 mph SSE8.0 kmh SSE 8.3 mph13.4 kmh 29.46 in997.6 mb 0.00 in0.0 mm 0.00 in/hr0.0 mm/hr 0.34 in8.6 mm
12:05 PM 62.8°F17.1°C 58.9°F14.9°C 87% 5.3 mph SE8.5 kmh SE 8.3 mph13.4 kmh 29.46 in997.6 mb 0.00 in0.0 mm 0.00 in/hr0.0 mm/hr 0.34 in8.6 mm
12:04 PM 62.6°F17.0°C 58.7°F14.8°C 87% 5.3 mph SE8.5 kmh SE 8.3 mph13.4 kmh 29.46 in997.6 mb 0.00 in0.0 mm 0.00 in/hr0.0 mm/hr 0.34 in8.6 mm
12:03 PM 62.4°F16.9°C 58.5°F14.7°C 87% 5.4 mph SE8.7 kmh SE 8.3 mph13.4 kmh 29.46 in997.6 mb 0.00 in0.0 mm 0.00 in/hr0.0 mm/hr 0.34 in8.6 mm
12:02 PM 62.1°F16.7°C 58.5°F14.7°C 88% 5.7 mph SE9.2 kmh SE 8.3 mph13.4 kmh 29.46 in997.6 mb 0.00 in0.0 mm 0.00 in/hr0.0 mm/hr 0.34 in8.6 mm
12:01 PM 61.9°F16.6°C 58.3°F14.6°C 88% 5.8 mph SE9.3 kmh SE 8.3 mph13.4 kmh 29.46 in997.6 mb 0.00 in0.0 mm 0.00 in/hr0.0 mm/hr 0.34 in8.6 mm
12:00 PM 61.7°F16.5°C 58.1°F14.5°C 88% 5.9 mph SE9.5 kmh SE 8.3 mph13.4 kmh 29.46 in997.6 mb 0.00 in0.0 mm 0.00 in/hr0.0 mm/hr 0.34 in8.6 mm
11:59 AM 61.3°F16.3°C 57.8°F14.3°C 88% 6.1 mph SE9.8 kmh SE 8.3 mph13.4 kmh 29.46 in997.6 mb 0.00 in0.0 mm 0.00 in/hr0.0 mm/hr 0.34 in8.6 mm
11:58 AM 61.2°F16.2°C 57.6°F14.2°C 88% 6.1 mph SE9.8 kmh SE 8.3 mph13.4 kmh 29.46 in997.6 mb 0.00 in0.0 mm 0.00 in/hr0.0 mm/hr 0.34 in8.6 mm
11:57 AM 61.0°F16.1°C 57.4°F14.1°C 88% 5.9 mph ESE9.5 kmh ESE 8.3 mph13.4 kmh 29.46 in997.6 mb 0.00 in0.0 mm 0.00 in/hr0.0 mm/hr 0.34 in8.6 mm
11:56 AM 60.8°F16.0°C 57.6°F14.2°C 89% 6.1 mph ESE9.8 kmh ESE 8.3 mph13.4 kmh 29.46 in997.6 mb 0.00 in0.0 mm 0.00 in/hr0.0 mm/hr 0.34 in8.6 mm
11:55 AM 60.8°F16.0°C 57.6°F14.2°C 89% 5.7 mph ESE9.2 kmh ESE 8.3 mph13.4 kmh 29.46 in997.6 mb 0.00 in0.0 mm 0.00 in/hr0.0 mm/hr 0.34 in8.6 mm
11:54 AM 60.6°F15.9°C 57.4°F14.1°C 89% 5.5 mph ESE8.9 kmh ESE 7.6 mph12.2 kmh 29.46 in997.6 mb 0.00 in0.0 mm 0.00 in/hr0.0 mm/hr 0.34 in8.6 mm
11:53 AM 60.4°F15.8°C 57.5°F14.2°C 90% 5.4 mph E8.7 kmh E 7.6 mph12.2 kmh 29.46 in997.6 mb 0.00 in0.0 mm 0.00 in/hr0.0 mm/hr 0.34 in8.6 mm
11:52 AM 60.3°F15.7°C 57.3°F14.1°C 90% 5.2 mph E8.4 kmh E 7.6 mph12.2 kmh 29.46 in997.6 mb 0.00 in0.0 mm 0.00 in/hr0.0 mm/hr 0.34 in8.6 mm
11:51 AM 60.3°F15.7°C 57.3°F14.1°C 90% 5.1 mph NE8.2 kmh NE 7.6 mph12.2 kmh 29.46 in997.6 mb 0.00 in0.0 mm 0.00 in/hr0.0 mm/hr 0.34 in8.6 mm
11:50 AM 60.1°F15.6°C 57.2°F14.0°C 90% 5.1 mph NE8.2 kmh NE 7.6 mph12.2 kmh 29.47 in998.0 mb 0.00 in0.0 mm 0.00 in/hr0.0 mm/hr 0.34 in8.6 mm
11:49 AM 59.9°F15.5°C 57.0°F13.9°C 90% 5.1 mph NE8.2 kmh NE 7.6 mph12.2 kmh 29.47 in998.0 mb 0.00 in0.0 mm 0.00 in/hr0.0 mm/hr 0.34 in8.6 mm
11:48 AM 59.9°F15.5°C 57.0°F13.9°C 90% 5.1 mph NE8.2 kmh NE 7.6 mph12.2 kmh 29.47 in998.0 mb 0.00 in0.0 mm 0.00 in/hr0.0 mm/hr 0.34 in8.6 mm
11:47 AM 59.9°F15.5°C 57.0°F13.9°C 90% 5.0 mph NE8.0 kmh NE 7.6 mph12.2 kmh 29.47 in998.0 mb 0.00 in0.0 mm 0.00 in/hr0.0 mm/hr 0.34 in8.6 mm
11:46 AM 59.7°F15.4°C 56.8°F13.8°C 90% 4.7 mph NE7.6 kmh NE 7.6 mph12.2 kmh 29.46 in997.6 mb 0.00 in0.0 mm 0.00 in/hr0.0 mm/hr 0.34 in8.6 mm
11:45 AM 59.7°F15.4°C 56.8°F13.8°C 90% 4.7 mph NE7.6 kmh NE 7.6 mph12.2 kmh 29.47 in998.0 mb 0.00 in0.0 mm 0.00 in/hr0.0 mm/hr 0.34 in8.6 mm
11:44 AM 59.5°F15.3°C 56.6°F13.7°C 90% 4.7 mph ENE7.6 kmh ENE 7.6 mph12.2 kmh 29.47 in998.0 mb 0.00 in0.0 mm 0.00 in/hr0.0 mm/hr 0.34 in8.6 mm
11:43 AM 59.5°F15.3°C 56.6°F13.7°C 90% 4.7 mph E7.6 kmh E 7.6 mph12.2 kmh 29.46 in997.6 mb 0.00 in0.0 mm 0.00 in/hr0.0 mm/hr 0.34 in8.6 mm
11:42 AM 59.4°F15.2°C 56.7°F13.7°C 91% 4.7 mph E7.6 kmh E 7.6 mph12.2 kmh 29.46 in997.6 mb 0.00 in0.0 mm 0.00 in/hr0.0 mm/hr 0.34 in8.6 mm
11:41 AM 59.4°F15.2°C 56.4°F13.6°C 90% 4.9 mph SE7.9 kmh SE 7.6 mph12.2 kmh 29.46 in997.6 mb 0.00 in0.0 mm 0.00 in/hr0.0 mm/hr 0.34 in8.6 mm
11:40 AM 59.2°F15.1°C 56.6°F13.7°C 91% 4.8 mph SE7.7 kmh SE 7.6 mph12.2 kmh 29.46 in997.6 mb 0.00 in0.0 mm 0.00 in/hr0.0 mm/hr 0.34 in8.6 mm
11:39 AM 59.2°F15.1°C 56.6°F13.7°C 91% 4.6 mph SE7.4 kmh SE 7.6 mph12.2 kmh 29.46 in997.6 mb 0.00 in0.0 mm 0.00 in/hr0.0 mm/hr 0.34 in8.6 mm
11:38 AM 59.0°F15.0°C 56.4°F13.6°C 91% 4.6 mph SE7.4 kmh SE 6.9 mph11.1 kmh 29.46 in997.6 mb 0.00 in0.0 mm 0.00 in/hr0.0 mm/hr 0.34 in8.6 mm
11:37 AM 59.0°F15.0°C 56.4°F13.6°C 91% 4.8 mph SE7.7 kmh SE 6.9 mph11.1 kmh 29.47 in998.0 mb 0.00 in0.0 mm 0.00 in/hr0.0 mm/hr 0.34 in8.6 mm
11:36 AM 59.0°F15.0°C 56.1°F13.4°C 90% 5.0 mph SE8.0 kmh SE 6.9 mph11.1 kmh 29.46 in997.6 mb 0.00 in0.0 mm 0.00 in/hr0.0 mm/hr 0.34 in8.6 mm
11:35 AM 59.0°F15.0°C 56.1°F13.4°C 90% 4.9 mph SE7.9 kmh SE 6.9 mph11.1 kmh 29.46 in997.6 mb 0.00 in0.0 mm 0.00 in/hr0.0 mm/hr 0.34 in8.6 mm
11:34 AM 58.8°F14.9°C 55.9°F13.3°C 90% 5.0 mph SSE8.0 kmh SSE 6.9 mph11.1 kmh 29.46 in997.6 mb 0.00 in0.0 mm 0.00 in/hr0.0 mm/hr 0.34 in8.6 mm
11:33 AM 58.8°F14.9°C 55.9°F13.3°C 90% 5.1 mph SSE8.2 kmh SSE 6.9 mph11.1 kmh 29.47 in998.0 mb 0.00 in0.0 mm 0.00 in/hr0.0 mm/hr 0.34 in8.6 mm
11:32 AM 58.8°F14.9°C 55.9°F13.3°C 90% 4.9 mph S7.9 kmh S 6.9 mph11.1 kmh 29.47 in998.0 mb 0.00 in0.0 mm 0.00 in/hr0.0 mm/hr 0.34 in8.6 mm
11:31 AM 58.8°F14.9°C 55.9°F13.3°C 90% 4.7 mph S7.6 kmh S 7.6 mph12.2 kmh 29.47 in998.0 mb 0.00 in0.0 mm 0.00 in/hr0.0 mm/hr 0.34 in8.6 mm
11:30 AM 58.8°F14.9°C 55.9°F13.3°C 90% 4.9 mph S7.9 kmh S 7.6 mph12.2 kmh 29.47 in998.0 mb 0.00 in0.0 mm 0.00 in/hr0.0 mm/hr 0.34 in8.6 mm
11:29 AM 58.8°F14.9°C 55.9°F13.3°C 90% 4.9 mph S7.9 kmh S 7.6 mph12.2 kmh 29.47 in998.0 mb 0.00 in0.0 mm 0.00 in/hr0.0 mm/hr 0.34 in8.6 mm
11:28 AM 58.8°F14.9°C 55.9°F13.3°C 90% 4.8 mph S7.7 kmh S 7.6 mph12.2 kmh 29.47 in998.0 mb 0.00 in0.0 mm 0.00 in/hr0.0 mm/hr 0.34 in8.6 mm
11:27 AM 58.8°F14.9°C 55.9°F13.3°C 90% 4.8 mph S7.7 kmh S 7.6 mph12.2 kmh 29.47 in998.0 mb 0.00 in0.0 mm 0.00 in/hr0.0 mm/hr 0.34 in8.6 mm
11:26 AM 58.8°F14.9°C 55.9°F13.3°C 90% 5.0 mph SSW8.0 kmh SSW 8.3 mph13.4 kmh 29.47 in998.0 mb 0.00 in0.0 mm 0.00 in/hr0.0 mm/hr 0.34 in8.6 mm
11:25 AM 58.8°F14.9°C 55.9°F13.3°C 90% 5.5 mph SSW8.9 kmh SSW 8.3 mph13.4 kmh 29.47 in998.0 mb 0.00 in0.0 mm 0.00 in/hr0.0 mm/hr 0.34 in8.6 mm
11:24 AM 58.8°F14.9°C 55.9°F13.3°C 90% 5.7 mph SSW9.2 kmh SSW 8.3 mph13.4 kmh 29.47 in998.0 mb 0.00 in0.0 mm 0.00 in/hr0.0 mm/hr 0.34 in8.6 mm
11:23 AM 58.8°F14.9°C 55.9°F13.3°C 90% 5.6 mph SSW9.0 kmh SSW 8.3 mph13.4 kmh 29.47 in998.0 mb 0.00 in0.0 mm 0.00 in/hr0.0 mm/hr 0.34 in8.6 mm
11:22 AM 58.8°F14.9°C 55.9°F13.3°C 90% 6.0 mph S9.7 kmh S 8.3 mph13.4 kmh 29.47 in998.0 mb 0.00 in0.0 mm 0.00 in/hr0.0 mm/hr 0.34 in8.6 mm
11:21 AM 58.8°F14.9°C 55.9°F13.3°C 90% 6.2 mph S10.0 kmh S 8.3 mph13.4 kmh 29.47 in998.0 mb 0.00 in0.0 mm 0.00 in/hr0.0 mm/hr 0.34 in8.6 mm
11:20 AM 58.8°F14.9°C 55.9°F13.3°C 90% 6.1 mph S9.8 kmh S 8.3 mph13.4 kmh 29.47 in998.0 mb 0.00 in0.0 mm 0.00 in/hr0.0 mm/hr 0.34 in8.6 mm
11:19 AM 58.8°F14.9°C 55.9°F13.3°C 90% 6.1 mph S9.8 kmh S 8.3 mph13.4 kmh 29.47 in998.0 mb 0.00 in0.0 mm 0.00 in/hr0.0 mm/hr 0.34 in8.6 mm
11:18 AM 59.0°F15.0°C 56.1°F13.4°C 90% 6.2 mph SSE10.0 kmh SSE 8.3 mph13.4 kmh 29.47 in998.0 mb 0.00 in0.0 mm 0.00 in/hr0.0 mm/hr 0.34 in8.6 mm
11:17 AM 59.0°F15.0°C 56.1°F13.4°C 90% 5.9 mph SSE9.5 kmh SSE 8.3 mph13.4 kmh 29.47 in998.0 mb 0.00 in0.0 mm 0.00 in/hr0.0 mm/hr 0.34 in8.6 mm
11:16 AM 59.0°F15.0°C 56.1°F13.4°C 90% 5.7 mph S9.2 kmh S 8.3 mph13.4 kmh 29.47 in998.0 mb 0.00 in0.0 mm 0.00 in/hr0.0 mm/hr 0.34 in8.6 mm
11:15 AM 59.0°F15.0°C 56.1°F13.4°C 90% 5.7 mph S9.2 kmh S 7.6 mph12.2 kmh 29.47 in998.0 mb 0.00 in0.0 mm 0.00 in/hr0.0 mm/hr 0.34 in8.6 mm
11:14 AM 59.0°F15.0°C 56.1°F13.4°C 90% 5.7 mph SSE9.2 kmh SSE 7.6 mph12.2 kmh 29.47 in998.0 mb 0.00 in0.0 mm 0.00 in/hr0.0 mm/hr 0.34 in8.6 mm
11:13 AM 59.0°F15.0°C 56.1°F13.4°C 90% 5.8 mph S9.3 kmh S 7.6 mph12.2 kmh 29.47 in998.0 mb 0.00 in0.0 mm 0.00 in/hr0.0 mm/hr 0.34 in8.6 mm
11:12 AM 59.0°F15.0°C 56.1°F13.4°C 90% 5.4 mph S8.7 kmh S 7.6 mph12.2 kmh 29.48 in998.3 mb 0.00 in0.0 mm 0.00 in/hr0.0 mm/hr 0.34 in8.6 mm
11:11 AM 59.2°F15.1°C 56.3°F13.5°C 90% 5.1 mph S8.2 kmh S 7.6 mph12.2 kmh 29.48 in998.3 mb 0.00 in0.0 mm 0.00 in/hr0.0 mm/hr 0.34 in8.6 mm
11:10 AM 59.2°F15.1°C 56.3°F13.5°C 90% 5.1 mph S8.2 kmh S 7.6 mph12.2 kmh 29.48 in998.3 mb 0.00 in0.0 mm 0.00 in/hr0.0 mm/hr 0.34 in8.6 mm
11:09 AM 59.2°F15.1°C 56.3°F13.5°C 90% 4.9 mph SSW7.9 kmh SSW 7.6 mph12.2 kmh 29.48 in998.3 mb 0.00 in0.0 mm 0.00 in/hr0.0 mm/hr 0.34 in8.6 mm
11:08 AM 59.2°F15.1°C 56.3°F13.5°C 90% 5.1 mph SSW8.2 kmh SSW 7.6 mph12.2 kmh 29.48 in998.3 mb 0.00 in0.0 mm 0.00 in/hr0.0 mm/hr 0.34 in8.6 mm
11:07 AM 59.4°F15.2°C 56.1°F13.4°C 89% 5.3 mph SSW8.5 kmh SSW 7.6 mph12.2 kmh 29.48 in998.3 mb 0.00 in0.0 mm 0.00 in/hr0.0 mm/hr 0.34 in8.6 mm
11:06 AM 59.4°F15.2°C 56.1°F13.4°C 89% 5.4 mph SSW8.7 kmh SSW 7.6 mph12.2 kmh 29.48 in998.3 mb 0.00 in0.0 mm 0.00 in/hr0.0 mm/hr 0.34 in8.6 mm
11:05 AM 59.4°F15.2°C 56.1°F13.4°C 89% 5.2 mph SSW8.4 kmh SSW 7.6 mph12.2 kmh 29.48 in998.3 mb 0.00 in0.0 mm 0.00 in/hr0.0 mm/hr 0.34 in8.6 mm
11:04 AM 59.4°F15.2°C 56.1°F13.4°C 89% 5.1 mph SSW8.2 kmh SSW 8.3 mph13.4 kmh 29.48 in998.3 mb 0.00 in0.0 mm 0.00 in/hr0.0 mm/hr 0.34 in8.6 mm
11:03 AM 59.5°F15.3°C 56.3°F13.5°C 89% 5.3 mph SW8.5 kmh SW 8.3 mph13.4 kmh 29.48 in998.3 mb 0.00 in0.0 mm 0.00 in/hr0.0 mm/hr 0.34 in8.6 mm
11:02 AM 59.5°F15.3°C 56.3°F13.5°C 89% 5.5 mph SW8.9 kmh SW 8.3 mph13.4 kmh 29.48 in998.3 mb 0.00 in0.0 mm 0.00 in/hr0.0 mm/hr 0.34 in8.6 mm
11:01 AM 59.5°F15.3°C 56.3°F13.5°C 89% 5.5 mph SW8.9 kmh SW 8.3 mph13.4 kmh 29.48 in998.3 mb 0.00 in0.0 mm 0.00 in/hr0.0 mm/hr 0.34 in8.6 mm
11:00 AM 59.5°F15.3°C 56.3°F13.5°C 89% 5.6 mph SW9.0 kmh SW 8.3 mph13.4 kmh 29.48 in998.3 mb 0.00 in0.0 mm 0.00 in/hr0.0 mm/hr 0.34 in8.6 mm
10:59 AM 59.7°F15.4°C 56.5°F13.6°C 89% 5.7 mph SW9.2 kmh SW 8.3 mph13.4 kmh 29.48 in998.3 mb 0.00 in0.0 mm 0.00 in/hr0.0 mm/hr 0.34 in8.6 mm
10:58 AM 59.7°F15.4°C 56.5°F13.6°C 89% 5.5 mph SSW8.9 kmh SSW 8.3 mph13.4 kmh 29.48 in998.3 mb 0.00 in0.0 mm 0.00 in/hr0.0 mm/hr 0.34 in8.6 mm
10:57 AM 59.7°F15.4°C 56.5°F13.6°C 89% 5.5 mph SSW8.9 kmh SSW 8.3 mph13.4 kmh 29.48 in998.3 mb 0.00 in0.0 mm 0.00 in/hr0.0 mm/hr 0.34 in8.6 mm
10:56 AM 59.7°F15.4°C 56.5°F13.6°C 89% 5.5 mph SSW8.9 kmh SSW 8.3 mph13.4 kmh 29.48 in998.3 mb 0.00 in0.0 mm 0.00 in/hr0.0 mm/hr 0.34 in8.6 mm
10:55 AM 59.7°F15.4°C 56.5°F13.6°C 89% 5.8 mph SSW9.3 kmh SSW 8.3 mph13.4 kmh 29.48 in998.3 mb 0.00 in0.0 mm 0.00 in/hr0.0 mm/hr 0.34 in8.6 mm
10:54 AM 59.7°F15.4°C 56.5°F13.6°C 89% 5.7 mph SSW9.2 kmh SSW 8.3 mph13.4 kmh 29.49 in998.6 mb 0.00 in0.0 mm 0.00 in/hr0.0 mm/hr 0.34 in8.6 mm
10:53 AM 59.9°F15.5°C 56.7°F13.7°C 89% 5.4 mph SSW8.7 kmh SSW 7.6 mph12.2 kmh 29.48 in998.3 mb 0.00 in0.0 mm 0.00 in/hr0.0 mm/hr 0.34 in8.6 mm
10:52 AM 59.9°F15.5°C 56.7°F13.7°C 89% 5.4 mph SSW8.7 kmh SSW 7.6 mph12.2 kmh 29.49 in998.6 mb 0.00 in0.0 mm 0.00 in/hr0.0 mm/hr 0.34 in8.6 mm
10:51 AM 59.9°F15.5°C 56.7°F13.7°C 89% 5.3 mph SSW8.5 kmh SSW 7.6 mph12.2 kmh 29.49 in998.6 mb 0.00 in0.0 mm 0.00 in/hr0.0 mm/hr 0.34 in8.6 mm
10:50 AM 59.9°F15.5°C 56.7°F13.7°C 89% 5.2 mph SSW8.4 kmh SSW 7.6 mph12.2 kmh 29.48 in998.3 mb 0.00 in0.0 mm 0.00 in/hr0.0 mm/hr 0.34 in8.6 mm
10:49 AM 59.9°F15.5°C 56.7°F13.7°C 89% 5.2 mph SSW8.4 kmh SSW 7.6 mph12.2 kmh 29.49 in998.6 mb 0.00 in0.0 mm 0.00 in/hr0.0 mm/hr 0.34 in8.6 mm
10:48 AM 59.9°F15.5°C 56.7°F13.7°C 89% 5.0 mph SSW8.0 kmh SSW 7.6 mph12.2 kmh 29.49 in998.6 mb 0.00 in0.0 mm 0.00 in/hr0.0 mm/hr 0.34 in8.6 mm
10:47 AM 60.1°F15.6°C 56.5°F13.6°C 88% 4.8 mph SSW7.7 kmh SSW 7.6 mph12.2 kmh 29.48 in998.3 mb 0.00 in0.0 mm 0.00 in/hr0.0 mm/hr 0.34 in8.6 mm
10:46 AM 60.1°F15.6°C 56.5°F13.6°C 88% 4.5 mph SSW7.2 kmh SSW 7.6 mph12.2 kmh 29.48 in998.3 mb 0.00 in0.0 mm 0.00 in/hr0.0 mm/hr 0.34 in8.6 mm
10:45 AM 60.1°F15.6°C 56.5°F13.6°C 88% 4.1 mph SSW6.6 kmh SSW 7.6 mph12.2 kmh 29.49 in998.6 mb 0.00 in0.0 mm 0.00 in/hr0.0 mm/hr 0.34 in8.6 mm
10:44 AM 60.3°F15.7°C 56.7°F13.7°C 88% 3.8 mph S6.1 kmh S 6.0 mph9.7 kmh 29.49 in998.6 mb 0.00 in0.0 mm 0.00 in/hr0.0 mm/hr 0.34 in8.6 mm
10:43 AM 60.4°F15.8°C 56.9°F13.8°C 88% 3.8 mph S6.1 kmh S 6.0 mph9.7 kmh 29.48 in998.3 mb 0.00 in0.0 mm 0.00 in/hr0.0 mm/hr 0.34 in8.6 mm
10:42 AM 60.4°F15.8°C 57.2°F14.0°C 89% 3.9 mph S6.3 kmh S 6.0 mph9.7 kmh 29.49 in998.6 mb 0.00 in0.0 mm 0.00 in/hr0.0 mm/hr 0.34 in8.6 mm
10:41 AM 60.4°F15.8°C 56.9°F13.8°C 88% 3.6 mph S5.8 kmh S 6.0 mph9.7 kmh 29.49 in998.6 mb 0.00 in0.0 mm 0.00 in/hr0.0 mm/hr 0.34 in8.6 mm
10:40 AM 60.4°F15.8°C 56.9°F13.8°C 88% 3.6 mph S5.8 kmh S 6.0 mph9.7 kmh 29.49 in998.6 mb 0.00 in0.0 mm 0.00 in/hr0.0 mm/hr 0.34 in8.6 mm
10:39 AM 60.6°F15.9°C 57.1°F13.9°C 88% 3.3 mph S5.3 kmh S 5.4 mph8.7 kmh 29.49 in998.6 mb 0.00 in0.0 mm 0.00 in/hr0.0 mm/hr 0.34 in8.6 mm
10:38 AM 60.6°F15.9°C 57.4°F14.1°C 89% 3.2 mph S5.1 kmh S 5.4 mph8.7 kmh 29.49 in998.6 mb 0.00 in0.0 mm 0.00 in/hr0.0 mm/hr 0.34 in8.6 mm
10:37 AM 60.6°F15.9°C 57.4°F14.1°C 89% 3.1 mph S5.0 kmh S 5.4 mph8.7 kmh 29.49 in998.6 mb 0.00 in0.0 mm 0.00 in/hr0.0 mm/hr 0.34 in8.6 mm
10:36 AM 60.8°F16.0°C 57.6°F14.2°C 89% 3.0 mph S4.8 kmh S 5.4 mph8.7 kmh 29.49 in998.6 mb 0.00 in0.0 mm 0.00 in/hr0.0 mm/hr 0.34 in8.6 mm
10:35 AM 60.8°F16.0°C 57.6°F14.2°C 89% 3.0 mph S4.8 kmh S 5.4 mph8.7 kmh 29.49 in998.6 mb 0.00 in0.0 mm 0.00 in/hr0.0 mm/hr 0.34 in8.6 mm
10:34 AM 60.8°F16.0°C 57.6°F14.2°C 89% 2.9 mph SSE4.7 kmh SSE 5.4 mph8.7 kmh 29.49 in998.6 mb 0.00 in0.0 mm 0.00 in/hr0.0 mm/hr 0.34 in8.6 mm
10:33 AM 61.0°F16.1°C 57.7°F14.3°C 89% 2.9 mph SE4.7 kmh SE 5.4 mph8.7 kmh 29.49 in998.6 mb 0.00 in0.0 mm 0.00 in/hr0.0 mm/hr 0.34 in8.6 mm
10:32 AM 61.0°F16.1°C 57.7°F14.3°C 89% 2.6 mph ESE4.2 kmh ESE 4.5 mph7.2 kmh 29.49 in998.6 mb 0.00 in0.0 mm 0.00 in/hr0.0 mm/hr 0.34 in8.6 mm
10:31 AM 61.0°F16.1°C 57.7°F14.3°C 89% 2.7 mph SE4.3 kmh SE 4.5 mph7.2 kmh 29.49 in998.6 mb 0.00 in0.0 mm 0.00 in/hr0.0 mm/hr 0.34 in8.6 mm
10:30 AM 61.0°F16.1°C 57.4°F14.1°C 88% 2.6 mph ESE4.2 kmh ESE 4.5 mph7.2 kmh 29.49 in998.6 mb 0.00 in0.0 mm 0.00 in/hr0.0 mm/hr 0.34 in8.6 mm
10:29 AM 61.2°F16.2°C 57.6°F14.2°C 88% 2.6 mph ESE4.2 kmh ESE 4.5 mph7.2 kmh 29.49 in998.6 mb 0.00 in0.0 mm 0.00 in/hr0.0 mm/hr 0.34 in8.6 mm
10:28 AM 61.2°F16.2°C 57.6°F14.2°C 88% 2.8 mph ESE4.5 kmh ESE 4.5 mph7.2 kmh 29.49 in998.6 mb 0.00 in0.0 mm 0.00 in/hr0.0 mm/hr 0.34 in8.6 mm
10:27 AM 61.2°F16.2°C 57.6°F14.2°C 88% 2.9 mph ESE4.7 kmh ESE 4.5 mph7.2 kmh 29.49 in998.6 mb 0.00 in0.0 mm 0.00 in/hr0.0 mm/hr 0.34 in8.6 mm
10:26 AM 61.3°F16.3°C 57.8°F14.3°C 88% 2.9 mph ESE4.7 kmh ESE 4.5 mph7.2 kmh 29.49 in998.6 mb 0.00 in0.0 mm 0.00 in/hr0.0 mm/hr 0.34 in8.6 mm
10:25 AM 61.3°F16.3°C 57.8°F14.3°C 88% 2.9 mph ESE4.7 kmh ESE 4.5 mph7.2 kmh 29.50 in999.0 mb 0.00 in0.0 mm 0.00 in/hr0.0 mm/hr 0.34 in8.6 mm
10:24 AM 61.3°F16.3°C 57.8°F14.3°C 88% 3.0 mph ESE4.8 kmh ESE 4.5 mph7.2 kmh 29.49 in998.6 mb 0.00 in0.0 mm 0.00 in/hr0.0 mm/hr 0.34 in8.6 mm
10:23 AM 61.5°F16.4°C 57.9°F14.4°C 88% 2.8 mph ESE4.5 kmh ESE 3.8 mph6.1 kmh 29.49 in998.6 mb 0.00 in0.0 mm 0.00 in/hr0.0 mm/hr 0.34 in8.6 mm
10:22 AM 61.7°F16.5°C 58.1°F14.5°C 88% 2.8 mph ESE4.5 kmh ESE 3.8 mph6.1 kmh 29.50 in999.0 mb 0.00 in0.0 mm 0.00 in/hr0.0 mm/hr 0.34 in8.6 mm
10:21 AM 61.7°F16.5°C 58.1°F14.5°C 88% 2.7 mph E4.3 kmh E 3.8 mph6.1 kmh 29.50 in999.0 mb 0.00 in0.0 mm 0.00 in/hr0.0 mm/hr 0.34 in8.6 mm
10:20 AM 61.9°F16.6°C 58.3°F14.6°C 88% 2.6 mph E4.2 kmh E 3.8 mph6.1 kmh 29.50 in999.0 mb 0.00 in0.0 mm 0.00 in/hr0.0 mm/hr 0.34 in8.6 mm
10:19 AM 62.1°F16.7°C 58.5°F14.7°C 88% 2.6 mph E4.2 kmh E 3.8 mph6.1 kmh 29.50 in999.0 mb 0.00 in0.0 mm 0.00 in/hr0.0 mm/hr 0.34 in8.6 mm
10:18 AM 62.1°F16.7°C 58.5°F14.7°C 88% 2.6 mph E4.2 kmh E 3.8 mph6.1 kmh 29.50 in999.0 mb 0.00 in0.0 mm 0.00 in/hr0.0 mm/hr 0.34 in8.6 mm
10:17 AM 62.2°F16.8°C 58.7°F14.8°C 88% 2.7 mph ENE4.3 kmh ENE 4.5 mph7.2 kmh 29.50 in999.0 mb 0.00 in0.0 mm 0.00 in/hr0.0 mm/hr 0.34 in8.6 mm
10:16 AM 62.2°F16.8°C 59.0°F15.0°C 89% 2.6 mph NE4.2 kmh NE 4.5 mph7.2 kmh 29.50 in999.0 mb 0.00 in0.0 mm 0.00 in/hr0.0 mm/hr 0.34 in8.6 mm
10:15 AM 62.4°F16.9°C 59.2°F15.1°C 89% 2.5 mph NE4.0 kmh NE 4.5 mph7.2 kmh 29.50 in999.0 mb 0.00 in0.0 mm 0.00 in/hr0.0 mm/hr 0.34 in8.6 mm
10:14 AM 62.4°F16.9°C 59.2°F15.1°C 89% 2.4 mph NE3.9 kmh NE 4.5 mph7.2 kmh 29.50 in999.0 mb 0.00 in0.0 mm 0.00 in/hr0.0 mm/hr 0.34 in8.6 mm
10:13 AM 62.6°F17.0°C 59.6°F15.3°C 90% 2.5 mph NE4.0 kmh NE 4.5 mph7.2 kmh 29.50 in999.0 mb 0.00 in0.0 mm 0.00 in/hr0.0 mm/hr 0.34 in8.6 mm
10:12 AM 62.6°F17.0°C 59.6°F15.3°C 90% 2.6 mph NE4.2 kmh NE 4.5 mph7.2 kmh 29.50 in999.0 mb 0.00 in0.0 mm 0.00 in/hr0.0 mm/hr 0.34 in8.6 mm
10:11 AM 62.6°F17.0°C 59.6°F15.3°C 90% 2.7 mph NE4.3 kmh NE 4.5 mph7.2 kmh 29.50 in999.0 mb 0.00 in0.0 mm 0.00 in/hr0.0 mm/hr 0.34 in8.6 mm
10:10 AM 62.6°F17.0°C 59.6°F15.3°C 90% 2.6 mph NE4.2 kmh NE 4.5 mph7.2 kmh 29.50 in999.0 mb 0.00 in0.0 mm 0.00 in/hr0.0 mm/hr 0.34 in8.6 mm
10:09 AM 62.6°F17.0°C 60.0°F15.6°C 91% 2.5 mph NE4.0 kmh NE 4.5 mph7.2 kmh 29.50 in999.0 mb 0.00 in0.0 mm 0.00 in/hr0.0 mm/hr 0.34 in8.6 mm
10:08 AM 62.6°F17.0°C 60.0°F15.6°C 91% 2.7 mph NE4.3 kmh NE 4.5 mph7.2 kmh 29.50 in999.0 mb 0.00 in0.0 mm 0.00 in/hr0.0 mm/hr 0.34 in8.6 mm
10:07 AM 62.6°F17.0°C 60.0°F15.6°C 91% 2.6 mph NE4.2 kmh NE 4.5 mph7.2 kmh 29.50 in999.0 mb 0.00 in0.0 mm 0.00 in/hr0.0 mm/hr 0.34 in8.6 mm
10:06 AM 62.6°F17.0°C 60.0°F15.6°C 91% 2.7 mph NE4.3 kmh NE 4.5 mph7.2 kmh 29.50 in999.0 mb 0.00 in0.0 mm 0.00 in/hr0.0 mm/hr 0.34 in8.6 mm
10:05 AM 62.6°F17.0°C 60.0°F15.6°C 91% 2.8 mph NE4.5 kmh NE 4.5 mph7.2 kmh 29.50 in999.0 mb 0.00 in0.0 mm 0.00 in/hr0.0 mm/hr 0.34 in8.6 mm
10:04 AM 62.6°F17.0°C 60.0°F15.6°C 91% 3.0 mph NE4.8 kmh NE 4.5 mph7.2 kmh 29.50 in999.0 mb 0.00 in0.0 mm 0.00 in/hr0.0 mm/hr 0.34 in8.6 mm
10:03 AM 62.6°F17.0°C 60.3°F15.7°C 92% 3.1 mph NE5.0 kmh NE 4.5 mph7.2 kmh 29.50 in999.0 mb 0.00 in0.0 mm 0.00 in/hr0.0 mm/hr 0.34 in8.6 mm
10:02 AM 62.6°F17.0°C 60.3°F15.7°C 92% 3.2 mph NE5.1 kmh NE 4.5 mph7.2 kmh 29.50 in999.0 mb 0.00 in0.0 mm 0.00 in/hr0.0 mm/hr 0.34 in8.6 mm
10:01 AM 62.6°F17.0°C 60.3°F15.7°C 92% 3.4 mph NE5.5 kmh NE 4.5 mph7.2 kmh 29.50 in999.0 mb 0.00 in0.0 mm 0.00 in/hr0.0 mm/hr 0.34 in8.6 mm
10:00 AM 62.6°F17.0°C 60.3°F15.7°C 92% 3.4 mph NE5.5 kmh NE 4.5 mph7.2 kmh 29.50 in999.0 mb 0.00 in0.0 mm 0.00 in/hr0.0 mm/hr 0.34 in8.6 mm
09:59 AM 62.6°F17.0°C 60.6°F15.9°C 93% 3.4 mph NE5.5 kmh NE 4.5 mph7.2 kmh 29.50 in999.0 mb 0.00 in0.0 mm 0.00 in/hr0.0 mm/hr 0.34 in8.6 mm
09:58 AM 62.8°F17.1°C 60.7°F15.9°C 93% 3.1 mph ENE5.0 kmh ENE 4.5 mph7.2 kmh 29.50 in999.0 mb 0.00 in0.0 mm 0.00 in/hr0.0 mm/hr 0.34 in8.6 mm
09:57 AM 62.8°F17.1°C 61.0°F16.1°C 94% 2.9 mph ENE4.7 kmh ENE 4.5 mph7.2 kmh 29.50 in999.0 mb 0.00 in0.0 mm 0.00 in/hr0.0 mm/hr 0.34 in8.6 mm
09:56 AM 62.8°F17.1°C 61.0°F16.1°C 94% 2.8 mph E4.5 kmh E 4.5 mph7.2 kmh 29.50 in999.0 mb 0.00 in0.0 mm 0.00 in/hr0.0 mm/hr 0.34 in8.6 mm
09:55 AM 62.8°F17.1°C 61.3°F16.3°C 95% 2.7 mph ESE4.3 kmh ESE 4.5 mph7.2 kmh 29.50 in999.0 mb 0.00 in0.0 mm 0.00 in/hr0.0 mm/hr 0.34 in8.6 mm
09:54 AM 62.8°F17.1°C 61.3°F16.3°C 95% 2.5 mph SE4.0 kmh SE 4.5 mph7.2 kmh 29.50 in999.0 mb 0.00 in0.0 mm 0.00 in/hr0.0 mm/hr 0.34 in8.6 mm
09:53 AM 62.8°F17.1°C 61.6°F16.4°C 96% 2.3 mph SSE3.7 kmh SSE 3.8 mph6.1 kmh 29.50 in999.0 mb 0.00 in0.0 mm 0.00 in/hr0.0 mm/hr 0.34 in8.6 mm
09:52 AM 62.8°F17.1°C 61.6°F16.4°C 96% 2.1 mph S3.4 kmh S 3.8 mph6.1 kmh 29.50 in999.0 mb 0.00 in0.0 mm 0.00 in/hr0.0 mm/hr 0.34 in8.6 mm
09:51 AM 62.8°F17.1°C 61.9°F16.6°C 97% 1.9 mph SSW3.1 kmh SSW 2.2 mph3.5 kmh 29.50 in999.0 mb 0.00 in0.0 mm 0.00 in/hr0.0 mm/hr 0.34 in8.6 mm
09:50 AM 62.8°F17.1°C 61.9°F16.6°C 97% 2.0 mph SSW3.2 kmh SSW 2.2 mph3.5 kmh 29.50 in999.0 mb 0.00 in0.0 mm 0.00 in/hr0.0 mm/hr 0.34 in8.6 mm
09:49 AM 62.8°F17.1°C 62.2°F16.8°C 98% 2.0 mph S3.2 kmh S 2.2 mph3.5 kmh 29.50 in999.0 mb 0.00 in0.0 mm 0.00 in/hr0.0 mm/hr 0.34 in8.6 mm
09:48 AM 62.8°F17.1°C 62.2°F16.8°C 98% 2.0 mph S3.2 kmh S 2.2 mph3.5 kmh 29.50 in999.0 mb 0.00 in0.0 mm 0.00 in/hr0.0 mm/hr 0.34 in8.6 mm
09:47 AM 62.8°F17.1°C 62.5°F16.9°C 99% 2.0 mph S3.2 kmh S 2.2 mph3.5 kmh 29.50 in999.0 mb 0.00 in0.0 mm 0.00 in/hr0.0 mm/hr 0.34 in8.6 mm
09:46 AM 62.8°F17.1°C 62.5°F16.9°C 99% 2.0 mph S3.2 kmh S 3.1 mph5.0 kmh 29.50 in999.0 mb 0.00 in0.0 mm 0.00 in/hr0.0 mm/hr 0.34 in8.6 mm
09:45 AM 62.6°F17.0°C 62.3°F16.8°C 99% 2.1 mph S3.4 kmh S 3.1 mph5.0 kmh 29.50 in999.0 mb 0.00 in0.0 mm 0.00 in/hr0.0 mm/hr 0.34 in8.6 mm
09:44 AM 62.6°F17.0°C 62.3°F16.8°C 99% 2.1 mph S3.4 kmh S 3.1 mph5.0 kmh 29.50 in999.0 mb 0.00 in0.0 mm 0.00 in/hr0.0 mm/hr 0.34 in8.6 mm
09:43 AM 62.6°F17.0°C 62.3°F16.8°C 99% 2.1 mph SSW3.4 kmh SSW 3.1 mph5.0 kmh 29.50 in999.0 mb 0.00 in0.0 mm 0.00 in/hr0.0 mm/hr 0.34 in8.6 mm
09:42 AM 62.4°F16.9°C 62.2°F16.8°C 99% 2.2 mph SSW3.5 kmh SSW 3.1 mph5.0 kmh 29.50 in999.0 mb 0.00 in0.0 mm 0.00 in/hr0.0 mm/hr 0.34 in8.6 mm
09:41 AM 62.2°F16.8°C 62.0°F16.7°C 99% 2.2 mph SW3.5 kmh SW 3.1 mph5.0 kmh 29.50 in999.0 mb 0.00 in0.0 mm 0.00 in/hr0.0 mm/hr 0.34 in8.6 mm
09:40 AM 62.2°F16.8°C 62.0°F16.7°C 99% 2.3 mph SW3.7 kmh SW 3.1 mph5.0 kmh 29.50 in999.0 mb 0.00 in0.0 mm 0.00 in/hr0.0 mm/hr 0.34 in8.6 mm
09:39 AM 62.1°F16.7°C 61.8°F16.6°C 99% 2.3 mph SW3.7 kmh SW 3.1 mph5.0 kmh 29.50 in999.0 mb 0.00 in0.0 mm 0.00 in/hr0.0 mm/hr 0.34 in8.6 mm
09:38 AM 61.5°F16.4°C 61.3°F16.3°C 99% 2.3 mph WSW3.7 kmh WSW 3.1 mph5.0 kmh 29.50 in999.0 mb 0.00 in0.0 mm 0.00 in/hr0.0 mm/hr 0.34 in8.6 mm
09:37 AM 61.3°F16.3°C 61.1°F16.2°C 99% 2.3 mph WSW3.7 kmh WSW 3.1 mph5.0 kmh 29.51 in999.3 mb 0.00 in0.0 mm 0.00 in/hr0.0 mm/hr 0.34 in8.6 mm
09:36 AM 61.0°F16.1°C 60.7°F15.9°C 99% 2.1 mph WSW3.4 kmh WSW 3.1 mph5.0 kmh 29.50 in999.0 mb 0.00 in0.0 mm 0.00 in/hr0.0 mm/hr 0.34 in8.6 mm
09:35 AM 60.8°F16.0°C 60.5°F15.8°C 99% 2.0 mph WSW3.2 kmh WSW 3.1 mph5.0 kmh 29.50 in999.0 mb 0.00 in0.0 mm 0.00 in/hr0.0 mm/hr 0.34 in8.6 mm
09:34 AM 60.3°F15.7°C 60.0°F15.6°C 99% 1.8 mph WSW2.9 kmh WSW 3.1 mph5.0 kmh 29.51 in999.3 mb 0.00 in0.0 mm 0.00 in/hr0.0 mm/hr 0.34 in8.6 mm
09:33 AM 59.9°F15.5°C 59.6°F15.3°C 99% 1.7 mph WSW2.7 kmh WSW 3.1 mph5.0 kmh 29.51 in999.3 mb 0.00 in0.0 mm 0.00 in/hr0.0 mm/hr 0.34 in8.6 mm
09:32 AM 59.9°F15.5°C 59.6°F15.3°C 99% 1.6 mph SW2.6 kmh SW 3.1 mph5.0 kmh 29.50 in999.0 mb 0.00 in0.0 mm 0.00 in/hr0.0 mm/hr 0.34 in8.6 mm
09:31 AM 59.7°F15.4°C 59.5°F15.3°C 99% 1.6 mph WSW2.6 kmh WSW 3.1 mph5.0 kmh 29.50 in999.0 mb 0.00 in0.0 mm 0.00 in/hr0.0 mm/hr 0.34 in8.6 mm
09:30 AM 59.4°F15.2°C 59.1°F15.1°C 99% 1.5 mph SW2.4 kmh SW 2.2 mph3.5 kmh 29.51 in999.3 mb 0.00 in0.0 mm 0.00 in/hr0.0 mm/hr 0.34 in8.6 mm
09:29 AM 59.2°F15.1°C 58.9°F14.9°C 99% 1.5 mph WSW2.4 kmh WSW 2.2 mph3.5 kmh 29.50 in999.0 mb 0.00 in0.0 mm 0.00 in/hr0.0 mm/hr 0.34 in8.6 mm
09:28 AM 59.0°F15.0°C 58.7°F14.8°C 99% 1.6 mph WSW2.6 kmh WSW 2.2 mph3.5 kmh 29.50 in999.0 mb 0.00 in0.0 mm 0.00 in/hr0.0 mm/hr 0.34 in8.6 mm
09:27 AM 58.8°F14.9°C 58.6°F14.8°C 99% 1.8 mph W2.9 kmh W 3.8 mph6.1 kmh 29.51 in999.3 mb 0.00 in0.0 mm 0.00 in/hr0.0 mm/hr 0.34 in8.6 mm
09:26 AM 58.8°F14.9°C 58.6°F14.8°C 99% 2.0 mph W3.2 kmh W 3.8 mph6.1 kmh 29.51 in999.3 mb 0.00 in0.0 mm 0.00 in/hr0.0 mm/hr 0.34 in8.6 mm
09:25 AM 58.8°F14.9°C 58.6°F14.8°C 99% 2.0 mph WNW3.2 kmh WNW 3.8 mph6.1 kmh 29.50 in999.0 mb 0.00 in0.0 mm 0.00 in/hr0.0 mm/hr 0.34 in8.6 mm
09:24 AM 58.6°F14.8°C 58.4°F14.7°C 99% 2.1 mph WNW3.4 kmh WNW 3.8 mph6.1 kmh 29.51 in999.3 mb 0.00 in0.0 mm 0.00 in/hr0.0 mm/hr 0.34 in8.6 mm
09:23 AM 58.6°F14.8°C 58.4°F14.7°C 99% 2.3 mph WNW3.7 kmh WNW 4.5 mph7.2 kmh 29.51 in999.3 mb 0.00 in0.0 mm 0.00 in/hr0.0 mm/hr 0.34 in8.6 mm
09:22 AM 58.6°F14.8°C 58.4°F14.7°C 99% 2.5 mph WNW4.0 kmh WNW 4.5 mph7.2 kmh 29.51 in999.3 mb 0.00 in0.0 mm 0.00 in/hr0.0 mm/hr 0.34 in8.6 mm
09:21 AM 58.6°F14.8°C 58.4°F14.7°C 99% 2.5 mph WNW4.0 kmh WNW 4.5 mph7.2 kmh 29.51 in999.3 mb 0.00 in0.0 mm 0.00 in/hr0.0 mm/hr 0.34 in8.6 mm
09:20 AM 58.6°F14.8°C 58.4°F14.7°C 99% 2.5 mph WNW4.0 kmh WNW 4.5 mph7.2 kmh 29.51 in999.3 mb 0.00 in0.0 mm 0.00 in/hr0.0 mm/hr 0.34 in8.6 mm
09:19 AM 58.6°F14.8°C 58.4°F14.7°C 99% 2.5 mph WNW4.0 kmh WNW 4.5 mph7.2 kmh 29.51 in999.3 mb 0.00 in0.0 mm 0.00 in/hr0.0 mm/hr 0.34 in8.6 mm
09:18 AM 58.6°F14.8°C 58.4°F14.7°C 99% 2.5 mph WNW4.0 kmh WNW 4.5 mph7.2 kmh 29.51 in999.3 mb 0.00 in0.0 mm 0.00 in/hr0.0 mm/hr 0.34 in8.6 mm
09:17 AM 58.6°F14.8°C 58.4°F14.7°C 99% 2.4 mph WNW3.9 kmh WNW 4.5 mph7.2 kmh 29.51 in999.3 mb 0.00 in0.0 mm 0.00 in/hr0.0 mm/hr 0.34 in8.6 mm
09:16 AM 58.6°F14.8°C 58.4°F14.7°C 99% 2.3 mph WNW3.7 kmh WNW 4.5 mph7.2 kmh 29.51 in999.3 mb 0.00 in0.0 mm 0.00 in/hr0.0 mm/hr 0.34 in8.6 mm
09:15 AM 58.6°F14.8°C 58.4°F14.7°C 99% 2.4 mph WNW3.9 kmh WNW 4.5 mph7.2 kmh 29.51 in999.3 mb 0.00 in0.0 mm 0.00 in/hr0.0 mm/hr 0.34 in8.6 mm
09:14 AM 58.6°F14.8°C 58.4°F14.7°C 99% 2.5 mph NW4.0 kmh NW 4.5 mph7.2 kmh 29.51 in999.3 mb 0.00 in0.0 mm 0.00 in/hr0.0 mm/hr 0.34 in8.6 mm
09:13 AM 58.6°F14.8°C 58.4°F14.7°C 99% 2.5 mph NW4.0 kmh NW 4.5 mph7.2 kmh 29.51 in999.3 mb 0.00 in0.0 mm 0.00 in/hr0.0 mm/hr 0.34 in8.6 mm
09:12 AM 58.6°F14.8°C 58.4°F14.7°C 99% 2.4 mph NW3.9 kmh NW 3.1 mph5.0 kmh 29.51 in999.3 mb 0.00 in0.0 mm 0.00 in/hr0.0 mm/hr 0.34 in8.6 mm
09:11 AM 58.6°F14.8°C 58.4°F14.7°C 99% 2.4 mph NW3.9 kmh NW 3.1 mph5.0 kmh 29.51 in999.3 mb 0.00 in0.0 mm 0.00 in/hr0.0 mm/hr 0.34 in8.6 mm
09:10 AM 58.6°F14.8°C 58.4°F14.7°C 99% 2.5 mph NW4.0 kmh NW 3.1 mph5.0 kmh 29.51 in999.3 mb 0.00 in0.0 mm 0.00 in/hr0.0 mm/hr 0.34 in8.6 mm
09:09 AM 58.6°F14.8°C 58.4°F14.7°C 99% 2.5 mph NNW4.0 kmh NNW 3.1 mph5.0 kmh 29.51 in999.3 mb 0.00 in0.0 mm 0.00 in/hr0.0 mm/hr 0.34 in8.6 mm
09:08 AM 58.6°F14.8°C 58.4°F14.7°C 99% 2.6 mph N4.2 kmh N 3.1 mph5.0 kmh 29.51 in999.3 mb 0.00 in0.0 mm 0.00 in/hr0.0 mm/hr 0.34 in8.6 mm
09:07 AM 58.6°F14.8°C 58.4°F14.7°C 99% 2.8 mph N4.5 kmh N 4.5 mph7.2 kmh 29.52 in999.7 mb 0.00 in0.0 mm 0.00 in/hr0.0 mm/hr 0.34 in8.6 mm
09:06 AM 58.6°F14.8°C 58.4°F14.7°C 99% 3.1 mph N5.0 kmh N 4.5 mph7.2 kmh 29.52 in999.7 mb 0.00 in0.0 mm 0.00 in/hr0.0 mm/hr 0.34 in8.6 mm
09:05 AM 58.6°F14.8°C 58.4°F14.7°C 99% 3.3 mph NNE5.3 kmh NNE 4.5 mph7.2 kmh 29.51 in999.3 mb 0.00 in0.0 mm 0.00 in/hr0.0 mm/hr 0.34 in8.6 mm
09:04 AM 58.6°F14.8°C 58.4°F14.7°C 99% 3.2 mph NNE5.1 kmh NNE 4.5 mph7.2 kmh 29.52 in999.7 mb 0.00 in0.0 mm 0.00 in/hr0.0 mm/hr 0.34 in8.6 mm
09:03 AM 58.5°F14.7°C 58.2°F14.6°C 99% 3.2 mph NE5.1 kmh NE 4.5 mph7.2 kmh 29.51 in999.3 mb 0.00 in0.0 mm 0.00 in/hr0.0 mm/hr 0.34 in8.6 mm
09:02 AM 58.5°F14.7°C 58.2°F14.6°C 99% 3.2 mph NE5.1 kmh NE 4.5 mph7.2 kmh 29.51 in999.3 mb 0.00 in0.0 mm 0.00 in/hr0.0 mm/hr 0.34 in8.6 mm
09:01 AM 58.5°F14.7°C 58.2°F14.6°C 99% 3.1 mph NE5.0 kmh NE 4.5 mph7.2 kmh 29.51 in999.3 mb 0.00 in0.0 mm 0.00 in/hr0.0 mm/hr 0.34 in8.6 mm
09:00 AM 58.5°F14.7°C 58.2°F14.6°C 99% 3.1 mph NE5.0 kmh NE 4.5 mph7.2 kmh 29.51 in999.3 mb 0.00 in0.0 mm 0.00 in/hr0.0 mm/hr 0.34 in8.6 mm
08:59 AM 58.3°F14.6°C 58.0°F14.4°C 99% 3.3 mph NNE5.3 kmh NNE 5.4 mph8.7 kmh 29.51 in999.3 mb 0.00 in0.0 mm 0.00 in/hr0.0 mm/hr 0.34 in8.6 mm
08:58 AM 58.3°F14.6°C 58.0°F14.4°C 99% 3.4 mph NNE5.5 kmh NNE 5.4 mph8.7 kmh 29.51 in999.3 mb 0.00 in0.0 mm 0.00 in/hr0.0 mm/hr 0.34 in8.6 mm
08:57 AM 58.3°F14.6°C 58.0°F14.4°C 99% 3.4 mph N5.5 kmh N 5.4 mph8.7 kmh 29.51 in999.3 mb 0.00 in0.0 mm 0.00 in/hr0.0 mm/hr 0.34 in8.6 mm
08:56 AM 58.1°F14.5°C 57.8°F14.3°C 99% 3.1 mph N5.0 kmh N 5.4 mph8.7 kmh 29.51 in999.3 mb 0.00 in0.0 mm 0.00 in/hr0.0 mm/hr 0.34 in8.6 mm
08:55 AM 58.1°F14.5°C 57.8°F14.3°C 99% 2.9 mph N4.7 kmh N 5.4 mph8.7 kmh 29.51 in999.3 mb 0.00 in0.0 mm 0.00 in/hr0.0 mm/hr 0.34 in8.6 mm
08:54 AM 58.1°F14.5°C 57.8°F14.3°C 99% 3.0 mph N4.8 kmh N 5.4 mph8.7 kmh 29.51 in999.3 mb 0.00 in0.0 mm 0.00 in/hr0.0 mm/hr 0.34 in8.6 mm
08:53 AM 58.1°F14.5°C 57.8°F14.3°C 99% 3.1 mph N5.0 kmh N 5.4 mph8.7 kmh 29.51 in999.3 mb 0.00 in0.0 mm 0.00 in/hr0.0 mm/hr 0.34 in8.6 mm
08:52 AM 58.1°F14.5°C 57.8°F14.3°C 99% 3.2 mph N5.1 kmh N 5.4 mph8.7 kmh 29.51 in999.3 mb 0.00 in0.0 mm 0.00 in/hr0.0 mm/hr 0.34 in8.6 mm
08:51 AM 58.1°F14.5°C 57.8°F14.3°C 99% 3.3 mph N5.3 kmh N 5.4 mph8.7 kmh 29.51 in999.3 mb 0.00 in0.0 mm 0.00 in/hr0.0 mm/hr 0.34 in8.6 mm
08:50 AM 58.1°F14.5°C 57.8°F14.3°C 99% 3.4 mph NNE5.5 kmh NNE 5.4 mph8.7 kmh 29.51 in999.3 mb 0.00 in0.0 mm 0.00 in/hr0.0 mm/hr 0.34 in8.6 mm
08:49 AM 58.3°F14.6°C 58.0°F14.4°C 99% 3.3 mph NNE5.3 kmh NNE 5.4 mph8.7 kmh 29.51 in999.3 mb 0.00 in0.0 mm 0.00 in/hr0.0 mm/hr 0.34 in8.6 mm
08:48 AM 58.1°F14.5°C 57.8°F14.3°C 99% 3.1 mph NNE5.0 kmh NNE 4.5 mph7.2 kmh 29.51 in999.3 mb 0.00 in0.0 mm 0.00 in/hr0.0 mm/hr 0.34 in8.6 mm
08:47 AM 58.1°F14.5°C 57.8°F14.3°C 99% 3.0 mph NE4.8 kmh NE 4.5 mph7.2 kmh 29.51 in999.3 mb 0.00 in0.0 mm 0.00 in/hr0.0 mm/hr 0.34 in8.6 mm
08:46 AM 58.1°F14.5°C 57.8°F14.3°C 99% 3.1 mph NE5.0 kmh NE 4.5 mph7.2 kmh 29.51 in999.3 mb 0.00 in0.0 mm 0.00 in/hr0.0 mm/hr 0.34 in8.6 mm
08:45 AM 58.1°F14.5°C 57.8°F14.3°C 99% 3.2 mph NE5.1 kmh NE 4.5 mph7.2 kmh 29.51 in999.3 mb 0.00 in0.0 mm 0.00 in/hr0.0 mm/hr 0.34 in8.6 mm
08:44 AM 58.1°F14.5°C 57.8°F14.3°C 99% 3.1 mph NE5.0 kmh NE 4.5 mph7.2 kmh 29.51 in999.3 mb 0.00 in0.0 mm 0.00 in/hr0.0 mm/hr 0.34 in8.6 mm
08:43 AM 58.1°F14.5°C 57.8°F14.3°C 99% 3.0 mph NE4.8 kmh NE 4.5 mph7.2 kmh 29.51 in999.3 mb 0.00 in0.0 mm 0.00 in/hr0.0 mm/hr 0.34 in8.6 mm
08:42 AM 57.9°F14.4°C 57.7°F14.3°C 99% 3.0 mph NNE4.8 kmh NNE 4.5 mph7.2 kmh 29.51 in999.3 mb 0.00 in0.0 mm 0.00 in/hr0.0 mm/hr 0.34 in8.6 mm
08:41 AM 57.9°F14.4°C 57.7°F14.3°C 99% 2.9 mph NNE4.7 kmh NNE 4.5 mph7.2 kmh 29.51 in999.3 mb 0.00 in0.0 mm 0.00 in/hr0.0 mm/hr 0.34 in8.6 mm
08:40 AM 57.9°F14.4°C 57.7°F14.3°C 99% 2.8 mph NE4.5 kmh NE 3.8 mph6.1 kmh 29.51 in999.3 mb 0.00 in0.0 mm 0.00 in/hr0.0 mm/hr 0.34 in8.6 mm
08:39 AM 57.9°F14.4°C 57.7°F14.3°C 99% 2.8 mph NE4.5 kmh NE 3.8 mph6.1 kmh 29.51 in999.3 mb 0.00 in0.0 mm 0.00 in/hr0.0 mm/hr 0.34 in8.6 mm
08:38 AM 57.9°F14.4°C 57.7°F14.3°C 99% 3.0 mph NE4.8 kmh NE 6.0 mph9.7 kmh 29.51 in999.3 mb 0.00 in0.0 mm 0.00 in/hr0.0 mm/hr 0.34 in8.6 mm
08:37 AM 57.9°F14.4°C 57.7°F14.3°C 99% 3.1 mph NE5.0 kmh NE 6.0 mph9.7 kmh 29.52 in999.7 mb 0.00 in0.0 mm 0.00 in/hr0.0 mm/hr 0.34 in8.6 mm
08:36 AM 57.9°F14.4°C 57.7°F14.3°C 99% 3.1 mph NE5.0 kmh NE 6.0 mph9.7 kmh 29.51 in999.3 mb 0.00 in0.0 mm 0.00 in/hr0.0 mm/hr 0.34 in8.6 mm
08:35 AM 57.9°F14.4°C 57.7°F14.3°C 99% 3.1 mph NE5.0 kmh NE 6.0 mph9.7 kmh 29.51 in999.3 mb 0.00 in0.0 mm 0.00 in/hr0.0 mm/hr 0.34 in8.6 mm
08:34 AM 57.7°F14.3°C 57.5°F14.2°C 99% 3.1 mph NE5.0 kmh NE 6.0 mph9.7 kmh 29.51 in999.3 mb 0.00 in0.0 mm 0.00 in/hr0.0 mm/hr 0.34 in8.6 mm
08:33 AM 57.7°F14.3°C 57.5°F14.2°C 99% 3.2 mph NE5.1 kmh NE 6.0 mph9.7 kmh 29.51 in999.3 mb 0.00 in0.0 mm 0.00 in/hr0.0 mm/hr 0.34 in8.6 mm
08:32 AM 57.7°F14.3°C 57.5°F14.2°C 99% 3.2 mph NE5.1 kmh NE 6.0 mph9.7 kmh 29.51 in999.3 mb 0.00 in0.0 mm 0.00 in/hr0.0 mm/hr 0.34 in8.6 mm
08:31 AM 57.7°F14.3°C 57.5°F14.2°C 99% 3.2 mph NE5.1 kmh NE 6.0 mph9.7 kmh 29.51 in999.3 mb 0.00 in0.0 mm 0.00 in/hr0.0 mm/hr 0.34 in8.6 mm
08:30 AM 57.6°F14.2°C 57.3°F14.1°C 99% 3.3 mph NE5.3 kmh NE 6.0 mph9.7 kmh 29.51 in999.3 mb 0.00 in0.0 mm 0.00 in/hr0.0 mm/hr 0.34 in8.6 mm
08:29 AM 57.6°F14.2°C 57.3°F14.1°C 99% 3.2 mph NE5.1 kmh NE 6.0 mph9.7 kmh 29.52 in999.7 mb 0.00 in0.0 mm 0.00 in/hr0.0 mm/hr 0.34 in8.6 mm
08:28 AM 57.4°F14.1°C 57.1°F13.9°C 99% 3.0 mph NE4.8 kmh NE 6.0 mph9.7 kmh 29.52 in999.7 mb 0.00 in0.0 mm 0.00 in/hr0.0 mm/hr 0.34 in8.6 mm
08:27 AM 57.4°F14.1°C 57.1°F13.9°C 99% 2.9 mph NE4.7 kmh NE 3.8 mph6.1 kmh 29.52 in999.7 mb 0.00 in0.0 mm 0.00 in/hr0.0 mm/hr 0.34 in8.6 mm
08:26 AM 57.4°F14.1°C 57.1°F13.9°C 99% 2.9 mph NE4.7 kmh NE 3.8 mph6.1 kmh 29.52 in999.7 mb 0.00 in0.0 mm 0.00 in/hr0.0 mm/hr 0.34 in8.6 mm
08:25 AM 57.4°F14.1°C 57.1°F13.9°C 99% 2.7 mph NE4.3 kmh NE 3.8 mph6.1 kmh 29.52 in999.7 mb 0.00 in0.0 mm 0.00 in/hr0.0 mm/hr 0.34 in8.6 mm
08:24 AM 57.2°F14.0°C 56.9°F13.8°C 99% 2.7 mph NE4.3 kmh NE 3.8 mph6.1 kmh 29.52 in999.7 mb 0.00 in0.0 mm 0.00 in/hr0.0 mm/hr 0.34 in8.6 mm
08:23 AM 57.2°F14.0°C 56.9°F13.8°C 99% 2.7 mph NE4.3 kmh NE 4.5 mph7.2 kmh 29.52 in999.7 mb 0.00 in0.0 mm 0.00 in/hr0.0 mm/hr 0.34 in8.6 mm
08:22 AM 57.4°F14.1°C 57.1°F13.9°C 99% 2.8 mph NE4.5 kmh NE 4.5 mph7.2 kmh 29.52 in999.7 mb 0.00 in0.0 mm 0.00 in/hr0.0 mm/hr 0.34 in8.6 mm
08:21 AM 57.2°F14.0°C 56.9°F13.8°C 99% 2.9 mph NE4.7 kmh NE 4.5 mph7.2 kmh 29.52 in999.7 mb 0.00 in0.0 mm 0.00 in/hr0.0 mm/hr 0.34 in8.6 mm
08:20 AM 57.2°F14.0°C 56.9°F13.8°C 99% 2.9 mph NE4.7 kmh NE 4.5 mph7.2 kmh 29.52 in999.7 mb 0.00 in0.0 mm 0.00 in/hr0.0 mm/hr 0.34 in8.6 mm
08:19 AM 57.2°F14.0°C 56.9°F13.8°C 99% 2.9 mph NE4.7 kmh NE 4.5 mph7.2 kmh 29.52 in999.7 mb 0.00 in0.0 mm 0.00 in/hr0.0 mm/hr 0.34 in8.6 mm
08:18 AM 57.2°F14.0°C 56.9°F13.8°C 99% 2.8 mph NE4.5 kmh NE 4.5 mph7.2 kmh 29.51 in999.3 mb 0.00 in0.0 mm 0.00 in/hr0.0 mm/hr 0.34 in8.6 mm
08:17 AM 57.2°F14.0°C 56.9°F13.8°C 99% 2.7 mph NE4.3 kmh NE 4.5 mph7.2 kmh 29.51 in999.3 mb 0.00 in0.0 mm 0.00 in/hr0.0 mm/hr 0.34 in8.6 mm
08:16 AM 57.2°F14.0°C 56.9°F13.8°C 99% 2.5 mph NE4.0 kmh NE 4.5 mph7.2 kmh 29.52 in999.7 mb 0.00 in0.0 mm 0.00 in/hr0.0 mm/hr 0.34 in8.6 mm
08:15 AM 57.0°F13.9°C 56.8°F13.8°C 99% 2.5 mph NE4.0 kmh NE 4.5 mph7.2 kmh 29.51 in999.3 mb 0.00 in0.0 mm 0.00 in/hr0.0 mm/hr 0.34 in8.6 mm
08:14 AM 57.0°F13.9°C 56.8°F13.8°C 99% 2.4 mph NE3.9 kmh NE 4.5 mph7.2 kmh 29.52 in999.7 mb 0.00 in0.0 mm 0.00 in/hr0.0 mm/hr 0.34 in8.6 mm
08:13 AM 57.0°F13.9°C 56.8°F13.8°C 99% 2.3 mph NE3.7 kmh NE 4.5 mph7.2 kmh 29.52 in999.7 mb 0.00 in0.0 mm 0.00 in/hr0.0 mm/hr 0.34 in8.6 mm
08:12 AM 57.0°F13.9°C 56.8°F13.8°C 99% 2.1 mph NE3.4 kmh NE 4.5 mph7.2 kmh 29.52 in999.7 mb 0.00 in0.0 mm 0.00 in/hr0.0 mm/hr 0.34 in8.6 mm
08:11 AM 56.8°F13.8°C 56.6°F13.7°C 99% 1.9 mph NE3.1 kmh NE 3.1 mph5.0 kmh 29.51 in999.3 mb 0.00 in0.0 mm 0.00 in/hr0.0 mm/hr 0.34 in8.6 mm
08:10 AM 56.8°F13.8°C 56.6°F13.7°C 99% 1.9 mph NE3.1 kmh NE 3.1 mph5.0 kmh 29.51 in999.3 mb 0.00 in0.0 mm 0.00 in/hr0.0 mm/hr 0.34 in8.6 mm
08:09 AM 56.7°F13.7°C 56.4°F13.6°C 99% 1.9 mph NE3.1 kmh NE 3.1 mph5.0 kmh 29.51 in999.3 mb 0.00 in0.0 mm 0.00 in/hr0.0 mm/hr 0.34 in8.6 mm
08:08 AM 56.7°F13.7°C 56.4°F13.6°C 99% 2.0 mph NE3.2 kmh NE 3.1 mph5.0 kmh 29.51 in999.3 mb 0.00 in0.0 mm 0.00 in/hr0.0 mm/hr 0.34 in8.6 mm
08:07 AM 56.7°F13.7°C 56.4°F13.6°C 99% 2.0 mph NE3.2 kmh NE 3.1 mph5.0 kmh 29.51 in999.3 mb 0.00 in0.0 mm 0.00 in/hr0.0 mm/hr 0.34 in8.6 mm
08:06 AM 56.5°F13.6°C 56.2°F13.4°C 99% 2.1 mph NE3.4 kmh NE 3.1 mph5.0 kmh 29.51 in999.3 mb 0.00 in0.0 mm 0.00 in/hr0.0 mm/hr 0.34 in8.6 mm
08:05 AM 56.5°F13.6°C 56.2°F13.4°C 99% 2.2 mph NE3.5 kmh NE 3.1 mph5.0 kmh 29.52 in999.7 mb 0.00 in0.0 mm 0.00 in/hr0.0 mm/hr 0.34 in8.6 mm
08:04 AM 56.3°F13.5°C 56.0°F13.3°C 99% 2.3 mph NE3.7 kmh NE 3.1 mph5.0 kmh 29.51 in999.3 mb 0.00 in0.0 mm 0.00 in/hr0.0 mm/hr 0.34 in8.6 mm
08:03 AM 56.3°F13.5°C 56.0°F13.3°C 99% 2.3 mph NE3.7 kmh NE 3.1 mph5.0 kmh 29.51 in999.3 mb 0.00 in0.0 mm 0.00 in/hr0.0 mm/hr 0.34 in8.6 mm
08:02 AM 56.1°F13.4°C 55.9°F13.3°C 99% 2.2 mph NNE3.5 kmh NNE 3.1 mph5.0 kmh 29.52 in999.7 mb 0.00 in0.0 mm 0.00 in/hr0.0 mm/hr 0.34 in8.6 mm
08:01 AM 56.1°F13.4°C 55.9°F13.3°C 99% 2.1 mph NNE3.4 kmh NNE 3.1 mph5.0 kmh 29.52 in999.7 mb 0.00 in0.0 mm 0.00 in/hr0.0 mm/hr 0.34 in8.6 mm
08:00 AM 55.9°F13.3°C 55.7°F13.2°C 99% 1.9 mph NNE3.1 kmh NNE 3.1 mph5.0 kmh 29.52 in999.7 mb 0.00 in0.0 mm 0.00 in/hr0.0 mm/hr 0.34 in8.6 mm
07:59 AM 55.9°F13.3°C 55.7°F13.2°C 99% 1.8 mph NNE2.9 kmh NNE 3.1 mph5.0 kmh 29.52 in999.7 mb 0.00 in0.0 mm 0.00 in/hr0.0 mm/hr 0.34 in8.6 mm
07:58 AM 55.8°F13.2°C 55.5°F13.1°C 99% 1.6 mph N2.6 kmh N 2.2 mph3.5 kmh 29.52 in999.7 mb 0.00 in0.0 mm 0.00 in/hr0.0 mm/hr 0.34 in8.6 mm
07:57 AM 55.8°F13.2°C 55.5°F13.1°C 99% 1.6 mph N2.6 kmh N 2.2 mph3.5 kmh 29.52 in999.7 mb 0.00 in0.0 mm 0.00 in/hr0.0 mm/hr 0.34 in8.6 mm
07:56 AM 55.8°F13.2°C 55.5°F13.1°C 99% 1.5 mph N2.4 kmh N 2.2 mph3.5 kmh 29.52 in999.7 mb 0.00 in0.0 mm 0.00 in/hr0.0 mm/hr 0.34 in8.6 mm
07:55 AM 55.6°F13.1°C 55.3°F12.9°C 99% 1.4 mph N2.3 kmh N 2.2 mph3.5 kmh 29.52 in999.7 mb 0.00 in0.0 mm 0.00 in/hr0.0 mm/hr 0.34 in8.6 mm
07:54 AM 55.6°F13.1°C 55.3°F12.9°C 99% 1.3 mph N2.1 kmh N 2.2 mph3.5 kmh 29.52 in999.7 mb 0.00 in0.0 mm 0.00 in/hr0.0 mm/hr 0.34 in8.6 mm
07:53 AM 55.4°F13.0°C 55.1°F12.8°C 99% 1.2 mph N1.9 kmh N 2.2 mph3.5 kmh 29.52 in999.7 mb 0.00 in0.0 mm 0.00 in/hr0.0 mm/hr 0.34 in8.6 mm
07:52 AM 55.4°F13.0°C 55.1°F12.8°C 99% 1.2 mph N1.9 kmh N 1.6 mph2.6 kmh 29.52 in999.7 mb 0.00 in0.0 mm 0.00 in/hr0.0 mm/hr 0.34 in8.6 mm
07:51 AM 55.4°F13.0°C 55.1°F12.8°C 99% 1.2 mph N1.9 kmh N 2.2 mph3.5 kmh 29.52 in999.7 mb 0.00 in0.0 mm 0.00 in/hr0.0 mm/hr 0.34 in8.6 mm
07:50 AM 55.2°F12.9°C 55.0°F12.8°C 99% 1.2 mph N1.9 kmh N 2.2 mph3.5 kmh 29.52 in999.7 mb 0.00 in0.0 mm 0.00 in/hr0.0 mm/hr 0.34 in8.6 mm
07:49 AM 55.2°F12.9°C 55.0°F12.8°C 99% 1.2 mph N1.9 kmh N 2.2 mph3.5 kmh 29.52 in999.7 mb 0.00 in0.0 mm 0.00 in/hr0.0 mm/hr 0.34 in8.6 mm
07:48 AM 55.2°F12.9°C 55.0°F12.8°C 99% 1.1 mph N1.8 kmh N 2.2 mph3.5 kmh 29.52 in999.7 mb 0.00 in0.0 mm 0.00 in/hr0.0 mm/hr 0.34 in8.6 mm
07:47 AM 55.0°F12.8°C 54.8°F12.7°C 99% 1.0 mph NNW1.6 kmh NNW 2.2 mph3.5 kmh 29.52 in999.7 mb 0.00 in0.0 mm 0.00 in/hr0.0 mm/hr 0.34 in8.6 mm
07:46 AM 55.0°F12.8°C 54.8°F12.7°C 99% 1.1 mph NNW1.8 kmh NNW 2.2 mph3.5 kmh 29.52 in999.7 mb 0.00 in0.0 mm 0.00 in/hr0.0 mm/hr 0.34 in8.6 mm
07:45 AM 55.0°F12.8°C 54.8°F12.7°C 99% 1.2 mph NNW1.9 kmh NNW 2.2 mph3.5 kmh 29.52 in999.7 mb 0.00 in0.0 mm 0.00 in/hr0.0 mm/hr 0.34 in8.6 mm
07:44 AM 55.0°F12.8°C 54.8°F12.7°C 99% 1.4 mph NNW2.3 kmh NNW 2.2 mph3.5 kmh 29.52 in999.7 mb 0.00 in0.0 mm 0.00 in/hr0.0 mm/hr 0.34 in8.6 mm
07:43 AM 54.9°F12.7°C 54.6°F12.6°C 99% 1.4 mph NNW2.3 kmh NNW 2.2 mph3.5 kmh 29.52 in999.7 mb 0.00 in0.0 mm 0.00 in/hr0.0 mm/hr 0.34 in8.6 mm
07:42 AM 54.9°F12.7°C 54.6°F12.6°C 99% 1.5 mph NNW2.4 kmh NNW 3.1 mph5.0 kmh 29.52 in999.7 mb 0.00 in0.0 mm 0.00 in/hr0.0 mm/hr 0.34 in8.6 mm
07:41 AM 54.9°F12.7°C 54.6°F12.6°C 99% 1.5 mph NW2.4 kmh NW 3.1 mph5.0 kmh 29.52 in999.7 mb 0.00 in0.0 mm 0.00 in/hr0.0 mm/hr 0.34 in8.6 mm
07:40 AM 54.7°F12.6°C 54.4°F12.4°C 99% 1.4 mph NNW2.3 kmh NNW 3.1 mph5.0 kmh 29.52 in999.7 mb 0.00 in0.0 mm 0.00 in/hr0.0 mm/hr 0.34 in8.6 mm
07:39 AM 54.7°F12.6°C 54.4°F12.4°C 99% 1.6 mph NNW2.6 kmh NNW 3.1 mph5.0 kmh 29.52 in999.7 mb 0.00 in0.0 mm 0.00 in/hr0.0 mm/hr 0.34 in8.6 mm
07:38 AM 54.7°F12.6°C 54.4°F12.4°C 99% 1.7 mph NW2.7 kmh NW 3.1 mph5.0 kmh 29.52 in999.7 mb 0.00 in0.0 mm 0.00 in/hr0.0 mm/hr 0.34 in8.6 mm
07:37 AM 54.7°F12.6°C 54.4°F12.4°C 99% 1.7 mph NW2.7 kmh NW 3.1 mph5.0 kmh 29.52 in999.7 mb 0.00 in0.0 mm 0.00 in/hr0.0 mm/hr 0.34 in8.6 mm
07:36 AM 54.7°F12.6°C 54.4°F12.4°C 99% 1.7 mph NW2.7 kmh NW 3.1 mph5.0 kmh 29.52 in999.7 mb 0.01 in0.3 mm 0.00 in/hr0.0 mm/hr 0.34 in8.6 mm
07:35 AM 54.7°F12.6°C 54.4°F12.4°C 99% 1.7 mph NW2.7 kmh NW 3.1 mph5.0 kmh 29.52 in999.7 mb 0.01 in0.3 mm 0.00 in/hr0.0 mm/hr 0.34 in8.6 mm
07:34 AM 54.7°F12.6°C 54.4°F12.4°C 99% 1.6 mph NW2.6 kmh NW 3.1 mph5.0 kmh 29.52 in999.7 mb 0.01 in0.3 mm 0.00 in/hr0.0 mm/hr 0.34 in8.6 mm
07:33 AM 54.7°F12.6°C 54.4°F12.4°C 99% 1.6 mph NW2.6 kmh NW 3.1 mph5.0 kmh 29.52 in999.7 mb 0.01 in0.3 mm 0.00 in/hr0.0 mm/hr 0.34 in8.6 mm
07:32 AM 54.7°F12.6°C 54.4°F12.4°C 99% 1.6 mph NW2.6 kmh NW 3.1 mph5.0 kmh 29.52 in999.7 mb 0.01 in0.3 mm 0.00 in/hr0.0 mm/hr 0.34 in8.6 mm
07:31 AM 54.5°F12.5°C 54.2°F12.3°C 99% 1.5 mph NW2.4 kmh NW 2.2 mph3.5 kmh 29.52 in999.7 mb 0.01 in0.3 mm 0.00 in/hr0.0 mm/hr 0.34 in8.6 mm
07:30 AM 54.5°F12.5°C 54.2°F12.3°C 99% 1.6 mph NW2.6 kmh NW 2.2 mph3.5 kmh 29.52 in999.7 mb 0.01 in0.3 mm 0.00 in/hr0.0 mm/hr 0.34 in8.6 mm
07:29 AM 54.5°F12.5°C 54.2°F12.3°C 99% 1.5 mph NW2.4 kmh NW 1.6 mph2.6 kmh 29.52 in999.7 mb 0.01 in0.3 mm 0.00 in/hr0.0 mm/hr 0.34 in8.6 mm
07:28 AM 54.3°F12.4°C 54.1°F12.3°C 99% 1.4 mph NW2.3 kmh NW 1.6 mph2.6 kmh 29.52 in999.7 mb 0.01 in0.3 mm 0.00 in/hr0.0 mm/hr 0.34 in8.6 mm
07:27 AM 54.3°F12.4°C 54.1°F12.3°C 99% 1.4 mph NW2.3 kmh NW 1.6 mph2.6 kmh 29.52 in999.7 mb 0.01 in0.3 mm 0.00 in/hr0.0 mm/hr 0.34 in8.6 mm
07:26 AM 54.3°F12.4°C 54.1°F12.3°C 99% 1.4 mph NW2.3 kmh NW 1.6 mph2.6 kmh 29.52 in999.7 mb 0.01 in0.3 mm 0.00 in/hr0.0 mm/hr 0.34 in8.6 mm
07:25 AM 54.3°F12.4°C 54.1°F12.3°C 99% 1.4 mph NW2.3 kmh NW 1.6 mph2.6 kmh 29.52 in999.7 mb 0.01 in0.3 mm 0.00 in/hr0.0 mm/hr 0.34 in8.6 mm
07:24 AM 54.3°F12.4°C 54.1°F12.3°C 99% 1.4 mph NW2.3 kmh NW 1.6 mph2.6 kmh 29.52 in999.7 mb 0.01 in0.3 mm 0.00 in/hr0.0 mm/hr 0.34 in8.6 mm
07:23 AM 54.1°F12.3°C 53.9°F12.2°C 99% 1.4 mph NW2.3 kmh NW 2.2 mph3.5 kmh 29.52 in999.7 mb 0.01 in0.3 mm 0.00 in/hr0.0 mm/hr 0.34 in8.6 mm
07:22 AM 54.1°F12.3°C 53.9°F12.2°C 99% 1.5 mph NNW2.4 kmh NNW 2.2 mph3.5 kmh 29.52 in999.7 mb 0.01 in0.3 mm 0.00 in/hr0.0 mm/hr 0.34 in8.6 mm
07:21 AM 54.1°F12.3°C 53.9°F12.2°C 99% 1.5 mph NNW2.4 kmh NNW 2.2 mph3.5 kmh 29.52 in999.7 mb 0.01 in0.3 mm 0.00 in/hr0.0 mm/hr 0.34 in8.6 mm
07:20 AM 54.1°F12.3°C 53.9°F12.2°C 99% 1.5 mph NNW2.4 kmh NNW 2.2 mph3.5 kmh 29.52 in999.7 mb 0.01 in0.3 mm 0.00 in/hr0.0 mm/hr 0.34 in8.6 mm
07:19 AM 54.1°F12.3°C 53.9°F12.2°C 99% 1.5 mph NNW2.4 kmh NNW 2.2 mph3.5 kmh 29.52 in999.7 mb 0.01 in0.3 mm 0.00 in/hr0.0 mm/hr 0.34 in8.6 mm
07:18 AM 54.0°F12.2°C 53.7°F12.1°C 99% 1.6 mph NNW2.6 kmh NNW 2.2 mph3.5 kmh 29.52 in999.7 mb 0.01 in0.3 mm 0.00 in/hr0.0 mm/hr 0.34 in8.6 mm
07:17 AM 54.0°F12.2°C 53.7°F12.1°C 99% 1.7 mph NNW2.7 kmh NNW 2.2 mph3.5 kmh 29.52 in999.7 mb 0.01 in0.3 mm 0.00 in/hr0.0 mm/hr 0.34 in8.6 mm
07:16 AM 54.0°F12.2°C 53.7°F12.1°C 99% 1.6 mph NNW2.6 kmh NNW 2.2 mph3.5 kmh 29.52 in999.7 mb 0.01 in0.3 mm 0.00 in/hr0.0 mm/hr 0.34 in8.6 mm
07:15 AM 53.8°F12.1°C 53.5°F11.9°C 99% 1.7 mph NNW2.7 kmh NNW 2.2 mph3.5 kmh 29.52 in999.7 mb 0.01 in0.3 mm 0.00 in/hr0.0 mm/hr 0.34 in8.6 mm
07:14 AM 53.8°F12.1°C 53.5°F11.9°C 99% 1.6 mph NNW2.6 kmh NNW 2.2 mph3.5 kmh 29.52 in999.7 mb 0.01 in0.3 mm 0.00 in/hr0.0 mm/hr 0.34 in8.6 mm
07:13 AM 53.8°F12.1°C 53.5°F11.9°C 99% 1.5 mph NNW2.4 kmh NNW 2.2 mph3.5 kmh 29.52 in999.7 mb 0.01 in0.3 mm 0.00 in/hr0.0 mm/hr 0.34 in8.6 mm
07:12 AM 53.8°F12.1°C 53.5°F11.9°C 99% 1.4 mph NNW2.3 kmh NNW 2.2 mph3.5 kmh 29.52 in999.7 mb 0.01 in0.3 mm 0.00 in/hr0.0 mm/hr 0.34 in8.6 mm
07:11 AM 53.8°F12.1°C 53.5°F11.9°C 99% 1.4 mph NNW2.3 kmh NNW 2.2 mph3.5 kmh 29.52 in999.7 mb 0.01 in0.3 mm 0.00 in/hr0.0 mm/hr 0.34 in8.6 mm
07:10 AM 53.8°F12.1°C 53.5°F11.9°C 99% 1.3 mph NNW2.1 kmh NNW 2.2 mph3.5 kmh 29.52 in999.7 mb 0.01 in0.3 mm 0.00 in/hr0.0 mm/hr 0.34 in8.6 mm
07:09 AM 53.8°F12.1°C 53.5°F11.9°C 99% 1.2 mph NW1.9 kmh NW 2.2 mph3.5 kmh 29.52 in999.7 mb 0.01 in0.3 mm 0.00 in/hr0.0 mm/hr 0.34 in8.6 mm
07:08 AM 53.8°F12.1°C 53.5°F11.9°C 99% 1.2 mph NW1.9 kmh NW 2.2 mph3.5 kmh 29.52 in999.7 mb 0.01 in0.3 mm 0.00 in/hr0.0 mm/hr 0.34 in8.6 mm
07:07 AM 53.6°F12.0°C 53.3°F11.8°C 99% 1.2 mph NW1.9 kmh NW 2.2 mph3.5 kmh 29.52 in999.7 mb 0.01 in0.3 mm 0.00 in/hr0.0 mm/hr 0.34 in8.6 mm
07:06 AM 53.6°F12.0°C 53.3°F11.8°C 99% 1.3 mph NW2.1 kmh NW 2.2 mph3.5 kmh 29.52 in999.7 mb 0.01 in0.3 mm 0.00 in/hr0.0 mm/hr 0.34 in8.6 mm
07:05 AM 53.6°F12.0°C 53.3°F11.8°C 99% 1.3 mph NNW2.1 kmh NNW 2.2 mph3.5 kmh 29.52 in999.7 mb 0.01 in0.3 mm 0.00 in/hr0.0 mm/hr 0.34 in8.6 mm
07:04 AM 53.6°F12.0°C 53.3°F11.8°C 99% 1.3 mph NNW2.1 kmh NNW 2.2 mph3.5 kmh 29.52 in999.7 mb 0.01 in0.3 mm 0.00 in/hr0.0 mm/hr 0.34 in8.6 mm
07:03 AM 53.6°F12.0°C 53.3°F11.8°C 99% 1.4 mph NNW2.3 kmh NNW 2.2 mph3.5 kmh 29.52 in999.7 mb 0.01 in0.3 mm 0.00 in/hr0.0 mm/hr 0.34 in8.6 mm
07:02 AM 53.6°F12.0°C 53.3°F11.8°C 99% 1.4 mph NNW2.3 kmh NNW 2.2 mph3.5 kmh 29.52 in999.7 mb 0.01 in0.3 mm 0.00 in/hr0.0 mm/hr 0.34 in8.6 mm
07:01 AM 53.6°F12.0°C 53.3°F11.8°C 99% 1.4 mph N2.3 kmh N 2.2 mph3.5 kmh 29.52 in999.7 mb 0.01 in0.3 mm 0.00 in/hr0.0 mm/hr 0.34 in8.6 mm
07:00 AM 53.6°F12.0°C 53.3°F11.8°C 99% 1.4 mph N2.3 kmh N 2.2 mph3.5 kmh 29.52 in999.7 mb 0.01 in0.3 mm 0.00 in/hr0.0 mm/hr 0.34 in8.6 mm
06:59 AM 53.6°F12.0°C 53.3°F11.8°C 99% 1.5 mph N2.4 kmh N 2.2 mph3.5 kmh 29.52 in999.7 mb 0.01 in0.3 mm 0.00 in/hr0.0 mm/hr 0.34 in8.6 mm
06:58 AM 53.6°F12.0°C 53.3°F11.8°C 99% 1.5 mph N2.4 kmh N 2.2 mph3.5 kmh 29.52 in999.7 mb 0.01 in0.3 mm 0.00 in/hr0.0 mm/hr 0.34 in8.6 mm
06:57 AM 53.6°F12.0°C 53.3°F11.8°C 99% 1.4 mph N2.3 kmh N 2.2 mph3.5 kmh 29.52 in999.7 mb 0.01 in0.3 mm 0.00 in/hr0.0 mm/hr 0.34 in8.6 mm
06:56 AM 53.6°F12.0°C 53.3°F11.8°C 99% 1.2 mph N1.9 kmh N 2.2 mph3.5 kmh 29.52 in999.7 mb 0.01 in0.3 mm 0.00 in/hr0.0 mm/hr 0.34 in8.6 mm
06:55 AM 53.6°F12.0°C 53.3°F11.8°C 99% 1.1 mph N1.8 kmh N 1.6 mph2.6 kmh 29.52 in999.7 mb 0.01 in0.3 mm 0.00 in/hr0.0 mm/hr 0.34 in8.6 mm
06:54 AM 53.6°F12.0°C 53.3°F11.8°C 99% 1.0 mph N1.6 kmh N 1.6 mph2.6 kmh 29.52 in999.7 mb 0.01 in0.3 mm 0.00 in/hr0.0 mm/hr 0.34 in8.6 mm
06:53 AM 53.6°F12.0°C 53.3°F11.8°C 99% 1.0 mph N1.6 kmh N 1.6 mph2.6 kmh 29.52 in999.7 mb 0.01 in0.3 mm 0.00 in/hr0.0 mm/hr 0.34 in8.6 mm
06:52 AM 53.4°F11.9°C 53.2°F11.8°C 99% 1.1 mph N1.8 kmh N 1.6 mph2.6 kmh 29.52 in999.7 mb 0.01 in0.3 mm 0.00 in/hr0.0 mm/hr 0.34 in8.6 mm
06:51 AM 53.4°F11.9°C 53.2°F11.8°C 99% 1.1 mph N1.8 kmh N 1.6 mph2.6 kmh 29.52 in999.7 mb 0.01 in0.3 mm 0.00 in/hr0.0 mm/hr 0.34 in8.6 mm
06:50 AM 53.6°F12.0°C 53.3°F11.8°C 99% 1.1 mph N1.8 kmh N 1.6 mph2.6 kmh 29.52 in999.7 mb 0.01 in0.3 mm 0.00 in/hr0.0 mm/hr 0.34 in8.6 mm
06:49 AM 53.4°F11.9°C 53.2°F11.8°C 99% 1.0 mph N1.6 kmh N 1.6 mph2.6 kmh 29.52 in999.7 mb 0.01 in0.3 mm 0.00 in/hr0.0 mm/hr 0.34 in8.6 mm
06:48 AM 53.4°F11.9°C 53.2°F11.8°C 99% 0.9 mph N1.4 kmh N 1.6 mph2.6 kmh 29.52 in999.7 mb 0.01 in0.3 mm 0.00 in/hr0.0 mm/hr 0.34 in8.6 mm
06:47 AM 53.4°F11.9°C 53.2°F11.8°C 99% 0.9 mph N1.4 kmh N 1.6 mph2.6 kmh 29.52 in999.7 mb 0.01 in0.3 mm 0.00 in/hr0.0 mm/hr 0.34 in8.6 mm
06:46 AM 53.4°F11.9°C 53.2°F11.8°C 99% 1.1 mph N1.8 kmh N 2.2 mph3.5 kmh 29.52 in999.7 mb 0.01 in0.3 mm 0.00 in/hr0.0 mm/hr 0.34 in8.6 mm
06:45 AM 53.4°F11.9°C 53.2°F11.8°C 99% 1.2 mph N1.9 kmh N 2.2 mph3.5 kmh 29.52 in999.7 mb 0.01 in0.3 mm 0.00 in/hr0.0 mm/hr 0.34 in8.6 mm
06:44 AM 53.4°F11.9°C 53.2°F11.8°C 99% 1.2 mph N1.9 kmh N 2.2 mph3.5 kmh 29.52 in999.7 mb 0.01 in0.3 mm 0.00 in/hr0.0 mm/hr 0.34 in8.6 mm
06:43 AM 53.4°F11.9°C 53.2°F11.8°C 99% 1.2 mph N1.9 kmh N 2.2 mph3.5 kmh 29.52 in999.7 mb 0.01 in0.3 mm 0.00 in/hr0.0 mm/hr 0.34 in8.6 mm
06:42 AM 53.4°F11.9°C 53.2°F11.8°C 99% 1.2 mph N1.9 kmh N 2.2 mph3.5 kmh 29.52 in999.7 mb 0.01 in0.3 mm 0.00 in/hr0.0 mm/hr 0.34 in8.6 mm
06:41 AM 53.4°F11.9°C 53.2°F11.8°C 99% 1.2 mph N1.9 kmh N 2.2 mph3.5 kmh 29.52 in999.7 mb 0.01 in0.3 mm 0.00 in/hr0.0 mm/hr 0.34 in8.6 mm
06:40 AM 53.4°F11.9°C 53.2°F11.8°C 99% 1.3 mph N2.1 kmh N 2.2 mph3.5 kmh 29.52 in999.7 mb 0.01 in0.3 mm 0.00 in/hr0.0 mm/hr 0.34 in8.6 mm
06:39 AM 53.4°F11.9°C 53.2°F11.8°C 99% 1.3 mph N2.1 kmh N 2.2 mph3.5 kmh 29.52 in999.7 mb 0.02 in0.5 mm 0.00 in/hr0.0 mm/hr 0.34 in8.6 mm
06:38 AM 53.4°F11.9°C 53.2°F11.8°C 99% 1.3 mph N2.1 kmh N 2.2 mph3.5 kmh 29.52 in999.7 mb 0.02 in0.5 mm 0.00 in/hr0.0 mm/hr 0.34 in8.6 mm
06:37 AM 53.4°F11.9°C 53.2°F11.8°C 99% 1.4 mph N2.3 kmh N 2.2 mph3.5 kmh 29.52 in999.7 mb 0.02 in0.5 mm 0.60 in/hr15.2 mm/hr 0.34 in8.6 mm
06:36 AM 53.4°F11.9°C 53.2°F11.8°C 99% 1.4 mph N2.3 kmh N 2.2 mph3.5 kmh 29.52 in999.7 mb 0.01 in0.3 mm 0.00 in/hr0.0 mm/hr 0.33 in8.4 mm
06:35 AM 53.2°F11.8°C 53.0°F11.7°C 99% 1.5 mph N2.4 kmh N 2.2 mph3.5 kmh 29.52 in999.7 mb 0.01 in0.3 mm 0.00 in/hr0.0 mm/hr 0.33 in8.4 mm
06:34 AM 53.2°F11.8°C 53.0°F11.7°C 99% 1.5 mph N2.4 kmh N 2.2 mph3.5 kmh 29.52 in999.7 mb 0.01 in0.3 mm 0.00 in/hr0.0 mm/hr 0.33 in8.4 mm
06:33 AM 53.2°F11.8°C 53.0°F11.7°C 99% 1.5 mph N2.4 kmh N 2.2 mph3.5 kmh 29.52 in999.7 mb 0.01 in0.3 mm 0.00 in/hr0.0 mm/hr 0.33 in8.4 mm
06:32 AM 53.2°F11.8°C 53.0°F11.7°C 99% 1.5 mph N2.4 kmh N 2.2 mph3.5 kmh 29.52 in999.7 mb 0.01 in0.3 mm 0.00 in/hr0.0 mm/hr 0.33 in8.4 mm
06:31 AM 53.2°F11.8°C 53.0°F11.7°C 99% 1.5 mph N2.4 kmh N 2.2 mph3.5 kmh 29.52 in999.7 mb 0.01 in0.3 mm 0.00 in/hr0.0 mm/hr 0.33 in8.4 mm
06:30 AM 53.2°F11.8°C 53.0°F11.7°C 99% 1.6 mph N2.6 kmh N 2.2 mph3.5 kmh 29.52 in999.7 mb 0.01 in0.3 mm 0.00 in/hr0.0 mm/hr 0.33 in8.4 mm
06:29 AM 53.2°F11.8°C 53.0°F11.7°C 99% 1.6 mph N2.6 kmh N 2.2 mph3.5 kmh 29.52 in999.7 mb 0.01 in0.3 mm 0.00 in/hr0.0 mm/hr 0.33 in8.4 mm
06:28 AM 53.2°F11.8°C 53.0°F11.7°C 99% 1.8 mph N2.9 kmh N 2.2 mph3.5 kmh 29.52 in999.7 mb 0.01 in0.3 mm 0.00 in/hr0.0 mm/hr 0.33 in8.4 mm
06:27 AM 53.2°F11.8°C 53.0°F11.7°C 99% 1.8 mph N2.9 kmh N 2.2 mph3.5 kmh 29.52 in999.7 mb 0.01 in0.3 mm 0.00 in/hr0.0 mm/hr 0.33 in8.4 mm
06:26 AM 53.2°F11.8°C 53.0°F11.7°C 99% 1.8 mph N2.9 kmh N 2.2 mph3.5 kmh 29.52 in999.7 mb 0.01 in0.3 mm 0.00 in/hr0.0 mm/hr 0.33 in8.4 mm
06:25 AM 53.2°F11.8°C 53.0°F11.7°C 99% 1.8 mph N2.9 kmh N 2.2 mph3.5 kmh 29.52 in999.7 mb 0.01 in0.3 mm 0.00 in/hr0.0 mm/hr 0.33 in8.4 mm
06:24 AM 53.2°F11.8°C 53.0°F11.7°C 99% 1.8 mph N2.9 kmh N 2.2 mph3.5 kmh 29.52 in999.7 mb 0.02 in0.5 mm 0.00 in/hr0.0 mm/hr 0.33 in8.4 mm
06:23 AM 53.2°F11.8°C 53.0°F11.7°C 99% 1.8 mph N2.9 kmh N 2.2 mph3.5 kmh 29.52 in999.7 mb 0.02 in0.5 mm 0.00 in/hr0.0 mm/hr 0.33 in8.4 mm
06:22 AM 53.2°F11.8°C 53.0°F11.7°C 99% 1.6 mph N2.6 kmh N 2.2 mph3.5 kmh 29.52 in999.7 mb 0.02 in0.5 mm 0.00 in/hr0.0 mm/hr 0.33 in8.4 mm
06:21 AM 53.2°F11.8°C 53.0°F11.7°C 99% 1.5 mph NNW2.4 kmh NNW 2.2 mph3.5 kmh 29.52 in999.7 mb 0.02 in0.5 mm 0.00 in/hr0.0 mm/hr 0.33 in8.4 mm
06:20 AM 53.1°F11.7°C 52.8°F11.6°C 99% 1.4 mph N2.3 kmh N 2.2 mph3.5 kmh 29.52 in999.7 mb 0.02 in0.5 mm 0.00 in/hr0.0 mm/hr 0.33 in8.4 mm
06:19 AM 53.1°F11.7°C 52.8°F11.6°C 99% 1.3 mph N2.1 kmh N 2.2 mph3.5 kmh 29.53 in1000.0 mb 0.02 in0.5 mm 0.00 in/hr0.0 mm/hr 0.33 in8.4 mm
06:18 AM 53.1°F11.7°C 52.8°F11.6°C 99% 1.1 mph N1.8 kmh N 2.2 mph3.5 kmh 29.52 in999.7 mb 0.02 in0.5 mm 0.00 in/hr0.0 mm/hr 0.33 in8.4 mm
06:17 AM 53.1°F11.7°C 52.8°F11.6°C 99% 1.0 mph N1.6 kmh N 2.2 mph3.5 kmh 29.52 in999.7 mb 0.02 in0.5 mm 0.00 in/hr0.0 mm/hr 0.33 in8.4 mm
06:16 AM 53.1°F11.7°C 52.8°F11.6°C 99% 1.0 mph N1.6 kmh N 2.2 mph3.5 kmh 29.52 in999.7 mb 0.02 in0.5 mm 0.00 in/hr0.0 mm/hr 0.33 in8.4 mm
06:15 AM 53.1°F11.7°C 52.8°F11.6°C 99% 0.9 mph N1.4 kmh N 1.6 mph2.6 kmh 29.52 in999.7 mb 0.02 in0.5 mm 0.00 in/hr0.0 mm/hr 0.33 in8.4 mm
06:14 AM 53.1°F11.7°C 52.8°F11.6°C 99% 0.9 mph N1.4 kmh N 1.6 mph2.6 kmh 29.52 in999.7 mb 0.02 in0.5 mm 0.00 in/hr0.0 mm/hr 0.33 in8.4 mm
06:13 AM 53.1°F11.7°C 52.8°F11.6°C 99% 0.9 mph N1.4 kmh N 1.6 mph2.6 kmh 29.52 in999.7 mb 0.02 in0.5 mm 0.00 in/hr0.0 mm/hr 0.33 in8.4 mm
06:12 AM 53.1°F11.7°C 52.8°F11.6°C 99% 1.0 mph N1.6 kmh N 1.6 mph2.6 kmh 29.52 in999.7 mb 0.02 in0.5 mm 0.00 in/hr0.0 mm/hr 0.33 in8.4 mm
06:11 AM 53.1°F11.7°C 52.8°F11.6°C 99% 1.1 mph N1.8 kmh N 1.6 mph2.6 kmh 29.52 in999.7 mb 0.02 in0.5 mm 0.00 in/hr0.0 mm/hr 0.33 in8.4 mm
06:10 AM 53.1°F11.7°C 52.8°F11.6°C 99% 1.2 mph N1.9 kmh N 1.6 mph2.6 kmh 29.52 in999.7 mb 0.04 in1.0 mm 0.00 in/hr0.0 mm/hr 0.33 in8.4 mm
06:09 AM 53.1°F11.7°C 52.8°F11.6°C 99% 1.2 mph N1.9 kmh N 1.6 mph2.6 kmh 29.52 in999.7 mb 0.04 in1.0 mm 0.00 in/hr0.0 mm/hr 0.33 in8.4 mm
06:08 AM 53.1°F11.7°C 52.8°F11.6°C 99% 1.3 mph N2.1 kmh N 1.6 mph2.6 kmh 29.52 in999.7 mb 0.04 in1.0 mm 0.00 in/hr0.0 mm/hr 0.33 in8.4 mm
06:07 AM 53.1°F11.7°C 52.8°F11.6°C 99% 1.4 mph N2.3 kmh N 1.6 mph2.6 kmh 29.52 in999.7 mb 0.04 in1.0 mm 0.00 in/hr0.0 mm/hr 0.33 in8.4 mm
06:06 AM 53.1°F11.7°C 52.8°F11.6°C 99% 1.4 mph N2.3 kmh N 1.6 mph2.6 kmh 29.52 in999.7 mb 0.04 in1.0 mm 0.00 in/hr0.0 mm/hr 0.33 in8.4 mm
06:05 AM 52.9°F11.6°C 52.6°F11.4°C 99% 1.3 mph N2.1 kmh N 1.6 mph2.6 kmh 29.52 in999.7 mb 0.04 in1.0 mm 0.00 in/hr0.0 mm/hr 0.33 in8.4 mm
06:04 AM 52.9°F11.6°C 52.6°F11.4°C 99% 1.4 mph N2.3 kmh N 1.6 mph2.6 kmh 29.52 in999.7 mb 0.04 in1.0 mm 0.00 in/hr0.0 mm/hr 0.33 in8.4 mm
06:03 AM 52.9°F11.6°C 52.6°F11.4°C 99% 1.3 mph N2.1 kmh N 1.6 mph2.6 kmh 29.52 in999.7 mb 0.04 in1.0 mm 0.00 in/hr0.0 mm/hr 0.33 in8.4 mm
06:02 AM 52.9°F11.6°C 52.6°F11.4°C 99% 1.1 mph N1.8 kmh N 1.6 mph2.6 kmh 29.52 in999.7 mb 0.04 in1.0 mm 0.00 in/hr0.0 mm/hr 0.33 in8.4 mm
06:01 AM 52.9°F11.6°C 52.6°F11.4°C 99% 1.1 mph N1.8 kmh N 1.6 mph2.6 kmh 29.52 in999.7 mb 0.04 in1.0 mm 0.00 in/hr0.0 mm/hr 0.33 in8.4 mm
06:00 AM 52.9°F11.6°C 52.6°F11.4°C 99% 1.0 mph N1.6 kmh N 1.6 mph2.6 kmh 29.52 in999.7 mb 0.04 in1.0 mm 0.00 in/hr0.0 mm/hr 0.33 in8.4 mm
05:59 AM 52.9°F11.6°C 52.6°F11.4°C 99% 1.0 mph N1.6 kmh N 1.6 mph2.6 kmh 29.52 in999.7 mb 0.04 in1.0 mm 0.00 in/hr0.0 mm/hr 0.33 in8.4 mm
05:58 AM 52.9°F11.6°C 52.6°F11.4°C 99% 1.0 mph NNE1.6 kmh NNE 1.6 mph2.6 kmh 29.52 in999.7 mb 0.05 in1.3 mm 0.00 in/hr0.0 mm/hr 0.33 in8.4 mm
05:57 AM 52.9°F11.6°C 52.6°F11.4°C 99% 0.9 mph NNE1.4 kmh NNE 1.6 mph2.6 kmh 29.52 in999.7 mb 0.05 in1.3 mm 0.00 in/hr0.0 mm/hr 0.33 in8.4 mm
05:56 AM 52.9°F11.6°C 52.6°F11.4°C 99% 0.8 mph NE1.3 kmh NE 1.6 mph2.6 kmh 29.53 in1000.0 mb 0.05 in1.3 mm 0.00 in/hr0.0 mm/hr 0.33 in8.4 mm
05:55 AM 52.9°F11.6°C 52.6°F11.4°C 99% 0.8 mph NE1.3 kmh NE 1.6 mph2.6 kmh 29.52 in999.7 mb 0.05 in1.3 mm 0.00 in/hr0.0 mm/hr 0.33 in8.4 mm
05:54 AM 52.9°F11.6°C 52.6°F11.4°C 99% 0.8 mph ENE1.3 kmh ENE 1.6 mph2.6 kmh 29.52 in999.7 mb 0.05 in1.3 mm 0.00 in/hr0.0 mm/hr 0.33 in8.4 mm
05:53 AM 52.9°F11.6°C 52.6°F11.4°C 99% 0.7 mph E1.1 kmh E 1.6 mph2.6 kmh 29.52 in999.7 mb 0.05 in1.3 mm 0.00 in/hr0.0 mm/hr 0.33 in8.4 mm
05:52 AM 52.9°F11.6°C 52.6°F11.4°C 99% 0.8 mph E1.3 kmh E 1.6 mph2.6 kmh 29.52 in999.7 mb 0.05 in1.3 mm 0.00 in/hr0.0 mm/hr 0.33 in8.4 mm
05:51 AM 52.9°F11.6°C 52.6°F11.4°C 99% 0.9 mph E1.4 kmh E 2.2 mph3.5 kmh 29.52 in999.7 mb 0.06 in1.5 mm 0.00 in/hr0.0 mm/hr 0.33 in8.4 mm
05:50 AM 52.9°F11.6°C 52.6°F11.4°C 99% 1.1 mph ESE1.8 kmh ESE 3.1 mph5.0 kmh 29.52 in999.7 mb 0.06 in1.5 mm 0.00 in/hr0.0 mm/hr 0.33 in8.4 mm
05:49 AM 52.9°F11.6°C 52.6°F11.4°C 99% 1.2 mph SE1.9 kmh SE 3.1 mph5.0 kmh 29.52 in999.7 mb 0.06 in1.5 mm 0.00 in/hr0.0 mm/hr 0.33 in8.4 mm
05:48 AM 52.9°F11.6°C 52.6°F11.4°C 99% 1.3 mph SE2.1 kmh SE 3.1 mph5.0 kmh 29.52 in999.7 mb 0.06 in1.5 mm 0.00 in/hr0.0 mm/hr 0.33 in8.4 mm
05:47 AM 52.9°F11.6°C 52.6°F11.4°C 99% 1.4 mph SE2.3 kmh SE 3.1 mph5.0 kmh 29.53 in1000.0 mb 0.06 in1.5 mm 0.00 in/hr0.0 mm/hr 0.33 in8.4 mm
05:46 AM 52.9°F11.6°C 52.6°F11.4°C 99% 1.5 mph SE2.4 kmh SE 3.1 mph5.0 kmh 29.52 in999.7 mb 0.06 in1.5 mm 0.00 in/hr0.0 mm/hr 0.33 in8.4 mm
05:45 AM 52.9°F11.6°C 52.6°F11.4°C 99% 1.6 mph SE2.6 kmh SE 3.1 mph5.0 kmh 29.52 in999.7 mb 0.06 in1.5 mm 0.00 in/hr0.0 mm/hr 0.33 in8.4 mm
05:44 AM 52.9°F11.6°C 52.6°F11.4°C 99% 1.7 mph SE2.7 kmh SE 3.1 mph5.0 kmh 29.53 in1000.0 mb 0.06 in1.5 mm 0.00 in/hr0.0 mm/hr 0.33 in8.4 mm
05:43 AM 52.9°F11.6°C 52.6°F11.4°C 99% 1.9 mph SE3.1 kmh SE 3.1 mph5.0 kmh 29.53 in1000.0 mb 0.06 in1.5 mm 0.00 in/hr0.0 mm/hr 0.33 in8.4 mm
05:42 AM 52.9°F11.6°C 52.6°F11.4°C 99% 2.1 mph SE3.4 kmh SE 3.1 mph5.0 kmh 29.52 in999.7 mb 0.06 in1.5 mm 0.00 in/hr0.0 mm/hr 0.33 in8.4 mm
05:41 AM 52.9°F11.6°C 52.6°F11.4°C 99% 2.1 mph SE3.4 kmh SE 3.1 mph5.0 kmh 29.52 in999.7 mb 0.07 in1.8 mm 0.00 in/hr0.0 mm/hr 0.33 in8.4 mm
05:40 AM 52.9°F11.6°C 52.6°F11.4°C 99% 1.9 mph SE3.1 kmh SE 3.1 mph5.0 kmh 29.52 in999.7 mb 0.07 in1.8 mm 0.60 in/hr15.2 mm/hr 0.33 in8.4 mm
05:39 AM 52.9°F11.6°C 52.6°F11.4°C 99% 1.7 mph SE2.7 kmh SE 3.1 mph5.0 kmh 29.52 in999.7 mb 0.06 in1.5 mm 0.00 in/hr0.0 mm/hr 0.32 in8.1 mm
05:38 AM 52.9°F11.6°C 52.6°F11.4°C 99% 1.7 mph SE2.7 kmh SE 3.1 mph5.0 kmh 29.52 in999.7 mb 0.06 in1.5 mm 0.00 in/hr0.0 mm/hr 0.32 in8.1 mm
05:37 AM 52.9°F11.6°C 52.6°F11.4°C 99% 1.7 mph SE2.7 kmh SE 3.1 mph5.0 kmh 29.52 in999.7 mb 0.06 in1.5 mm 0.00 in/hr0.0 mm/hr 0.32 in8.1 mm
05:36 AM 52.9°F11.6°C 52.6°F11.4°C 99% 1.6 mph SE2.6 kmh SE 3.1 mph5.0 kmh 29.52 in999.7 mb 0.06 in1.5 mm 0.00 in/hr0.0 mm/hr 0.32 in8.1 mm
05:35 AM 52.9°F11.6°C 52.6°F11.4°C 99% 1.5 mph ESE2.4 kmh ESE 3.1 mph5.0 kmh 29.52 in999.7 mb 0.06 in1.5 mm 0.00 in/hr0.0 mm/hr 0.32 in8.1 mm
05:34 AM 52.9°F11.6°C 52.6°F11.4°C 99% 1.5 mph E2.4 kmh E 3.1 mph5.0 kmh 29.52 in999.7 mb 0.06 in1.5 mm 0.00 in/hr0.0 mm/hr 0.32 in8.1 mm
05:33 AM 52.9°F11.6°C 52.6°F11.4°C 99% 1.6 mph E2.6 kmh E 3.1 mph5.0 kmh 29.52 in999.7 mb 0.06 in1.5 mm 0.00 in/hr0.0 mm/hr 0.32 in8.1 mm
05:32 AM 52.9°F11.6°C 52.6°F11.4°C 99% 1.7 mph E2.7 kmh E 3.1 mph5.0 kmh 29.52 in999.7 mb 0.07 in1.8 mm 0.00 in/hr0.0 mm/hr 0.32 in8.1 mm
05:31 AM 52.9°F11.6°C 52.6°F11.4°C 99% 1.7 mph E2.7 kmh E 3.1 mph5.0 kmh 29.52 in999.7 mb 0.07 in1.8 mm 0.00 in/hr0.0 mm/hr 0.32 in8.1 mm
05:30 AM 52.9°F11.6°C 52.6°F11.4°C 99% 1.8 mph E2.9 kmh E 3.1 mph5.0 kmh 29.52 in999.7 mb 0.07 in1.8 mm 0.00 in/hr0.0 mm/hr 0.32 in8.1 mm
05:29 AM 52.9°F11.6°C 52.6°F11.4°C 99% 2.0 mph E3.2 kmh E 3.1 mph5.0 kmh 29.52 in999.7 mb 0.07 in1.8 mm 0.00 in/hr0.0 mm/hr 0.32 in8.1 mm
05:28 AM 52.9°F11.6°C 52.6°F11.4°C 99% 2.3 mph ESE3.7 kmh ESE 3.8 mph6.1 kmh 29.53 in1000.0 mb 0.07 in1.8 mm 0.00 in/hr0.0 mm/hr 0.32 in8.1 mm
05:27 AM 52.9°F11.6°C 52.6°F11.4°C 99% 2.5 mph ESE4.0 kmh ESE 3.8 mph6.1 kmh 29.52 in999.7 mb 0.07 in1.8 mm 0.00 in/hr0.0 mm/hr 0.32 in8.1 mm
05:26 AM 52.9°F11.6°C 52.6°F11.4°C 99% 2.6 mph ESE4.2 kmh ESE 3.8 mph6.1 kmh 29.52 in999.7 mb 0.07 in1.8 mm 0.00 in/hr0.0 mm/hr 0.32 in8.1 mm
05:25 AM 52.9°F11.6°C 52.6°F11.4°C 99% 2.8 mph SE4.5 kmh SE 3.8 mph6.1 kmh 29.53 in1000.0 mb 0.08 in2.0 mm 0.60 in/hr15.2 mm/hr 0.32 in8.1 mm
05:24 AM 52.9°F11.6°C 52.6°F11.4°C 99% 2.9 mph SE4.7 kmh SE 3.8 mph6.1 kmh 29.52 in999.7 mb 0.07 in1.8 mm 0.00 in/hr0.0 mm/hr 0.31 in7.9 mm
05:23 AM 52.9°F11.6°C 52.6°F11.4°C 99% 2.9 mph SE4.7 kmh SE 3.8 mph6.1 kmh 29.52 in999.7 mb 0.07 in1.8 mm 0.00 in/hr0.0 mm/hr 0.31 in7.9 mm
05:22 AM 52.9°F11.6°C 52.6°F11.4°C 99% 2.8 mph SE4.5 kmh SE 3.8 mph6.1 kmh 29.52 in999.7 mb 0.07 in1.8 mm 0.00 in/hr0.0 mm/hr 0.31 in7.9 mm
05:21 AM 52.9°F11.6°C 52.6°F11.4°C 99% 2.9 mph SE4.7 kmh SE 3.8 mph6.1 kmh 29.53 in1000.0 mb 0.07 in1.8 mm 0.00 in/hr0.0 mm/hr 0.31 in7.9 mm
05:20 AM 52.9°F11.6°C 52.6°F11.4°C 99% 3.1 mph SE5.0 kmh SE 3.8 mph6.1 kmh 29.53 in1000.0 mb 0.07 in1.8 mm 0.00 in/hr0.0 mm/hr 0.31 in7.9 mm
05:19 AM 52.9°F11.6°C 52.6°F11.4°C 99% 3.1 mph SE5.0 kmh SE 3.8 mph6.1 kmh 29.53 in1000.0 mb 0.08 in2.0 mm 0.00 in/hr0.0 mm/hr 0.31 in7.9 mm
05:18 AM 52.7°F11.5°C 52.4°F11.3°C 99% 3.0 mph SE4.8 kmh SE 3.8 mph6.1 kmh 29.53 in1000.0 mb 0.08 in2.0 mm 0.00 in/hr0.0 mm/hr 0.31 in7.9 mm
05:17 AM 52.7°F11.5°C 52.4°F11.3°C 99% 3.0 mph SE4.8 kmh SE 3.8 mph6.1 kmh 29.53 in1000.0 mb 0.08 in2.0 mm 0.00 in/hr0.0 mm/hr 0.31 in7.9 mm
05:16 AM 52.7°F11.5°C 52.4°F11.3°C 99% 3.1 mph SE5.0 kmh SE 3.8 mph6.1 kmh 29.53 in1000.0 mb 0.08 in2.0 mm 0.00 in/hr0.0 mm/hr 0.31 in7.9 mm
05:15 AM 52.7°F11.5°C 52.4°F11.3°C 99% 3.0 mph SE4.8 kmh SE 3.8 mph6.1 kmh 29.53 in1000.0 mb 0.08 in2.0 mm 0.00 in/hr0.0 mm/hr 0.31 in7.9 mm
05:14 AM 52.7°F11.5°C 52.4°F11.3°C 99% 2.9 mph SE4.7 kmh SE 3.8 mph6.1 kmh 29.53 in1000.0 mb 0.08 in2.0 mm 0.00 in/hr0.0 mm/hr 0.31 in7.9 mm
05:13 AM 52.7°F11.5°C 52.4°F11.3°C 99% 2.7 mph SE4.3 kmh SE 3.8 mph6.1 kmh 29.53 in1000.0 mb 0.08 in2.0 mm 0.00 in/hr0.0 mm/hr 0.31 in7.9 mm
05:12 AM 52.7°F11.5°C 52.4°F11.3°C 99% 2.8 mph SE4.5 kmh SE 3.8 mph6.1 kmh 29.53 in1000.0 mb 0.08 in2.0 mm 0.00 in/hr0.0 mm/hr 0.31 in7.9 mm
05:11 AM 52.7°F11.5°C 52.4°F11.3°C 99% 2.9 mph SE4.7 kmh SE 3.8 mph6.1 kmh 29.53 in1000.0 mb 0.09 in2.3 mm 0.60 in/hr15.2 mm/hr 0.31 in7.9 mm
05:10 AM 52.7°F11.5°C 52.4°F11.3°C 99% 2.8 mph SE4.5 kmh SE 3.8 mph6.1 kmh 29.53 in1000.0 mb 0.08 in2.0 mm 0.00 in/hr0.0 mm/hr 0.30 in7.6 mm
05:09 AM 52.7°F11.5°C 52.4°F11.3°C 99% 2.7 mph SE4.3 kmh SE 3.8 mph6.1 kmh 29.53 in1000.0 mb 0.08 in2.0 mm 0.00 in/hr0.0 mm/hr 0.30 in7.6 mm
05:08 AM 52.7°F11.5°C 52.4°F11.3°C 99% 2.5 mph SE4.0 kmh SE 3.8 mph6.1 kmh 29.53 in1000.0 mb 0.08 in2.0 mm 0.00 in/hr0.0 mm/hr 0.30 in7.6 mm
05:07 AM 52.7°F11.5°C 52.4°F11.3°C 99% 2.4 mph SE3.9 kmh SE 3.8 mph6.1 kmh 29.53 in1000.0 mb 0.08 in2.0 mm 0.00 in/hr0.0 mm/hr 0.30 in7.6 mm
05:06 AM 52.7°F11.5°C 52.4°F11.3°C 99% 2.3 mph SE3.7 kmh SE 3.8 mph6.1 kmh 29.53 in1000.0 mb 0.08 in2.0 mm 0.00 in/hr0.0 mm/hr 0.30 in7.6 mm
05:05 AM 52.7°F11.5°C 52.4°F11.3°C 99% 2.5 mph SE4.0 kmh SE 4.5 mph7.2 kmh 29.53 in1000.0 mb 0.09 in2.3 mm 0.00 in/hr0.0 mm/hr 0.30 in7.6 mm
05:04 AM 52.7°F11.5°C 52.4°F11.3°C 99% 2.6 mph SE4.2 kmh SE 5.4 mph8.7 kmh 29.53 in1000.0 mb 0.09 in2.3 mm 0.00 in/hr0.0 mm/hr 0.30 in7.6 mm
05:03 AM 52.7°F11.5°C 52.4°F11.3°C 99% 3.0 mph SE4.8 kmh SE 5.4 mph8.7 kmh 29.53 in1000.0 mb 0.09 in2.3 mm 0.00 in/hr0.0 mm/hr 0.30 in7.6 mm
05:02 AM 52.7°F11.5°C 52.4°F11.3°C 99% 3.1 mph SE5.0 kmh SE 5.4 mph8.7 kmh 29.53 in1000.0 mb 0.09 in2.3 mm 0.00 in/hr0.0 mm/hr 0.30 in7.6 mm
05:01 AM 52.7°F11.5°C 52.4°F11.3°C 99% 3.1 mph SE5.0 kmh SE 5.4 mph8.7 kmh 29.53 in1000.0 mb 0.09 in2.3 mm 0.00 in/hr0.0 mm/hr 0.30 in7.6 mm
05:00 AM 52.7°F11.5°C 52.4°F11.3°C 99% 3.2 mph SE5.1 kmh SE 6.0 mph9.7 kmh 29.53 in1000.0 mb 0.09 in2.3 mm 0.01 in/hr0.3 mm/hr 0.30 in7.6 mm
04:59 AM 52.7°F11.5°C 52.4°F11.3°C 99% 3.5 mph SE5.6 kmh SE 6.0 mph9.7 kmh 29.53 in1000.0 mb 0.08 in2.0 mm 0.00 in/hr0.0 mm/hr 0.28 in7.1 mm
04:58 AM 52.7°F11.5°C 52.4°F11.3°C 99% 3.7 mph SE6.0 kmh SE 6.0 mph9.7 kmh 29.53 in1000.0 mb 0.08 in2.0 mm 0.00 in/hr0.0 mm/hr 0.28 in7.1 mm
04:57 AM 52.7°F11.5°C 52.4°F11.3°C 99% 3.9 mph SE6.3 kmh SE 6.0 mph9.7 kmh 29.53 in1000.0 mb 0.08 in2.0 mm 0.00 in/hr0.0 mm/hr 0.28 in7.1 mm
04:56 AM 52.7°F11.5°C 52.4°F11.3°C 99% 3.8 mph SE6.1 kmh SE 6.0 mph9.7 kmh 29.53 in1000.0 mb 0.08 in2.0 mm 0.00 in/hr0.0 mm/hr 0.28 in7.1 mm
04:55 AM 52.7°F11.5°C 52.4°F11.3°C 99% 3.8 mph SE6.1 kmh SE 6.0 mph9.7 kmh 29.53 in1000.0 mb 0.08 in2.0 mm 0.00 in/hr0.0 mm/hr 0.28 in7.1 mm
04:54 AM 52.7°F11.5°C 52.4°F11.3°C 99% 3.7 mph SE6.0 kmh SE 6.0 mph9.7 kmh 29.53 in1000.0 mb 0.08 in2.0 mm 0.00 in/hr0.0 mm/hr 0.28 in7.1 mm
04:53 AM 52.7°F11.5°C 52.4°F11.3°C 99% 3.5 mph SE5.6 kmh SE 6.0 mph9.7 kmh 29.53 in1000.0 mb 0.08 in2.0 mm 0.00 in/hr0.0 mm/hr 0.28 in7.1 mm
04:52 AM 52.7°F11.5°C 52.4°F11.3°C 99% 3.7 mph SE6.0 kmh SE 6.0 mph9.7 kmh 29.53 in1000.0 mb 0.08 in2.0 mm 0.60 in/hr15.2 mm/hr 0.28 in7.1 mm
04:51 AM 52.7°F11.5°C 52.4°F11.3°C 99% 3.6 mph SE5.8 kmh SE 6.0 mph9.7 kmh 29.53 in1000.0 mb 0.07 in1.8 mm 0.00 in/hr0.0 mm/hr 0.27 in6.9 mm
04:50 AM 52.7°F11.5°C 52.4°F11.3°C 99% 3.5 mph SE5.6 kmh SE 6.0 mph9.7 kmh 29.53 in1000.0 mb 0.07 in1.8 mm 0.00 in/hr0.0 mm/hr 0.27 in6.9 mm
04:49 AM 52.7°F11.5°C 52.4°F11.3°C 99% 3.3 mph SE5.3 kmh SE 6.0 mph9.7 kmh 29.53 in1000.0 mb 0.07 in1.8 mm 0.00 in/hr0.0 mm/hr 0.27 in6.9 mm
04:48 AM 52.7°F11.5°C 52.4°F11.3°C 99% 3.4 mph SE5.5 kmh SE 6.0 mph9.7 kmh 29.53 in1000.0 mb 0.07 in1.8 mm 0.00 in/hr0.0 mm/hr 0.27 in6.9 mm
04:47 AM 52.7°F11.5°C 52.4°F11.3°C 99% 3.3 mph SE5.3 kmh SE 6.0 mph9.7 kmh 29.53 in1000.0 mb 0.08 in2.0 mm 0.00 in/hr0.0 mm/hr 0.27 in6.9 mm
04:46 AM 52.7°F11.5°C 52.4°F11.3°C 99% 3.3 mph SE5.3 kmh SE 6.0 mph9.7 kmh 29.53 in1000.0 mb 0.08 in2.0 mm 0.00 in/hr0.0 mm/hr 0.27 in6.9 mm
04:45 AM 52.7°F11.5°C 52.4°F11.3°C 99% 3.3 mph SE5.3 kmh SE 6.0 mph9.7 kmh 29.53 in1000.0 mb 0.08 in2.0 mm 0.00 in/hr0.0 mm/hr 0.27 in6.9 mm
04:44 AM 52.7°F11.5°C 52.4°F11.3°C 99% 3.3 mph SE5.3 kmh SE 6.0 mph9.7 kmh 29.53 in1000.0 mb 0.08 in2.0 mm 0.00 in/hr0.0 mm/hr 0.27 in6.9 mm
04:43 AM 52.7°F11.5°C 52.4°F11.3°C 99% 3.3 mph SE5.3 kmh SE 6.0 mph9.7 kmh 29.53 in1000.0 mb 0.08 in2.0 mm 0.00 in/hr0.0 mm/hr 0.27 in6.9 mm
04:42 AM 52.7°F11.5°C 52.4°F11.3°C 99% 3.1 mph SE5.0 kmh SE 4.5 mph7.2 kmh 29.53 in1000.0 mb 0.08 in2.0 mm 0.60 in/hr15.2 mm/hr 0.27 in6.9 mm
04:41 AM 52.7°F11.5°C 52.4°F11.3°C 99% 3.0 mph SE4.8 kmh SE 4.5 mph7.2 kmh 29.53 in1000.0 mb 0.07 in1.8 mm 0.00 in/hr0.0 mm/hr 0.26 in6.6 mm
04:40 AM 52.7°F11.5°C 52.4°F11.3°C 99% 3.1 mph SE5.0 kmh SE 4.5 mph7.2 kmh 29.53 in1000.0 mb 0.07 in1.8 mm 0.00 in/hr0.0 mm/hr 0.26 in6.6 mm
04:39 AM 52.7°F11.5°C 52.4°F11.3°C 99% 3.1 mph SE5.0 kmh SE 4.5 mph7.2 kmh 29.53 in1000.0 mb 0.07 in1.8 mm 0.00 in/hr0.0 mm/hr 0.26 in6.6 mm
04:38 AM 52.7°F11.5°C 52.4°F11.3°C 99% 3.1 mph SE5.0 kmh SE 4.5 mph7.2 kmh 29.53 in1000.0 mb 0.07 in1.8 mm 0.00 in/hr0.0 mm/hr 0.26 in6.6 mm
04:37 AM 52.7°F11.5°C 52.4°F11.3°C 99% 3.0 mph SE4.8 kmh SE 4.5 mph7.2 kmh 29.53 in1000.0 mb 0.07 in1.8 mm 0.00 in/hr0.0 mm/hr 0.26 in6.6 mm
04:36 AM 52.7°F11.5°C 52.4°F11.3°C 99% 3.0 mph SE4.8 kmh SE 4.5 mph7.2 kmh 29.53 in1000.0 mb 0.07 in1.8 mm 0.00 in/hr0.0 mm/hr 0.26 in6.6 mm
04:35 AM 52.7°F11.5°C 52.4°F11.3°C 99% 3.0 mph SE4.8 kmh SE 4.5 mph7.2 kmh 29.53 in1000.0 mb 0.07 in1.8 mm 0.00 in/hr0.0 mm/hr 0.26 in6.6 mm
04:34 AM 52.7°F11.5°C 52.4°F11.3°C 99% 2.8 mph SE4.5 kmh SE 4.5 mph7.2 kmh 29.53 in1000.0 mb 0.07 in1.8 mm 0.60 in/hr15.2 mm/hr 0.26 in6.6 mm
04:33 AM 52.7°F11.5°C 52.4°F11.3°C 99% 2.8 mph SE4.5 kmh SE 4.5 mph7.2 kmh 29.53 in1000.0 mb 0.06 in1.5 mm 0.00 in/hr0.0 mm/hr 0.25 in6.4 mm
04:32 AM 52.7°F11.5°C 52.4°F11.3°C 99% 2.8 mph SE4.5 kmh SE 3.8 mph6.1 kmh 29.53 in1000.0 mb 0.06 in1.5 mm 0.00 in/hr0.0 mm/hr 0.25 in6.4 mm
04:31 AM 52.7°F11.5°C 52.4°F11.3°C 99% 2.8 mph SE4.5 kmh SE 3.8 mph6.1 kmh 29.53 in1000.0 mb 0.06 in1.5 mm 0.00 in/hr0.0 mm/hr 0.25 in6.4 mm
04:30 AM 52.7°F11.5°C 52.4°F11.3°C 99% 2.7 mph SE4.3 kmh SE 4.5 mph7.2 kmh 29.53 in1000.0 mb 0.06 in1.5 mm 0.00 in/hr0.0 mm/hr 0.25 in6.4 mm
04:29 AM 52.7°F11.5°C 52.4°F11.3°C 99% 2.8 mph SE4.5 kmh SE 4.5 mph7.2 kmh 29.53 in1000.0 mb 0.06 in1.5 mm 0.00 in/hr0.0 mm/hr 0.25 in6.4 mm
04:28 AM 52.7°F11.5°C 52.4°F11.3°C 99% 2.9 mph SE4.7 kmh SE 6.0 mph9.7 kmh 29.53 in1000.0 mb 0.06 in1.5 mm 0.00 in/hr0.0 mm/hr 0.25 in6.4 mm
04:27 AM 52.7°F11.5°C 52.4°F11.3°C 99% 3.3 mph SE5.3 kmh SE 6.0 mph9.7 kmh 29.53 in1000.0 mb 0.07 in1.8 mm 0.00 in/hr0.0 mm/hr 0.25 in6.4 mm
04:26 AM 52.7°F11.5°C 52.4°F11.3°C 99% 3.5 mph SE5.6 kmh SE 6.0 mph9.7 kmh 29.53 in1000.0 mb 0.07 in1.8 mm 0.60 in/hr15.2 mm/hr 0.25 in6.4 mm
04:25 AM 52.7°F11.5°C 52.4°F11.3°C 99% 3.7 mph SE6.0 kmh SE 6.0 mph9.7 kmh 29.53 in1000.0 mb 0.06 in1.5 mm 0.00 in/hr0.0 mm/hr 0.24 in6.1 mm
04:24 AM 52.7°F11.5°C 52.4°F11.3°C 99% 3.8 mph SE6.1 kmh SE 6.0 mph9.7 kmh 29.53 in1000.0 mb 0.06 in1.5 mm 0.00 in/hr0.0 mm/hr 0.24 in6.1 mm
04:23 AM 52.7°F11.5°C 52.4°F11.3°C 99% 3.7 mph SE6.0 kmh SE 6.0 mph9.7 kmh 29.53 in1000.0 mb 0.06 in1.5 mm 0.00 in/hr0.0 mm/hr 0.24 in6.1 mm
04:22 AM 52.7°F11.5°C 52.4°F11.3°C 99% 3.7 mph SE6.0 kmh SE 6.0 mph9.7 kmh 29.53 in1000.0 mb 0.06 in1.5 mm 0.00 in/hr0.0 mm/hr 0.24 in6.1 mm
04:21 AM 52.7°F11.5°C 52.4°F11.3°C 99% 3.6 mph SE5.8 kmh SE 6.0 mph9.7 kmh 29.53 in1000.0 mb 0.06 in1.5 mm 0.00 in/hr0.0 mm/hr 0.24 in6.1 mm
04:20 AM 52.7°F11.5°C 52.4°F11.3°C 99% 3.4 mph SE5.5 kmh SE 6.0 mph9.7 kmh 29.53 in1000.0 mb 0.06 in1.5 mm 0.60 in/hr15.2 mm/hr 0.24 in6.1 mm
04:19 AM 52.7°F11.5°C 52.4°F11.3°C 99% 3.4 mph SE5.5 kmh SE 6.0 mph9.7 kmh 29.53 in1000.0 mb 0.05 in1.3 mm 0.00 in/hr0.0 mm/hr 0.22 in5.6 mm
04:18 AM 52.7°F11.5°C 52.4°F11.3°C 99% 3.1 mph ESE5.0 kmh ESE 6.0 mph9.7 kmh 29.53 in1000.0 mb 0.05 in1.3 mm 0.00 in/hr0.0 mm/hr 0.22 in5.6 mm
04:17 AM 52.7°F11.5°C 52.4°F11.3°C 99% 2.7 mph ESE4.3 kmh ESE 4.5 mph7.2 kmh 29.53 in1000.0 mb 0.06 in1.5 mm 0.00 in/hr0.0 mm/hr 0.22 in5.6 mm
04:16 AM 52.7°F11.5°C 52.4°F11.3°C 99% 2.6 mph ESE4.2 kmh ESE 4.5 mph7.2 kmh 29.53 in1000.0 mb 0.06 in1.5 mm 0.00 in/hr0.0 mm/hr 0.22 in5.6 mm
04:15 AM 52.7°F11.5°C 52.4°F11.3°C 99% 2.3 mph ESE3.7 kmh ESE 3.1 mph5.0 kmh 29.53 in1000.0 mb 0.06 in1.5 mm 0.00 in/hr0.0 mm/hr 0.22 in5.6 mm
04:14 AM 52.7°F11.5°C 52.4°F11.3°C 99% 2.2 mph SE3.5 kmh SE 3.1 mph5.0 kmh 29.53 in1000.0 mb 0.06 in1.5 mm 0.00 in/hr0.0 mm/hr 0.22 in5.6 mm
04:13 AM 52.7°F11.5°C 52.4°F11.3°C 99% 2.2 mph SE3.5 kmh SE 3.1 mph5.0 kmh 29.53 in1000.0 mb 0.06 in1.5 mm 0.60 in/hr15.2 mm/hr 0.22 in5.6 mm
04:12 AM 52.7°F11.5°C 52.4°F11.3°C 99% 2.1 mph SE3.4 kmh SE 3.1 mph5.0 kmh 29.53 in1000.0 mb 0.05 in1.3 mm 0.00 in/hr0.0 mm/hr 0.21 in5.3 mm
04:11 AM 52.7°F11.5°C 52.4°F11.3°C 99% 2.2 mph SE3.5 kmh SE 3.1 mph5.0 kmh 29.54 in1000.3 mb 0.05 in1.3 mm 0.00 in/hr0.0 mm/hr 0.21 in5.3 mm
04:10 AM 52.7°F11.5°C 52.4°F11.3°C 99% 2.3 mph SE3.7 kmh SE 3.1 mph5.0 kmh 29.53 in1000.0 mb 0.05 in1.3 mm 0.00 in/hr0.0 mm/hr 0.21 in5.3 mm
04:09 AM 52.7°F11.5°C 52.4°F11.3°C 99% 2.2 mph SE3.5 kmh SE 3.1 mph5.0 kmh 29.53 in1000.0 mb 0.05 in1.3 mm 0.00 in/hr0.0 mm/hr 0.21 in5.3 mm
04:08 AM 52.7°F11.5°C 52.4°F11.3°C 99% 2.3 mph SE3.7 kmh SE 3.1 mph5.0 kmh 29.53 in1000.0 mb 0.05 in1.3 mm 0.00 in/hr0.0 mm/hr 0.21 in5.3 mm
04:07 AM 52.7°F11.5°C 52.4°F11.3°C 99% 2.2 mph SE3.5 kmh SE 3.1 mph5.0 kmh 29.53 in1000.0 mb 0.05 in1.3 mm 0.60 in/hr15.2 mm/hr 0.21 in5.3 mm
04:06 AM 52.7°F11.5°C 52.4°F11.3°C 99% 2.1 mph SE3.4 kmh SE 3.1 mph5.0 kmh 29.53 in1000.0 mb 0.04 in1.0 mm 0.00 in/hr0.0 mm/hr 0.20 in5.1 mm
04:05 AM 52.7°F11.5°C 52.4°F11.3°C 99% 2.3 mph SE3.7 kmh SE 3.8 mph6.1 kmh 29.53 in1000.0 mb 0.04 in1.0 mm 0.00 in/hr0.0 mm/hr 0.20 in5.1 mm
04:04 AM 52.7°F11.5°C 52.4°F11.3°C 99% 2.4 mph SSE3.9 kmh SSE 3.8 mph6.1 kmh 29.54 in1000.3 mb 0.04 in1.0 mm 0.00 in/hr0.0 mm/hr 0.20 in5.1 mm
04:03 AM 52.7°F11.5°C 52.4°F11.3°C 99% 2.5 mph SSE4.0 kmh SSE 3.8 mph6.1 kmh 29.53 in1000.0 mb 0.05 in1.3 mm 0.00 in/hr0.0 mm/hr 0.20 in5.1 mm
04:02 AM 52.7°F11.5°C 52.4°F11.3°C 99% 2.7 mph SSE4.3 kmh SSE 3.8 mph6.1 kmh 29.53 in1000.0 mb 0.05 in1.3 mm 0.00 in/hr0.0 mm/hr 0.20 in5.1 mm
04:01 AM 52.7°F11.5°C 52.4°F11.3°C 99% 2.7 mph SSE4.3 kmh SSE 3.8 mph6.1 kmh 29.54 in1000.3 mb 0.05 in1.3 mm 0.00 in/hr0.0 mm/hr 0.20 in5.1 mm
04:00 AM 52.7°F11.5°C 52.4°F11.3°C 99% 2.6 mph SSE4.2 kmh SSE 3.8 mph6.1 kmh 29.53 in1000.0 mb 0.05 in1.3 mm 0.00 in/hr0.0 mm/hr 0.20 in5.1 mm
03:59 AM 52.7°F11.5°C 52.4°F11.3°C 99% 2.7 mph SSE4.3 kmh SSE 4.5 mph7.2 kmh 29.54 in1000.3 mb 0.05 in1.3 mm 0.00 in/hr0.0 mm/hr 0.20 in5.1 mm
03:58 AM 52.7°F11.5°C 52.4°F11.3°C 99% 2.8 mph SSE4.5 kmh SSE 4.5 mph7.2 kmh 29.53 in1000.0 mb 0.05 in1.3 mm 0.00 in/hr0.0 mm/hr 0.20 in5.1 mm
03:57 AM 52.7°F11.5°C 52.4°F11.3°C 99% 2.9 mph SSE4.7 kmh SSE 4.5 mph7.2 kmh 29.54 in1000.3 mb 0.05 in1.3 mm 0.00 in/hr0.0 mm/hr 0.20 in5.1 mm
03:56 AM 52.7°F11.5°C 52.4°F11.3°C 99% 3.1 mph SE5.0 kmh SE 4.5 mph7.2 kmh 29.54 in1000.3 mb 0.05 in1.3 mm 0.00 in/hr0.0 mm/hr 0.20 in5.1 mm
03:55 AM 52.7°F11.5°C 52.4°F11.3°C 99% 3.0 mph SE4.8 kmh SE 4.5 mph7.2 kmh 29.54 in1000.3 mb 0.05 in1.3 mm 0.00 in/hr0.0 mm/hr 0.20 in5.1 mm
03:54 AM 52.7°F11.5°C 52.4°F11.3°C 99% 3.0 mph SE4.8 kmh SE 4.5 mph7.2 kmh 29.54 in1000.3 mb 0.05 in1.3 mm 0.00 in/hr0.0 mm/hr 0.20 in5.1 mm
03:53 AM 52.9°F11.6°C 52.6°F11.4°C 99% 3.2 mph SE5.1 kmh SE 4.5 mph7.2 kmh 29.54 in1000.3 mb 0.05 in1.3 mm 0.00 in/hr0.0 mm/hr 0.20 in5.1 mm
03:52 AM 52.9°F11.6°C 52.6°F11.4°C 99% 3.3 mph ESE5.3 kmh ESE 4.5 mph7.2 kmh 29.54 in1000.3 mb 0.06 in1.5 mm 0.00 in/hr0.0 mm/hr 0.20 in5.1 mm
03:51 AM 52.9°F11.6°C 52.6°F11.4°C 99% 3.2 mph ESE5.1 kmh ESE 4.5 mph7.2 kmh 29.54 in1000.3 mb 0.06 in1.5 mm 0.00 in/hr0.0 mm/hr 0.20 in5.1 mm
03:50 AM 52.9°F11.6°C 52.6°F11.4°C 99% 3.4 mph ESE5.5 kmh ESE 4.5 mph7.2 kmh 29.54 in1000.3 mb 0.06 in1.5 mm 0.00 in/hr0.0 mm/hr 0.20 in5.1 mm
03:49 AM 52.9°F11.6°C 52.6°F11.4°C 99% 3.4 mph ESE5.5 kmh ESE 4.5 mph7.2 kmh 29.54 in1000.3 mb 0.06 in1.5 mm 0.00 in/hr0.0 mm/hr 0.20 in5.1 mm
03:48 AM 52.9°F11.6°C 52.6°F11.4°C 99% 3.2 mph ESE5.1 kmh ESE 4.5 mph7.2 kmh 29.54 in1000.3 mb 0.06 in1.5 mm 0.60 in/hr15.2 mm/hr 0.20 in5.1 mm
03:47 AM 52.9°F11.6°C 52.6°F11.4°C 99% 3.3 mph ESE5.3 kmh ESE 4.5 mph7.2 kmh 29.54 in1000.3 mb 0.05 in1.3 mm 0.00 in/hr0.0 mm/hr 0.19 in4.8 mm
03:46 AM 52.9°F11.6°C 52.6°F11.4°C 99% 3.1 mph ESE5.0 kmh ESE 4.5 mph7.2 kmh 29.54 in1000.3 mb 0.05 in1.3 mm 0.00 in/hr0.0 mm/hr 0.19 in4.8 mm
03:45 AM 52.9°F11.6°C 52.6°F11.4°C 99% 2.8 mph ESE4.5 kmh ESE 4.5 mph7.2 kmh 29.54 in1000.3 mb 0.05 in1.3 mm 0.00 in/hr0.0 mm/hr 0.19 in4.8 mm
03:44 AM 52.9°F11.6°C 52.6°F11.4°C 99% 2.7 mph ESE4.3 kmh ESE 4.5 mph7.2 kmh 29.54 in1000.3 mb 0.05 in1.3 mm 0.00 in/hr0.0 mm/hr 0.19 in4.8 mm
03:43 AM 52.9°F11.6°C 52.6°F11.4°C 99% 2.4 mph ESE3.9 kmh ESE 4.5 mph7.2 kmh 29.54 in1000.3 mb 0.05 in1.3 mm 0.00 in/hr0.0 mm/hr 0.19 in4.8 mm
03:42 AM 52.9°F11.6°C 52.6°F11.4°C 99% 2.2 mph SE3.5 kmh SE 3.8 mph6.1 kmh 29.54 in1000.3 mb 0.05 in1.3 mm 0.00 in/hr0.0 mm/hr 0.19 in4.8 mm
03:41 AM 52.9°F11.6°C 52.6°F11.4°C 99% 2.2 mph SE3.5 kmh SE 3.8 mph6.1 kmh 29.54 in1000.3 mb 0.05 in1.3 mm 0.00 in/hr0.0 mm/hr 0.19 in4.8 mm
03:40 AM 52.9°F11.6°C 52.6°F11.4°C 99% 2.1 mph SE3.4 kmh SE 3.8 mph6.1 kmh 29.54 in1000.3 mb 0.05 in1.3 mm 0.00 in/hr0.0 mm/hr 0.19 in4.8 mm
03:39 AM 52.9°F11.6°C 52.6°F11.4°C 99% 2.0 mph SE3.2 kmh SE 3.8 mph6.1 kmh 29.54 in1000.3 mb 0.05 in1.3 mm 0.00 in/hr0.0 mm/hr 0.19 in4.8 mm
03:38 AM 52.9°F11.6°C 52.6°F11.4°C 99% 2.1 mph SE3.4 kmh SE 3.8 mph6.1 kmh 29.54 in1000.3 mb 0.05 in1.3 mm 0.00 in/hr0.0 mm/hr 0.19 in4.8 mm
03:37 AM 52.9°F11.6°C 52.6°F11.4°C 99% 2.0 mph SE3.2 kmh SE 3.8 mph6.1 kmh 29.54 in1000.3 mb 0.06 in1.5 mm 0.00 in/hr0.0 mm/hr 0.19 in4.8 mm
03:36 AM 52.9°F11.6°C 52.6°F11.4°C 99% 2.1 mph SE3.4 kmh SE 3.1 mph5.0 kmh 29.54 in1000.3 mb 0.06 in1.5 mm 0.00 in/hr0.0 mm/hr 0.19 in4.8 mm
03:35 AM 52.9°F11.6°C 52.6°F11.4°C 99% 2.3 mph SSE3.7 kmh SSE 3.1 mph5.0 kmh 29.54 in1000.3 mb 0.06 in1.5 mm 0.00 in/hr0.0 mm/hr 0.19 in4.8 mm
03:34 AM 52.9°F11.6°C 52.6°F11.4°C 99% 2.3 mph SSE3.7 kmh SSE 3.1 mph5.0 kmh 29.54 in1000.3 mb 0.06 in1.5 mm 0.00 in/hr0.0 mm/hr 0.19 in4.8 mm
03:33 AM 52.7°F11.5°C 52.4°F11.3°C 99% 2.2 mph SSE3.5 kmh SSE 3.1 mph5.0 kmh 29.54 in1000.3 mb 0.06 in1.5 mm 0.00 in/hr0.0 mm/hr 0.19 in4.8 mm
03:32 AM 52.7°F11.5°C 52.4°F11.3°C 99% 2.2 mph SSE3.5 kmh SSE 3.1 mph5.0 kmh 29.54 in1000.3 mb 0.06 in1.5 mm 0.00 in/hr0.0 mm/hr 0.19 in4.8 mm
03:31 AM 52.7°F11.5°C 52.4°F11.3°C 99% 2.2 mph SSE3.5 kmh SSE 3.1 mph5.0 kmh 29.54 in1000.3 mb 0.06 in1.5 mm 0.00 in/hr0.0 mm/hr 0.19 in4.8 mm
03:30 AM 52.7°F11.5°C 52.4°F11.3°C 99% 1.9 mph SSE3.1 kmh SSE 3.1 mph5.0 kmh 29.54 in1000.3 mb 0.06 in1.5 mm 0.00 in/hr0.0 mm/hr 0.19 in4.8 mm
03:29 AM 52.7°F11.5°C 52.4°F11.3°C 99% 1.9 mph SSE3.1 kmh SSE 3.1 mph5.0 kmh 29.54 in1000.3 mb 0.06 in1.5 mm 0.00 in/hr0.0 mm/hr 0.19 in4.8 mm
03:28 AM 52.7°F11.5°C 52.4°F11.3°C 99% 1.8 mph S2.9 kmh S 3.1 mph5.0 kmh 29.54 in1000.3 mb 0.06 in1.5 mm 0.60 in/hr15.2 mm/hr 0.19 in4.8 mm
03:27 AM 52.7°F11.5°C 52.4°F11.3°C 99% 1.7 mph S2.7 kmh S 3.1 mph5.0 kmh 29.54 in1000.3 mb 0.05 in1.3 mm 0.00 in/hr0.0 mm/hr 0.18 in4.6 mm
03:26 AM 52.7°F11.5°C 52.4°F11.3°C 99% 1.6 mph S2.6 kmh S 2.2 mph3.5 kmh 29.54 in1000.3 mb 0.05 in1.3 mm 0.00 in/hr0.0 mm/hr 0.18 in4.6 mm
03:25 AM 52.7°F11.5°C 52.4°F11.3°C 99% 1.5 mph S2.4 kmh S 2.2 mph3.5 kmh 29.54 in1000.3 mb 0.05 in1.3 mm 0.00 in/hr0.0 mm/hr 0.18 in4.6 mm
03:24 AM 52.7°F11.5°C 52.4°F11.3°C 99% 1.3 mph S2.1 kmh S 2.2 mph3.5 kmh 29.55 in1000.7 mb 0.05 in1.3 mm 0.00 in/hr0.0 mm/hr 0.18 in4.6 mm
03:23 AM 52.7°F11.5°C 52.4°F11.3°C 99% 1.3 mph S2.1 kmh S 1.6 mph2.6 kmh 29.54 in1000.3 mb 0.05 in1.3 mm 0.00 in/hr0.0 mm/hr 0.18 in4.6 mm
03:22 AM 52.7°F11.5°C 52.4°F11.3°C 99% 1.3 mph S2.1 kmh S 1.6 mph2.6 kmh 29.54 in1000.3 mb 0.05 in1.3 mm 0.00 in/hr0.0 mm/hr 0.18 in4.6 mm
03:21 AM 52.7°F11.5°C 52.4°F11.3°C 99% 1.3 mph S2.1 kmh S 1.6 mph2.6 kmh 29.54 in1000.3 mb 0.05 in1.3 mm 0.00 in/hr0.0 mm/hr 0.18 in4.6 mm
03:20 AM 52.7°F11.5°C 52.4°F11.3°C 99% 1.3 mph SE2.1 kmh SE 1.6 mph2.6 kmh 29.54 in1000.3 mb 0.05 in1.3 mm 0.00 in/hr0.0 mm/hr 0.18 in4.6 mm
03:19 AM 52.7°F11.5°C 52.4°F11.3°C 99% 1.3 mph ESE2.1 kmh ESE 1.6 mph2.6 kmh 29.54 in1000.3 mb 0.05 in1.3 mm 0.60 in/hr15.2 mm/hr 0.18 in4.6 mm
03:18 AM 52.7°F11.5°C 52.4°F11.3°C 99% 1.3 mph E2.1 kmh E 1.6 mph2.6 kmh 29.54 in1000.3 mb 0.04 in1.0 mm 0.00 in/hr0.0 mm/hr 0.17 in4.3 mm
03:17 AM 52.7°F11.5°C 52.4°F11.3°C 99% 1.3 mph NE2.1 kmh NE 1.6 mph2.6 kmh 29.54 in1000.3 mb 0.04 in1.0 mm 0.00 in/hr0.0 mm/hr 0.17 in4.3 mm
03:16 AM 52.7°F11.5°C 52.4°F11.3°C 99% 1.4 mph NE2.3 kmh NE 2.2 mph3.5 kmh 29.54 in1000.3 mb 0.04 in1.0 mm 0.00 in/hr0.0 mm/hr 0.17 in4.3 mm
03:15 AM 52.9°F11.6°C 52.6°F11.4°C 99% 1.5 mph NE2.4 kmh NE 2.2 mph3.5 kmh 29.55 in1000.7 mb 0.04 in1.0 mm 0.00 in/hr0.0 mm/hr 0.17 in4.3 mm
03:14 AM 52.9°F11.6°C 52.6°F11.4°C 99% 1.6 mph NE2.6 kmh NE 2.2 mph3.5 kmh 29.55 in1000.7 mb 0.04 in1.0 mm 0.00 in/hr0.0 mm/hr 0.17 in4.3 mm
03:13 AM 52.9°F11.6°C 52.6°F11.4°C 99% 1.5 mph NE2.4 kmh NE 2.2 mph3.5 kmh 29.54 in1000.3 mb 0.04 in1.0 mm 0.00 in/hr0.0 mm/hr 0.17 in4.3 mm
03:12 AM 52.9°F11.6°C 52.6°F11.4°C 99% 1.5 mph NE2.4 kmh NE 2.2 mph3.5 kmh 29.55 in1000.7 mb 0.04 in1.0 mm 0.00 in/hr0.0 mm/hr 0.17 in4.3 mm
03:11 AM 52.9°F11.6°C 52.6°F11.4°C 99% 1.5 mph NE2.4 kmh NE 2.2 mph3.5 kmh 29.55 in1000.7 mb 0.04 in1.0 mm 0.00 in/hr0.0 mm/hr 0.17 in4.3 mm
03:10 AM 52.9°F11.6°C 52.6°F11.4°C 99% 1.4 mph NE2.3 kmh NE 2.2 mph3.5 kmh 29.54 in1000.3 mb 0.04 in1.0 mm 0.00 in/hr0.0 mm/hr 0.17 in4.3 mm
03:09 AM 52.9°F11.6°C 52.6°F11.4°C 99% 1.4 mph NE2.3 kmh NE 2.2 mph3.5 kmh 29.54 in1000.3 mb 0.04 in1.0 mm 0.00 in/hr0.0 mm/hr 0.17 in4.3 mm
03:08 AM 52.9°F11.6°C 52.6°F11.4°C 99% 1.4 mph NE2.3 kmh NE 2.2 mph3.5 kmh 29.55 in1000.7 mb 0.04 in1.0 mm 0.00 in/hr0.0 mm/hr 0.17 in4.3 mm
03:07 AM 52.9°F11.6°C 52.6°F11.4°C 99% 1.3 mph NE2.1 kmh NE 2.2 mph3.5 kmh 29.55 in1000.7 mb 0.04 in1.0 mm 0.00 in/hr0.0 mm/hr 0.17 in4.3 mm
03:06 AM 52.9°F11.6°C 52.6°F11.4°C 99% 1.3 mph NE2.1 kmh NE 2.2 mph3.5 kmh 29.55 in1000.7 mb 0.04 in1.0 mm 0.00 in/hr0.0 mm/hr 0.17 in4.3 mm
03:05 AM 52.9°F11.6°C 52.6°F11.4°C 99% 1.2 mph NE1.9 kmh NE 2.2 mph3.5 kmh 29.55 in1000.7 mb 0.04 in1.0 mm 1.20 in/hr30.5 mm/hr 0.17 in4.3 mm
03:04 AM 52.9°F11.6°C 52.6°F11.4°C 99% 1.1 mph NE1.8 kmh NE 2.2 mph3.5 kmh 29.55 in1000.7 mb 0.02 in0.5 mm 0.00 in/hr0.0 mm/hr 0.15 in3.8 mm
03:03 AM 52.9°F11.6°C 52.6°F11.4°C 99% 1.2 mph NE1.9 kmh NE 2.2 mph3.5 kmh 29.55 in1000.7 mb 0.02 in0.5 mm 0.00 in/hr0.0 mm/hr 0.15 in3.8 mm
03:02 AM 52.9°F11.6°C 52.6°F11.4°C 99% 1.1 mph NE1.8 kmh NE 2.2 mph3.5 kmh 29.55 in1000.7 mb 0.02 in0.5 mm 0.00 in/hr0.0 mm/hr 0.15 in3.8 mm
03:01 AM 52.9°F11.6°C 52.6°F11.4°C 99% 0.9 mph NE1.4 kmh NE 2.2 mph3.5 kmh 29.55 in1000.7 mb 0.02 in0.5 mm 0.00 in/hr0.0 mm/hr 0.15 in3.8 mm
03:00 AM 52.9°F11.6°C 52.6°F11.4°C 99% 0.9 mph NE1.4 kmh NE 2.2 mph3.5 kmh 29.55 in1000.7 mb 0.02 in0.5 mm 0.00 in/hr0.0 mm/hr 0.15 in3.8 mm
02:59 AM 52.9°F11.6°C 52.6°F11.4°C 99% 0.9 mph NE1.4 kmh NE 2.2 mph3.5 kmh 29.55 in1000.7 mb 0.02 in0.5 mm 0.00 in/hr0.0 mm/hr 0.15 in3.8 mm
02:58 AM 52.9°F11.6°C 52.6°F11.4°C 99% 0.9 mph NE1.4 kmh NE 2.2 mph3.5 kmh 29.55 in1000.7 mb 0.02 in0.5 mm 0.00 in/hr0.0 mm/hr 0.15 in3.8 mm
02:57 AM 52.9°F11.6°C 52.6°F11.4°C 99% 1.0 mph NE1.6 kmh NE 2.2 mph3.5 kmh 29.55 in1000.7 mb 0.02 in0.5 mm 0.00 in/hr0.0 mm/hr 0.15 in3.8 mm
02:56 AM 52.9°F11.6°C 52.6°F11.4°C 99% 1.0 mph NE1.6 kmh NE 2.2 mph3.5 kmh 29.55 in1000.7 mb 0.02 in0.5 mm 0.00 in/hr0.0 mm/hr 0.15 in3.8 mm
02:55 AM 52.9°F11.6°C 52.6°F11.4°C 99% 1.1 mph NE1.8 kmh NE 2.2 mph3.5 kmh 29.55 in1000.7 mb 0.02 in0.5 mm 0.00 in/hr0.0 mm/hr 0.15 in3.8 mm
02:54 AM 52.9°F11.6°C 52.6°F11.4°C 99% 1.1 mph NE1.8 kmh NE 2.2 mph3.5 kmh 29.55 in1000.7 mb 0.02 in0.5 mm 0.00 in/hr0.0 mm/hr 0.15 in3.8 mm
02:53 AM 52.9°F11.6°C 52.6°F11.4°C 99% 1.2 mph NE1.9 kmh NE 2.2 mph3.5 kmh 29.55 in1000.7 mb 0.02 in0.5 mm 0.60 in/hr15.2 mm/hr 0.15 in3.8 mm
02:52 AM 52.9°F11.6°C 52.6°F11.4°C 99% 1.3 mph NE2.1 kmh NE 2.2 mph3.5 kmh 29.55 in1000.7 mb 0.01 in0.3 mm 0.00 in/hr0.0 mm/hr 0.14 in3.6 mm
02:51 AM 52.9°F11.6°C 52.6°F11.4°C 99% 1.5 mph NE2.4 kmh NE 2.2 mph3.5 kmh 29.55 in1000.7 mb 0.01 in0.3 mm 0.00 in/hr0.0 mm/hr 0.14 in3.6 mm
02:50 AM 52.9°F11.6°C 52.6°F11.4°C 99% 1.5 mph NE2.4 kmh NE 2.2 mph3.5 kmh 29.55 in1000.7 mb 0.01 in0.3 mm 0.00 in/hr0.0 mm/hr 0.14 in3.6 mm
02:49 AM 52.9°F11.6°C 52.6°F11.4°C 99% 1.4 mph NE2.3 kmh NE 2.2 mph3.5 kmh 29.55 in1000.7 mb 0.02 in0.5 mm 0.00 in/hr0.0 mm/hr 0.14 in3.6 mm
02:48 AM 52.9°F11.6°C 52.6°F11.4°C 99% 1.4 mph NE2.3 kmh NE 2.2 mph3.5 kmh 29.55 in1000.7 mb 0.02 in0.5 mm 0.00 in/hr0.0 mm/hr 0.14 in3.6 mm
02:47 AM 52.9°F11.6°C 52.6°F11.4°C 99% 1.3 mph NE2.1 kmh NE 2.2 mph3.5 kmh 29.55 in1000.7 mb 0.02 in0.5 mm 0.00 in/hr0.0 mm/hr 0.14 in3.6 mm
02:46 AM 52.9°F11.6°C 52.6°F11.4°C 99% 1.3 mph NE2.1 kmh NE 2.2 mph3.5 kmh 29.55 in1000.7 mb 0.02 in0.5 mm 0.00 in/hr0.0 mm/hr 0.14 in3.6 mm
02:45 AM 52.9°F11.6°C 52.6°F11.4°C 99% 1.2 mph NE1.9 kmh NE 2.2 mph3.5 kmh 29.55 in1000.7 mb 0.02 in0.5 mm 0.00 in/hr0.0 mm/hr 0.14 in3.6 mm
02:44 AM 52.9°F11.6°C 52.6°F11.4°C 99% 1.3 mph NE2.1 kmh NE 2.2 mph3.5 kmh 29.55 in1000.7 mb 0.02 in0.5 mm 0.00 in/hr0.0 mm/hr 0.14 in3.6 mm
02:43 AM 53.1°F11.7°C 52.8°F11.6°C 99% 1.3 mph NE2.1 kmh NE 3.8 mph6.1 kmh 29.55 in1000.7 mb 0.02 in0.5 mm 0.00 in/hr0.0 mm/hr 0.14 in3.6 mm
02:42 AM 53.1°F11.7°C 52.8°F11.6°C 99% 1.5 mph NE2.4 kmh NE 3.8 mph6.1 kmh 29.55 in1000.7 mb 0.02 in0.5 mm 0.00 in/hr0.0 mm/hr 0.14 in3.6 mm
02:41 AM 53.1°F11.7°C 52.8°F11.6°C 99% 1.7 mph NE2.7 kmh NE 3.8 mph6.1 kmh 29.55 in1000.7 mb 0.02 in0.5 mm 0.00 in/hr0.0 mm/hr 0.14 in3.6 mm
02:40 AM 53.1°F11.7°C 52.8°F11.6°C 99% 1.8 mph NE2.9 kmh NE 3.8 mph6.1 kmh 29.55 in1000.7 mb 0.02 in0.5 mm 0.00 in/hr0.0 mm/hr 0.14 in3.6 mm
02:39 AM 53.1°F11.7°C 52.8°F11.6°C 99% 2.0 mph NE3.2 kmh NE 3.8 mph6.1 kmh 29.55 in1000.7 mb 0.02 in0.5 mm 0.00 in/hr0.0 mm/hr 0.14 in3.6 mm
02:38 AM 53.1°F11.7°C 52.8°F11.6°C 99% 2.0 mph NNE3.2 kmh NNE 3.8 mph6.1 kmh 29.55 in1000.7 mb 0.02 in0.5 mm 0.60 in/hr15.2 mm/hr 0.14 in3.6 mm
02:37 AM 53.1°F11.7°C 52.8°F11.6°C 99% 2.0 mph NE3.2 kmh NE 3.8 mph6.1 kmh 29.55 in1000.7 mb 0.01 in0.3 mm 0.00 in/hr0.0 mm/hr 0.13 in3.3 mm
02:36 AM 53.1°F11.7°C 52.8°F11.6°C 99% 2.0 mph NE3.2 kmh NE 3.8 mph6.1 kmh 29.55 in1000.7 mb 0.01 in0.3 mm 0.00 in/hr0.0 mm/hr 0.13 in3.3 mm
02:35 AM 53.1°F11.7°C 52.8°F11.6°C 99% 2.2 mph NE3.5 kmh NE 3.8 mph6.1 kmh 29.55 in1000.7 mb 0.01 in0.3 mm 0.00 in/hr0.0 mm/hr 0.13 in3.3 mm
02:34 AM 53.1°F11.7°C 52.8°F11.6°C 99% 2.1 mph NNE3.4 kmh NNE 3.8 mph6.1 kmh 29.55 in1000.7 mb 0.02 in0.5 mm 0.00 in/hr0.0 mm/hr 0.13 in3.3 mm
02:33 AM 53.1°F11.7°C 52.8°F11.6°C 99% 2.1 mph NE3.4 kmh NE 3.8 mph6.1 kmh 29.55 in1000.7 mb 0.02 in0.5 mm 0.00 in/hr0.0 mm/hr 0.13 in3.3 mm
02:32 AM 53.1°F11.7°C 52.8°F11.6°C 99% 1.9 mph NE3.1 kmh NE 3.1 mph5.0 kmh 29.55 in1000.7 mb 0.02 in0.5 mm 0.00 in/hr0.0 mm/hr 0.13 in3.3 mm
02:31 AM 53.1°F11.7°C 52.8°F11.6°C 99% 1.8 mph NE2.9 kmh NE 3.1 mph5.0 kmh 29.56 in1001.0 mb 0.04 in1.0 mm 0.00 in/hr0.0 mm/hr 0.13 in3.3 mm
02:30 AM 53.1°F11.7°C 52.8°F11.6°C 99% 1.9 mph NE3.1 kmh NE 3.1 mph5.0 kmh 29.55 in1000.7 mb 0.04 in1.0 mm 0.00 in/hr0.0 mm/hr 0.13 in3.3 mm
02:29 AM 53.1°F11.7°C 52.8°F11.6°C 99% 1.8 mph NE2.9 kmh NE 3.1 mph5.0 kmh 29.55 in1000.7 mb 0.05 in1.3 mm 0.00 in/hr0.0 mm/hr 0.13 in3.3 mm
02:28 AM 53.1°F11.7°C 52.8°F11.6°C 99% 1.7 mph NE2.7 kmh NE 3.1 mph5.0 kmh 29.55 in1000.7 mb 0.05 in1.3 mm 0.00 in/hr0.0 mm/hr 0.13 in3.3 mm
02:27 AM 53.1°F11.7°C 52.8°F11.6°C 99% 1.8 mph NE2.9 kmh NE 3.1 mph5.0 kmh 29.55 in1000.7 mb 0.05 in1.3 mm 0.00 in/hr0.0 mm/hr 0.13 in3.3 mm
02:26 AM 52.9°F11.6°C 52.6°F11.4°C 99% 1.7 mph NE2.7 kmh NE 3.1 mph5.0 kmh 29.55 in1000.7 mb 0.05 in1.3 mm 0.00 in/hr0.0 mm/hr 0.13 in3.3 mm
02:25 AM 53.1°F11.7°C 52.8°F11.6°C 99% 1.6 mph NE2.6 kmh NE 2.2 mph3.5 kmh 29.55 in1000.7 mb 0.05 in1.3 mm 0.00 in/hr0.0 mm/hr 0.13 in3.3 mm
02:24 AM 53.1°F11.7°C 52.8°F11.6°C 99% 1.5 mph NE2.4 kmh NE 2.2 mph3.5 kmh 29.55 in1000.7 mb 0.05 in1.3 mm 0.00 in/hr0.0 mm/hr 0.13 in3.3 mm
02:23 AM 52.9°F11.6°C 52.6°F11.4°C 99% 1.4 mph NE2.3 kmh NE 2.2 mph3.5 kmh 29.55 in1000.7 mb 0.06 in1.5 mm 0.00 in/hr0.0 mm/hr 0.13 in3.3 mm
02:22 AM 52.9°F11.6°C 52.6°F11.4°C 99% 1.4 mph NE2.3 kmh NE 2.2 mph3.5 kmh 29.55 in1000.7 mb 0.06 in1.5 mm 0.00 in/hr0.0 mm/hr 0.13 in3.3 mm
02:21 AM 52.9°F11.6°C 52.6°F11.4°C 99% 1.3 mph NE2.1 kmh NE 2.2 mph3.5 kmh 29.55 in1000.7 mb 0.06 in1.5 mm 0.00 in/hr0.0 mm/hr 0.13 in3.3 mm
02:20 AM 52.9°F11.6°C 52.6°F11.4°C 99% 1.2 mph NNE1.9 kmh NNE 2.2 mph3.5 kmh 29.55 in1000.7 mb 0.06 in1.5 mm 0.00 in/hr0.0 mm/hr 0.13 in3.3 mm
02:19 AM 52.9°F11.6°C 52.6°F11.4°C 99% 1.3 mph NNE2.1 kmh NNE 2.2 mph3.5 kmh 29.55 in1000.7 mb 0.06 in1.5 mm 0.00 in/hr0.0 mm/hr 0.13 in3.3 mm
02:18 AM 53.1°F11.7°C 52.8°F11.6°C 99% 1.3 mph N2.1 kmh N 2.2 mph3.5 kmh 29.55 in1000.7 mb 0.06 in1.5 mm 0.00 in/hr0.0 mm/hr 0.13 in3.3 mm
02:17 AM 53.1°F11.7°C 52.8°F11.6°C 99% 1.3 mph NNW2.1 kmh NNW 2.2 mph3.5 kmh 29.55 in1000.7 mb 0.06 in1.5 mm 0.00 in/hr0.0 mm/hr 0.13 in3.3 mm
02:16 AM 53.1°F11.7°C 52.8°F11.6°C 99% 1.2 mph NW1.9 kmh NW 2.2 mph3.5 kmh 29.55 in1000.7 mb 0.07 in1.8 mm 0.00 in/hr0.0 mm/hr 0.13 in3.3 mm
02:15 AM 53.1°F11.7°C 52.8°F11.6°C 99% 1.2 mph NW1.9 kmh NW 2.2 mph3.5 kmh 29.56 in1001.0 mb 0.07 in1.8 mm 0.00 in/hr0.0 mm/hr 0.13 in3.3 mm
02:14 AM 53.1°F11.7°C 52.8°F11.6°C 99% 1.2 mph WNW1.9 kmh WNW 2.2 mph3.5 kmh 29.56 in1001.0 mb 0.07 in1.8 mm 0.00 in/hr0.0 mm/hr 0.13 in3.3 mm
02:13 AM 53.1°F11.7°C 52.8°F11.6°C 99% 1.3 mph WNW2.1 kmh WNW 2.2 mph3.5 kmh 29.56 in1001.0 mb 0.08 in2.0 mm 0.00 in/hr0.0 mm/hr 0.13 in3.3 mm
02:12 AM 53.1°F11.7°C 52.8°F11.6°C 99% 1.2 mph W1.9 kmh W 2.2 mph3.5 kmh 29.56 in1001.0 mb 0.08 in2.0 mm 0.00 in/hr0.0 mm/hr 0.13 in3.3 mm
02:11 AM 53.1°F11.7°C 52.8°F11.6°C 99% 1.2 mph W1.9 kmh W 1.6 mph2.6 kmh 29.56 in1001.0 mb 0.09 in2.3 mm 0.00 in/hr0.0 mm/hr 0.13 in3.3 mm
02:10 AM 53.1°F11.7°C 52.8°F11.6°C 99% 1.1 mph W1.8 kmh W 1.6 mph2.6 kmh 29.56 in1001.0 mb 0.09 in2.3 mm 0.00 in/hr0.0 mm/hr 0.13 in3.3 mm
02:09 AM 53.1°F11.7°C 52.8°F11.6°C 99% 1.1 mph W1.8 kmh W 1.6 mph2.6 kmh 29.56 in1001.0 mb 0.09 in2.3 mm 0.00 in/hr0.0 mm/hr 0.13 in3.3 mm
02:08 AM 53.1°F11.7°C 52.8°F11.6°C 99% 1.0 mph W1.6 kmh W 1.6 mph2.6 kmh 29.56 in1001.0 mb 0.09 in2.3 mm 0.00 in/hr0.0 mm/hr 0.13 in3.3 mm
02:07 AM 53.1°F11.7°C 52.8°F11.6°C 99% 1.1 mph W1.8 kmh W 2.2 mph3.5 kmh 29.56 in1001.0 mb 0.09 in2.3 mm 0.00 in/hr0.0 mm/hr 0.13 in3.3 mm
02:06 AM 53.1°F11.7°C 52.8°F11.6°C 99% 1.3 mph W2.1 kmh W 2.2 mph3.5 kmh 29.56 in1001.0 mb 0.09 in2.3 mm 0.00 in/hr0.0 mm/hr 0.13 in3.3 mm
02:05 AM 53.2°F11.8°C 53.0°F11.7°C 99% 1.5 mph W2.4 kmh W 2.2 mph3.5 kmh 29.56 in1001.0 mb 0.09 in2.3 mm 0.00 in/hr0.0 mm/hr 0.13 in3.3 mm
02:04 AM 53.2°F11.8°C 53.0°F11.7°C 99% 1.4 mph W2.3 kmh W 2.2 mph3.5 kmh 29.56 in1001.0 mb 0.09 in2.3 mm 0.00 in/hr0.0 mm/hr 0.13 in3.3 mm
02:03 AM 53.2°F11.8°C 53.0°F11.7°C 99% 1.3 mph W2.1 kmh W 2.2 mph3.5 kmh 29.56 in1001.0 mb 0.09 in2.3 mm 0.00 in/hr0.0 mm/hr 0.13 in3.3 mm
02:02 AM 53.2°F11.8°C 53.0°F11.7°C 99% 1.3 mph W2.1 kmh W 2.2 mph3.5 kmh 29.56 in1001.0 mb 0.11 in2.8 mm 0.00 in/hr0.0 mm/hr 0.13 in3.3 mm
02:01 AM 53.2°F11.8°C 53.0°F11.7°C 99% 1.2 mph W1.9 kmh W 2.2 mph3.5 kmh 29.56 in1001.0 mb 0.11 in2.8 mm 0.00 in/hr0.0 mm/hr 0.13 in3.3 mm
02:00 AM 53.2°F11.8°C 53.0°F11.7°C 99% 1.2 mph W1.9 kmh W 2.2 mph3.5 kmh 29.56 in1001.0 mb 0.11 in2.8 mm 0.00 in/hr0.0 mm/hr 0.13 in3.3 mm
01:59 AM 53.2°F11.8°C 53.0°F11.7°C 99% 1.1 mph W1.8 kmh W 2.2 mph3.5 kmh 29.56 in1001.0 mb 0.11 in2.8 mm 0.00 in/hr0.0 mm/hr 0.13 in3.3 mm
01:58 AM 53.2°F11.8°C 53.0°F11.7°C 99% 1.0 mph W1.6 kmh W 2.2 mph3.5 kmh 29.56 in1001.0 mb 0.12 in3.0 mm 0.00 in/hr0.0 mm/hr 0.13 in3.3 mm
01:57 AM 53.2°F11.8°C 53.0°F11.7°C 99% 0.8 mph W1.3 kmh W 2.2 mph3.5 kmh 29.56 in1001.0 mb 0.12 in3.0 mm 0.00 in/hr0.0 mm/hr 0.13 in3.3 mm
01:56 AM 53.2°F11.8°C 53.0°F11.7°C 99% 0.6 mph WNW1.0 kmh WNW 2.2 mph3.5 kmh 29.56 in1001.0 mb 0.12 in3.0 mm 0.00 in/hr0.0 mm/hr 0.13 in3.3 mm
01:55 AM 53.2°F11.8°C 53.0°F11.7°C 99% 0.4 mph NW0.6 kmh NW 2.2 mph3.5 kmh 29.56 in1001.0 mb 0.12 in3.0 mm 0.00 in/hr0.0 mm/hr 0.13 in3.3 mm
01:54 AM 53.2°F11.8°C 53.0°F11.7°C 99% 0.3 mph NW0.5 kmh NW 0.7 mph1.1 kmh 29.56 in1001.0 mb 0.12 in3.0 mm 0.00 in/hr0.0 mm/hr 0.13 in3.3 mm
01:53 AM 53.2°F11.8°C 53.0°F11.7°C 99% 0.3 mph NW0.5 kmh NW 1.6 mph2.6 kmh 29.56 in1001.0 mb 0.13 in3.3 mm 0.00 in/hr0.0 mm/hr 0.13 in3.3 mm
01:52 AM 53.2°F11.8°C 53.0°F11.7°C 99% 0.4 mph NW0.6 kmh NW 1.6 mph2.6 kmh 29.56 in1001.0 mb 0.13 in3.3 mm 0.00 in/hr0.0 mm/hr 0.13 in3.3 mm
01:51 AM 53.2°F11.8°C 53.0°F11.7°C 99% 0.4 mph NNW0.6 kmh NNW 1.6 mph2.6 kmh 29.56 in1001.0 mb 0.13 in3.3 mm 0.60 in/hr15.2 mm/hr 0.13 in3.3 mm
01:50 AM 53.2°F11.8°C 53.0°F11.7°C 99% 0.5 mph NE0.8 kmh NE 1.6 mph2.6 kmh 29.56 in1001.0 mb 0.12 in3.0 mm 0.00 in/hr0.0 mm/hr 0.12 in3.0 mm
01:49 AM 53.4°F11.9°C 53.2°F11.8°C 99% 0.6 mph NE1.0 kmh NE 1.6 mph2.6 kmh 29.56 in1001.0 mb 0.12 in3.0 mm 0.00 in/hr0.0 mm/hr 0.12 in3.0 mm
01:48 AM 53.4°F11.9°C 53.2°F11.8°C 99% 0.7 mph ENE1.1 kmh ENE 1.6 mph2.6 kmh 29.56 in1001.0 mb 0.12 in3.0 mm 0.00 in/hr0.0 mm/hr 0.12 in3.0 mm
01:47 AM 53.4°F11.9°C 53.2°F11.8°C 99% 0.9 mph E1.4 kmh E 1.6 mph2.6 kmh 29.56 in1001.0 mb 0.12 in3.0 mm 0.00 in/hr0.0 mm/hr 0.12 in3.0 mm
01:46 AM 53.4°F11.9°C 53.2°F11.8°C 99% 1.0 mph ESE1.6 kmh ESE 1.6 mph2.6 kmh 29.56 in1001.0 mb 0.12 in3.0 mm 0.00 in/hr0.0 mm/hr 0.12 in3.0 mm
01:45 AM 53.4°F11.9°C 53.2°F11.8°C 99% 1.2 mph ESE1.9 kmh ESE 1.6 mph2.6 kmh 29.56 in1001.0 mb 0.12 in3.0 mm 0.00 in/hr0.0 mm/hr 0.12 in3.0 mm
01:44 AM 53.4°F11.9°C 53.2°F11.8°C 99% 1.4 mph SE2.3 kmh SE 2.2 mph3.5 kmh 29.56 in1001.0 mb 0.12 in3.0 mm 0.00 in/hr0.0 mm/hr 0.12 in3.0 mm
01:43 AM 53.4°F11.9°C 53.2°F11.8°C 99% 1.5 mph SE2.4 kmh SE 2.2 mph3.5 kmh 29.56 in1001.0 mb 0.12 in3.0 mm 0.00 in/hr0.0 mm/hr 0.12 in3.0 mm
01:42 AM 53.4°F11.9°C 53.2°F11.8°C 99% 1.6 mph SSE2.6 kmh SSE 2.2 mph3.5 kmh 29.56 in1001.0 mb 0.12 in3.0 mm 0.00 in/hr0.0 mm/hr 0.12 in3.0 mm
01:41 AM 53.4°F11.9°C 52.9°F11.6°C 98% 1.8 mph S2.9 kmh S 3.1 mph5.0 kmh 29.56 in1001.0 mb 0.12 in3.0 mm 0.00 in/hr0.0 mm/hr 0.12 in3.0 mm
01:40 AM 53.4°F11.9°C 53.2°F11.8°C 99% 1.8 mph S2.9 kmh S 3.1 mph5.0 kmh 29.56 in1001.0 mb 0.12 in3.0 mm 0.00 in/hr0.0 mm/hr 0.12 in3.0 mm
01:39 AM 53.6°F12.0°C 53.1°F11.7°C 98% 1.7 mph SSW2.7 kmh SSW 3.1 mph5.0 kmh 29.56 in1001.0 mb 0.12 in3.0 mm 0.00 in/hr0.0 mm/hr 0.12 in3.0 mm
01:38 AM 53.4°F11.9°C 52.9°F11.6°C 98% 1.8 mph SSW2.9 kmh SSW 3.1 mph5.0 kmh 29.56 in1001.0 mb 0.12 in3.0 mm 0.00 in/hr0.0 mm/hr 0.12 in3.0 mm
01:37 AM 53.6°F12.0°C 53.1°F11.7°C 98% 1.8 mph SW2.9 kmh SW 3.1 mph5.0 kmh 29.56 in1001.0 mb 0.12 in3.0 mm 0.00 in/hr0.0 mm/hr 0.12 in3.0 mm
01:36 AM 53.6°F12.0°C 53.1°F11.7°C 98% 1.8 mph W2.9 kmh W 3.1 mph5.0 kmh 29.56 in1001.0 mb 0.12 in3.0 mm 0.60 in/hr15.2 mm/hr 0.12 in3.0 mm
01:35 AM 53.6°F12.0°C 53.1°F11.7°C 98% 1.7 mph WNW2.7 kmh WNW 3.1 mph5.0 kmh 29.56 in1001.0 mb 0.11 in2.8 mm 0.00 in/hr0.0 mm/hr 0.11 in2.8 mm
01:34 AM 53.6°F12.0°C 53.1°F11.7°C 98% 1.6 mph NW2.6 kmh NW 3.1 mph5.0 kmh 29.56 in1001.0 mb 0.11 in2.8 mm 0.00 in/hr0.0 mm/hr 0.11 in2.8 mm
01:33 AM 53.6°F12.0°C 53.1°F11.7°C 98% 1.4 mph NNW2.3 kmh NNW 3.1 mph5.0 kmh 29.56 in1001.0 mb 0.11 in2.8 mm 1.20 in/hr30.5 mm/hr 0.11 in2.8 mm
01:32 AM 53.6°F12.0°C 53.1°F11.7°C 98% 1.2 mph NNW1.9 kmh NNW 3.1 mph5.0 kmh 29.56 in1001.0 mb 0.09 in2.3 mm 0.00 in/hr0.0 mm/hr 0.09 in2.3 mm
01:31 AM 53.6°F12.0°C 52.8°F11.6°C 97% 0.9 mph N1.4 kmh N 2.2 mph3.5 kmh 29.56 in1001.0 mb 0.09 in2.3 mm 0.60 in/hr15.2 mm/hr 0.09 in2.3 mm
01:30 AM 53.4°F11.9°C 52.6°F11.4°C 97% 0.7 mph N1.1 kmh N 1.6 mph2.6 kmh 29.57 in1001.4 mb 0.08 in2.0 mm 0.00 in/hr0.0 mm/hr 0.08 in2.0 mm
01:29 AM 53.6°F12.0°C 52.8°F11.6°C 97% 0.7 mph N1.1 kmh N 1.6 mph2.6 kmh 29.56 in1001.0 mb 0.08 in2.0 mm 0.00 in/hr0.0 mm/hr 0.08 in2.0 mm
01:28 AM 53.6°F12.0°C 52.8°F11.6°C 97% 0.7 mph N1.1 kmh N 1.6 mph2.6 kmh 29.57 in1001.4 mb 0.08 in2.0 mm 0.00 in/hr0.0 mm/hr 0.08 in2.0 mm
01:27 AM 53.6°F12.0°C 52.8°F11.6°C 97% 0.5 mph N0.8 kmh N 1.6 mph2.6 kmh 29.57 in1001.4 mb 0.08 in2.0 mm 0.00 in/hr0.0 mm/hr 0.08 in2.0 mm
01:26 AM 53.6°F12.0°C 52.8°F11.6°C 97% 0.4 mph N0.6 kmh N 1.6 mph2.6 kmh 29.57 in1001.4 mb 0.08 in2.0 mm 0.00 in/hr0.0 mm/hr 0.08 in2.0 mm
01:25 AM 53.6°F12.0°C 52.8°F11.6°C 97% 0.3 mph N0.5 kmh N 0.7 mph1.1 kmh 29.56 in1001.0 mb 0.08 in2.0 mm 0.60 in/hr15.2 mm/hr 0.08 in2.0 mm
01:24 AM 53.6°F12.0°C 52.8°F11.6°C 97% 0.3 mph N0.5 kmh N 0.7 mph1.1 kmh 29.57 in1001.4 mb 0.07 in1.8 mm 0.00 in/hr0.0 mm/hr 0.07 in1.8 mm
01:23 AM 53.6°F12.0°C 52.8°F11.6°C 97% 0.2 mph N0.3 kmh N 0.7 mph1.1 kmh 29.57 in1001.4 mb 0.07 in1.8 mm 0.00 in/hr0.0 mm/hr 0.07 in1.8 mm
01:22 AM 53.6°F12.0°C 52.8°F11.6°C 97% 0.3 mph N0.5 kmh N 0.7 mph1.1 kmh 29.57 in1001.4 mb 0.07 in1.8 mm 0.00 in/hr0.0 mm/hr 0.07 in1.8 mm
01:21 AM 53.6°F12.0°C 52.8°F11.6°C 97% 0.4 mph N0.6 kmh N 0.7 mph1.1 kmh 29.56 in1001.0 mb 0.07 in1.8 mm 0.00 in/hr0.0 mm/hr 0.07 in1.8 mm
01:20 AM 53.6°F12.0°C 52.8°F11.6°C 97% 0.4 mph N0.6 kmh N 0.7 mph1.1 kmh 29.57 in1001.4 mb 0.07 in1.8 mm 0.00 in/hr0.0 mm/hr 0.07 in1.8 mm
01:19 AM 53.8°F12.1°C 52.7°F11.5°C 96% 0.4 mph N0.6 kmh N 0.7 mph1.1 kmh 29.57 in1001.4 mb 0.07 in1.8 mm 0.00 in/hr0.0 mm/hr 0.07 in1.8 mm
01:18 AM 53.8°F12.1°C 52.7°F11.5°C 96% 0.3 mph N0.5 kmh N 0.7 mph1.1 kmh 29.57 in1001.4 mb 0.07 in1.8 mm 0.60 in/hr15.2 mm/hr 0.07 in1.8 mm
01:17 AM 53.8°F12.1°C 52.7°F11.5°C 96% 0.3 mph N0.5 kmh N 0.7 mph1.1 kmh 29.57 in1001.4 mb 0.06 in1.5 mm 0.00 in/hr0.0 mm/hr 0.06 in1.5 mm
01:16 AM 53.8°F12.1°C 52.7°F11.5°C 96% 0.3 mph N0.5 kmh N 0.7 mph1.1 kmh 29.57 in1001.4 mb 0.06 in1.5 mm 0.00 in/hr0.0 mm/hr 0.06 in1.5 mm
01:15 AM 53.8°F12.1°C 52.7°F11.5°C 96% 0.3 mph N0.5 kmh N 0.7 mph1.1 kmh 29.57 in1001.4 mb 0.06 in1.5 mm 0.60 in/hr15.2 mm/hr 0.06 in1.5 mm
01:14 AM 53.8°F12.1°C 52.7°F11.5°C 96% 0.3 mph N0.5 kmh N 1.6 mph2.6 kmh 29.57 in1001.4 mb 0.05 in1.3 mm 0.00 in/hr0.0 mm/hr 0.05 in1.3 mm
01:13 AM 53.8°F12.1°C 52.7°F11.5°C 96% 0.4 mph N0.6 kmh N 1.6 mph2.6 kmh 29.57 in1001.4 mb 0.05 in1.3 mm 0.00 in/hr0.0 mm/hr 0.05 in1.3 mm
01:12 AM 54.0°F12.2°C 52.9°F11.6°C 96% 0.4 mph N0.6 kmh N 1.6 mph2.6 kmh 29.57 in1001.4 mb 0.05 in1.3 mm 0.60 in/hr15.2 mm/hr 0.05 in1.3 mm
01:11 AM 54.0°F12.2°C 52.9°F11.6°C 96% 0.4 mph N0.6 kmh N 1.6 mph2.6 kmh 29.57 in1001.4 mb 0.04 in1.0 mm 0.00 in/hr0.0 mm/hr 0.04 in1.0 mm
01:10 AM 54.0°F12.2°C 52.6°F11.4°C 95% 0.5 mph N0.8 kmh N 1.6 mph2.6 kmh 29.57 in1001.4 mb 0.04 in1.0 mm 0.00 in/hr0.0 mm/hr 0.04 in1.0 mm
01:09 AM 54.0°F12.2°C 52.6°F11.4°C 95% 0.6 mph N1.0 kmh N 1.6 mph2.6 kmh 29.57 in1001.4 mb 0.04 in1.0 mm 0.00 in/hr0.0 mm/hr 0.04 in1.0 mm
01:08 AM 54.0°F12.2°C 52.6°F11.4°C 95% 0.6 mph N1.0 kmh N 1.6 mph2.6 kmh 29.57 in1001.4 mb 0.04 in1.0 mm 0.00 in/hr0.0 mm/hr 0.04 in1.0 mm
01:07 AM 54.1°F12.3°C 52.7°F11.5°C 95% 0.7 mph N1.1 kmh N 1.6 mph2.6 kmh 29.57 in1001.4 mb 0.04 in1.0 mm 0.00 in/hr0.0 mm/hr 0.04 in1.0 mm
01:06 AM 54.1°F12.3°C 52.7°F11.5°C 95% 0.7 mph N1.1 kmh N 1.6 mph2.6 kmh 29.57 in1001.4 mb 0.04 in1.0 mm 0.00 in/hr0.0 mm/hr 0.04 in1.0 mm
01:05 AM 54.1°F12.3°C 52.7°F11.5°C 95% 0.8 mph N1.3 kmh N 1.6 mph2.6 kmh 29.57 in1001.4 mb 0.04 in1.0 mm 0.00 in/hr0.0 mm/hr 0.04 in1.0 mm
01:04 AM 54.1°F12.3°C 52.7°F11.5°C 95% 0.8 mph N1.3 kmh N 3.1 mph5.0 kmh 29.57 in1001.4 mb 0.04 in1.0 mm 1.20 in/hr30.5 mm/hr 0.04 in1.0 mm
01:03 AM 54.1°F12.3°C 52.7°F11.5°C 95% 1.1 mph N1.8 kmh N 3.8 mph6.1 kmh 29.57 in1001.4 mb 0.02 in0.5 mm 0.00 in/hr0.0 mm/hr 0.02 in0.5 mm
01:02 AM 54.3°F12.4°C 52.9°F11.6°C 95% 1.4 mph N2.3 kmh N 3.8 mph6.1 kmh 29.57 in1001.4 mb 0.02 in0.5 mm 0.00 in/hr0.0 mm/hr 0.02 in0.5 mm
01:01 AM 54.3°F12.4°C 52.9°F11.6°C 95% 1.7 mph N2.7 kmh N 3.8 mph6.1 kmh 29.57 in1001.4 mb 0.02 in0.5 mm 0.00 in/hr0.0 mm/hr 0.02 in0.5 mm
01:00 AM 54.3°F12.4°C 52.9°F11.6°C 95% 1.8 mph N2.9 kmh N 3.8 mph6.1 kmh 29.57 in1001.4 mb 0.02 in0.5 mm 0.01 in/hr0.3 mm/hr 0.02 in0.5 mm
12:59 AM 54.3°F12.4°C 52.9°F11.6°C 95% 1.9 mph N3.1 kmh N 3.8 mph6.1 kmh 29.57 in1001.4 mb 0.01 in0.3 mm 0.00 in/hr0.0 mm/hr 0.01 in0.3 mm
12:58 AM 54.3°F12.4°C 52.9°F11.6°C 95% 2.1 mph N3.4 kmh N 3.8 mph6.1 kmh 29.57 in1001.4 mb 0.01 in0.3 mm 0.00 in/hr0.0 mm/hr 0.01 in0.3 mm
12:57 AM 54.5°F12.5°C 53.1°F11.7°C 95% 2.3 mph N3.7 kmh N 3.8 mph6.1 kmh 29.57 in1001.4 mb 0.01 in0.3 mm 0.00 in/hr0.0 mm/hr 0.01 in0.3 mm
12:56 AM 54.5°F12.5°C 53.1°F11.7°C 95% 2.4 mph N3.9 kmh N 3.8 mph6.1 kmh 29.57 in1001.4 mb 0.01 in0.3 mm 0.00 in/hr0.0 mm/hr 0.01 in0.3 mm
12:55 AM 54.5°F12.5°C 53.1°F11.7°C 95% 2.4 mph N3.9 kmh N 3.8 mph6.1 kmh 29.57 in1001.4 mb 0.01 in0.3 mm 0.60 in/hr15.2 mm/hr 0.01 in0.3 mm
12:54 AM 54.5°F12.5°C 52.8°F11.6°C 94% 2.3 mph N3.7 kmh N 3.8 mph6.1 kmh 29.57 in1001.4 mb 0.00 in0.0 mm 0.00 in/hr0.0 mm/hr 0.00 in0.0 mm
12:53 AM 54.5°F12.5°C 53.1°F11.7°C 95% 2.1 mph N3.4 kmh N 3.8 mph6.1 kmh 29.57 in1001.4 mb 0.00 in0.0 mm 0.00 in/hr0.0 mm/hr 0.00 in0.0 mm
12:52 AM 54.5°F12.5°C 52.8°F11.6°C 94% 1.9 mph NNE3.1 kmh NNE 3.8 mph6.1 kmh 29.57 in1001.4 mb 0.00 in0.0 mm 0.00 in/hr0.0 mm/hr 0.00 in0.0 mm
12:51 AM 54.5°F12.5°C 52.8°F11.6°C 94% 1.7 mph NE2.7 kmh NE 2.2 mph3.5 kmh 29.57 in1001.4 mb 0.00 in0.0 mm 0.00 in/hr0.0 mm/hr 0.00 in0.0 mm
12:50 AM 54.5°F12.5°C 52.8°F11.6°C 94% 1.7 mph ENE2.7 kmh ENE 2.2 mph3.5 kmh 29.57 in1001.4 mb 0.00 in0.0 mm 0.00 in/hr0.0 mm/hr 0.00 in0.0 mm
12:49 AM 54.5°F12.5°C 52.8°F11.6°C 94% 1.7 mph E2.7 kmh E 2.2 mph3.5 kmh 29.57 in1001.4 mb 0.00 in0.0 mm 0.00 in/hr0.0 mm/hr 0.00 in0.0 mm
12:48 AM 54.5°F12.5°C 52.8°F11.6°C 94% 1.6 mph ESE2.6 kmh ESE 2.2 mph3.5 kmh 29.57 in1001.4 mb 0.00 in0.0 mm 0.00 in/hr0.0 mm/hr 0.00 in0.0 mm
12:47 AM 54.5°F12.5°C 52.8°F11.6°C 94% 1.6 mph SE2.6 kmh SE 2.2 mph3.5 kmh 29.57 in1001.4 mb 0.00 in0.0 mm 0.00 in/hr0.0 mm/hr 0.00 in0.0 mm
12:46 AM 54.5°F12.5°C 52.8°F11.6°C 94% 1.6 mph SE2.6 kmh SE 2.2 mph3.5 kmh 29.57 in1001.4 mb 0.00 in0.0 mm 0.00 in/hr0.0 mm/hr 0.00 in0.0 mm
12:45 AM 54.5°F12.5°C 52.8°F11.6°C 94% 1.7 mph SE2.7 kmh SE 2.2 mph3.5 kmh 29.58 in1001.7 mb 0.00 in0.0 mm 0.00 in/hr0.0 mm/hr 0.00 in0.0 mm
12:44 AM 54.5°F12.5°C 52.8°F11.6°C 94% 2.0 mph SE3.2 kmh SE 3.1 mph5.0 kmh 29.58 in1001.7 mb 0.00 in0.0 mm 0.00 in/hr0.0 mm/hr 0.00 in0.0 mm
12:43 AM 54.5°F12.5°C 52.8°F11.6°C 94% 2.1 mph SE3.4 kmh SE 3.1 mph5.0 kmh 29.58 in1001.7 mb 0.00 in0.0 mm 0.00 in/hr0.0 mm/hr 0.00 in0.0 mm
12:42 AM 54.5°F12.5°C 52.8°F11.6°C 94% 2.1 mph SSE3.4 kmh SSE 3.1 mph5.0 kmh 29.58 in1001.7 mb 0.00 in0.0 mm 0.00 in/hr0.0 mm/hr 0.00 in0.0 mm
12:41 AM 54.5°F12.5°C 52.8°F11.6°C 94% 2.0 mph SSE3.2 kmh SSE 3.1 mph5.0 kmh 29.58 in1001.7 mb 0.00 in0.0 mm 0.00 in/hr0.0 mm/hr 0.00 in0.0 mm
12:40 AM 54.5°F12.5°C 52.8°F11.6°C 94% 2.1 mph SSE3.4 kmh SSE 3.1 mph5.0 kmh 29.58 in1001.7 mb 0.00 in0.0 mm 0.00 in/hr0.0 mm/hr 0.00 in0.0 mm
12:39 AM 54.5°F12.5°C 52.8°F11.6°C 94% 2.1 mph SSE3.4 kmh SSE 3.1 mph5.0 kmh 29.58 in1001.7 mb 0.00 in0.0 mm 0.00 in/hr0.0 mm/hr 0.00 in0.0 mm
12:38 AM 54.3°F12.4°C 52.6°F11.4°C 94% 2.0 mph SSE3.2 kmh SSE 3.1 mph5.0 kmh 29.58 in1001.7 mb 0.00 in0.0 mm 0.00 in/hr0.0 mm/hr 0.00 in0.0 mm
12:37 AM 54.3°F12.4°C 52.6°F11.4°C 94% 1.9 mph SSE3.1 kmh SSE 3.1 mph5.0 kmh 29.58 in1001.7 mb 0.00 in0.0 mm 0.00 in/hr0.0 mm/hr 0.00 in0.0 mm
12:36 AM 54.3°F12.4°C 52.6°F11.4°C 94% 1.8 mph SE2.9 kmh SE 3.1 mph5.0 kmh 29.58 in1001.7 mb 0.00 in0.0 mm 0.00 in/hr0.0 mm/hr 0.00 in0.0 mm
12:35 AM 54.3°F12.4°C 52.6°F11.4°C 94% 1.7 mph SE2.7 kmh SE 3.1 mph5.0 kmh 29.58 in1001.7 mb 0.00 in0.0 mm 0.00 in/hr0.0 mm/hr 0.00 in0.0 mm
12:34 AM 54.3°F12.4°C 52.6°F11.4°C 94% 1.5 mph SE2.4 kmh SE 3.1 mph5.0 kmh 29.58 in1001.7 mb 0.00 in0.0 mm 0.00 in/hr0.0 mm/hr 0.00 in0.0 mm
12:33 AM 54.3°F12.4°C 52.6°F11.4°C 94% 1.4 mph SE2.3 kmh SE 2.2 mph3.5 kmh 29.58 in1001.7 mb 0.00 in0.0 mm 0.00 in/hr0.0 mm/hr 0.00 in0.0 mm
12:32 AM 54.3°F12.4°C 52.6°F11.4°C 94% 1.4 mph SE2.3 kmh SE 2.2 mph3.5 kmh 29.58 in1001.7 mb 0.00 in0.0 mm 0.00 in/hr0.0 mm/hr 0.00 in0.0 mm
12:31 AM 54.3°F12.4°C 52.6°F11.4°C 94% 1.4 mph SE2.3 kmh SE 2.2 mph3.5 kmh 29.58 in1001.7 mb 0.00 in0.0 mm 0.00 in/hr0.0 mm/hr 0.00 in0.0 mm
12:30 AM 54.3°F12.4°C 52.6°F11.4°C 94% 1.2 mph SE1.9 kmh SE 1.6 mph2.6 kmh 29.58 in1001.7 mb 0.00 in0.0 mm 0.00 in/hr0.0 mm/hr 0.00 in0.0 mm
12:29 AM 54.3°F12.4°C 52.6°F11.4°C 94% 1.2 mph SE1.9 kmh SE 1.6 mph2.6 kmh 29.58 in1001.7 mb 0.00 in0.0 mm 0.00 in/hr0.0 mm/hr 0.00 in0.0 mm
12:28 AM 54.3°F12.4°C 52.6°F11.4°C 94% 1.2 mph ESE1.9 kmh ESE 1.6 mph2.6 kmh 29.58 in1001.7 mb 0.00 in0.0 mm 0.00 in/hr0.0 mm/hr 0.00 in0.0 mm
12:27 AM 54.3°F12.4°C 52.6°F11.4°C 94% 1.1 mph ESE1.8 kmh ESE 1.6 mph2.6 kmh 29.58 in1001.7 mb 0.00 in0.0 mm 0.00 in/hr0.0 mm/hr 0.00 in0.0 mm
12:26 AM 54.1°F12.3°C 52.5°F11.4°C 94% 1.2 mph ESE1.9 kmh ESE 1.6 mph2.6 kmh 29.58 in1001.7 mb 0.00 in0.0 mm 0.00 in/hr0.0 mm/hr 0.00 in0.0 mm
12:25 AM 54.3°F12.4°C 52.6°F11.4°C 94% 1.2 mph SE1.9 kmh SE 1.6 mph2.6 kmh 29.58 in1001.7 mb 0.00 in0.0 mm 0.00 in/hr0.0 mm/hr 0.00 in0.0 mm
12:24 AM 54.1°F12.3°C 52.5°F11.4°C 94% 1.2 mph SE1.9 kmh SE 1.6 mph2.6 kmh 29.58 in1001.7 mb 0.00 in0.0 mm 0.00 in/hr0.0 mm/hr 0.00 in0.0 mm
12:23 AM 54.3°F12.4°C 52.6°F11.4°C 94% 1.2 mph SE1.9 kmh SE 1.6 mph2.6 kmh 29.58 in1001.7 mb 0.00 in0.0 mm 0.00 in/hr0.0 mm/hr 0.00 in0.0 mm
12:22 AM 54.3°F12.4°C 52.6°F11.4°C 94% 1.1 mph SE1.8 kmh SE 1.6 mph2.6 kmh 29.59 in1002.0 mb 0.00 in0.0 mm 0.00 in/hr0.0 mm/hr 0.00 in0.0 mm
12:21 AM 54.1°F12.3°C 52.5°F11.4°C 94% 1.1 mph SE1.8 kmh SE 1.6 mph2.6 kmh 29.59 in1002.0 mb 0.00 in0.0 mm 0.00 in/hr0.0 mm/hr 0.00 in0.0 mm
12:20 AM 54.1°F12.3°C 52.5°F11.4°C 94% 1.2 mph SE1.9 kmh SE 1.6 mph2.6 kmh 29.58 in1001.7 mb 0.00 in0.0 mm 0.00 in/hr0.0 mm/hr 0.00 in0.0 mm
12:19 AM 54.1°F12.3°C 52.5°F11.4°C 94% 1.2 mph SSE1.9 kmh SSE 1.6 mph2.6 kmh 29.58 in1001.7 mb 0.00 in0.0 mm 0.00 in/hr0.0 mm/hr 0.00 in0.0 mm
12:18 AM 54.1°F12.3°C 52.5°F11.4°C 94% 1.2 mph S1.9 kmh S 1.6 mph2.6 kmh 29.59 in1002.0 mb 0.00 in0.0 mm 0.00 in/hr0.0 mm/hr 0.00 in0.0 mm
12:17 AM 54.1°F12.3°C 52.5°F11.4°C 94% 1.3 mph S2.1 kmh S 1.6 mph2.6 kmh 29.59 in1002.0 mb 0.00 in0.0 mm 0.00 in/hr0.0 mm/hr 0.00 in0.0 mm
12:16 AM 54.1°F12.3°C 52.5°F11.4°C 94% 1.4 mph S2.3 kmh S 1.6 mph2.6 kmh 29.58 in1001.7 mb 0.00 in0.0 mm 0.00 in/hr0.0 mm/hr 0.00 in0.0 mm
12:15 AM 54.1°F12.3°C 52.5°F11.4°C 94% 1.4 mph SSE2.3 kmh SSE 1.6 mph2.6 kmh 29.59 in1002.0 mb 0.00 in0.0 mm 0.00 in/hr0.0 mm/hr 0.00 in0.0 mm
12:14 AM 54.1°F12.3°C 52.5°F11.4°C 94% 1.4 mph SSE2.3 kmh SSE 1.6 mph2.6 kmh 29.59 in1002.0 mb 0.00 in0.0 mm 0.00 in/hr0.0 mm/hr 0.00 in0.0 mm
12:13 AM 54.1°F12.3°C 52.5°F11.4°C 94% 1.5 mph SSE2.4 kmh SSE 2.2 mph3.5 kmh 29.58 in1001.7 mb 0.00 in0.0 mm 0.00 in/hr0.0 mm/hr 0.00 in0.0 mm
12:12 AM 54.1°F12.3°C 52.5°F11.4°C 94% 1.6 mph SSE2.6 kmh SSE 2.2 mph3.5 kmh 29.59 in1002.0 mb 0.00 in0.0 mm 0.00